<?xml version="1.0" encoding="UTF-8" standalone="no" ?>
<gpx xmlns="http://www.topografix.com/GPX/1/1" xmlns:xsi="http://www.w3.org/2001/XMLSchema-instance" xsi:schemaLocation="http://www.topografix.com/GPX/1/1 http://www.topografix.com/GPX/1/1/gpx.xsd" version="1.1" creator="VisuGPX - https://www.visugpx.com">
  <metadata>
    <name>2018-09-26 Boucle les Ilhes-Roc d'en Galiere-Serre de Montredon-Fournes-Les Ilhes</name>
    <desc><![CDATA[                                                                                                                               ]]></desc>
  </metadata>
  <trk>
    <name><![CDATA[2018-09-26 Boucle les Ilhes-Roc d'en Galiere-Serre de Montredon-Fournes-Les Ilhes]]></name>
    <trkseg>
      <trkpt lat="43.35119" lon="2.37724">
        <ele>237.25</ele>
        <time>2018-09-26T05:51:55Z</time>
      </trkpt>
      <trkpt lat="43.35124" lon="2.37732">
        <ele>236.43</ele>
        <time>2018-09-26T05:52:45Z</time>
      </trkpt>
      <trkpt lat="43.35131" lon="2.37744">
        <ele>236.66</ele>
        <time>2018-09-26T05:52:51Z</time>
      </trkpt>
      <trkpt lat="43.35137" lon="2.37755">
        <ele>236.83</ele>
        <time>2018-09-26T05:52:56Z</time>
      </trkpt>
      <trkpt lat="43.35144" lon="2.37765">
        <ele>236.84</ele>
        <time>2018-09-26T05:53:01Z</time>
      </trkpt>
      <trkpt lat="43.35149" lon="2.37777">
        <ele>236.73</ele>
        <time>2018-09-26T05:53:06Z</time>
      </trkpt>
      <trkpt lat="43.35157" lon="2.37785">
        <ele>236.47</ele>
        <time>2018-09-26T05:53:11Z</time>
      </trkpt>
      <trkpt lat="43.35164" lon="2.37794">
        <ele>235.83</ele>
        <time>2018-09-26T05:53:32Z</time>
      </trkpt>
      <trkpt lat="43.35172" lon="2.37784">
        <ele>236.08</ele>
        <time>2018-09-26T05:53:38Z</time>
      </trkpt>
      <trkpt lat="43.3518" lon="2.37775">
        <ele>236.43</ele>
        <time>2018-09-26T05:53:43Z</time>
      </trkpt>
      <trkpt lat="43.35186" lon="2.37765">
        <ele>236.5</ele>
        <time>2018-09-26T05:53:48Z</time>
      </trkpt>
      <trkpt lat="43.35196" lon="2.37758">
        <ele>237.04</ele>
        <time>2018-09-26T05:53:54Z</time>
      </trkpt>
      <trkpt lat="43.35208" lon="2.37752">
        <ele>237.87</ele>
        <time>2018-09-26T05:54:00Z</time>
      </trkpt>
      <trkpt lat="43.35218" lon="2.37745">
        <ele>238.45</ele>
        <time>2018-09-26T05:54:05Z</time>
      </trkpt>
      <trkpt lat="43.35228" lon="2.37739">
        <ele>239.01</ele>
        <time>2018-09-26T05:54:11Z</time>
      </trkpt>
      <trkpt lat="43.35238" lon="2.37731">
        <ele>240.19</ele>
        <time>2018-09-26T05:54:18Z</time>
      </trkpt>
      <trkpt lat="43.35249" lon="2.37726">
        <ele>241.97</ele>
        <time>2018-09-26T05:54:26Z</time>
      </trkpt>
      <trkpt lat="43.35261" lon="2.37716">
        <ele>245.65</ele>
        <time>2018-09-26T05:54:36Z</time>
      </trkpt>
      <trkpt lat="43.35267" lon="2.37693">
        <ele>247.65</ele>
        <time>2018-09-26T05:54:44Z</time>
      </trkpt>
      <trkpt lat="43.35274" lon="2.37681">
        <ele>251.13</ele>
        <time>2018-09-26T05:54:57Z</time>
      </trkpt>
      <trkpt lat="43.35284" lon="2.37665">
        <ele>254.44</ele>
        <time>2018-09-26T05:55:07Z</time>
      </trkpt>
      <trkpt lat="43.35288" lon="2.37654">
        <ele>256.39</ele>
        <time>2018-09-26T05:55:15Z</time>
      </trkpt>
      <trkpt lat="43.35295" lon="2.37643">
        <ele>258.28</ele>
        <time>2018-09-26T05:55:23Z</time>
      </trkpt>
      <trkpt lat="43.353" lon="2.37632">
        <ele>260.26</ele>
        <time>2018-09-26T05:55:31Z</time>
      </trkpt>
      <trkpt lat="43.35305" lon="2.37619">
        <ele>261.53</ele>
        <time>2018-09-26T05:55:38Z</time>
      </trkpt>
      <trkpt lat="43.35312" lon="2.37611">
        <ele>262.58</ele>
        <time>2018-09-26T05:55:45Z</time>
      </trkpt>
      <trkpt lat="43.35322" lon="2.37606">
        <ele>264.44</ele>
        <time>2018-09-26T05:55:55Z</time>
      </trkpt>
      <trkpt lat="43.3533" lon="2.37595">
        <ele>266.53</ele>
        <time>2018-09-26T05:56:05Z</time>
      </trkpt>
      <trkpt lat="43.35338" lon="2.37582">
        <ele>268.13</ele>
        <time>2018-09-26T05:56:14Z</time>
      </trkpt>
      <trkpt lat="43.35344" lon="2.37567">
        <ele>269.37</ele>
        <time>2018-09-26T05:56:22Z</time>
      </trkpt>
      <trkpt lat="43.35346" lon="2.37544">
        <ele>270.03</ele>
        <time>2018-09-26T05:56:29Z</time>
      </trkpt>
      <trkpt lat="43.35346" lon="2.37529">
        <ele>270.95</ele>
        <time>2018-09-26T05:56:35Z</time>
      </trkpt>
      <trkpt lat="43.35348" lon="2.37516">
        <ele>272.14</ele>
        <time>2018-09-26T05:56:41Z</time>
      </trkpt>
      <trkpt lat="43.35357" lon="2.37513">
        <ele>274.04</ele>
        <time>2018-09-26T05:56:50Z</time>
      </trkpt>
      <trkpt lat="43.35367" lon="2.37519">
        <ele>277.87</ele>
        <time>2018-09-26T05:57:03Z</time>
      </trkpt>
      <trkpt lat="43.35379" lon="2.37513">
        <ele>282.7</ele>
        <time>2018-09-26T05:57:15Z</time>
      </trkpt>
      <trkpt lat="43.3539" lon="2.37509">
        <ele>284.11</ele>
        <time>2018-09-26T05:57:23Z</time>
      </trkpt>
      <trkpt lat="43.35403" lon="2.3751">
        <ele>284.11</ele>
        <time>2018-09-26T05:57:31Z</time>
      </trkpt>
      <trkpt lat="43.35415" lon="2.37507">
        <ele>284.35</ele>
        <time>2018-09-26T05:57:37Z</time>
      </trkpt>
      <trkpt lat="43.35426" lon="2.37503">
        <ele>284.37</ele>
        <time>2018-09-26T05:57:43Z</time>
      </trkpt>
      <trkpt lat="43.35437" lon="2.37497">
        <ele>285.08</ele>
        <time>2018-09-26T05:57:53Z</time>
      </trkpt>
      <trkpt lat="43.35447" lon="2.37501">
        <ele>285.22</ele>
        <time>2018-09-26T05:57:59Z</time>
      </trkpt>
      <trkpt lat="43.35456" lon="2.37509">
        <ele>285.31</ele>
        <time>2018-09-26T05:58:04Z</time>
      </trkpt>
      <trkpt lat="43.35461" lon="2.3752">
        <ele>285.72</ele>
        <time>2018-09-26T05:58:09Z</time>
      </trkpt>
      <trkpt lat="43.35461" lon="2.37533">
        <ele>285.99</ele>
        <time>2018-09-26T05:58:14Z</time>
      </trkpt>
      <trkpt lat="43.35467" lon="2.37546">
        <ele>286.24</ele>
        <time>2018-09-26T05:58:19Z</time>
      </trkpt>
      <trkpt lat="43.35471" lon="2.37561">
        <ele>286.84</ele>
        <time>2018-09-26T05:58:25Z</time>
      </trkpt>
      <trkpt lat="43.35479" lon="2.37572">
        <ele>287.18</ele>
        <time>2018-09-26T05:58:30Z</time>
      </trkpt>
      <trkpt lat="43.35489" lon="2.37581">
        <ele>287.56</ele>
        <time>2018-09-26T05:58:36Z</time>
      </trkpt>
      <trkpt lat="43.355" lon="2.3759">
        <ele>288.12</ele>
        <time>2018-09-26T05:58:42Z</time>
      </trkpt>
      <trkpt lat="43.3551" lon="2.37602">
        <ele>288.25</ele>
        <time>2018-09-26T05:58:48Z</time>
      </trkpt>
      <trkpt lat="43.35513" lon="2.37615">
        <ele>288.06</ele>
        <time>2018-09-26T05:58:53Z</time>
      </trkpt>
      <trkpt lat="43.35518" lon="2.37629">
        <ele>288.15</ele>
        <time>2018-09-26T05:58:59Z</time>
      </trkpt>
      <trkpt lat="43.35523" lon="2.37643">
        <ele>288.16</ele>
        <time>2018-09-26T05:59:05Z</time>
      </trkpt>
      <trkpt lat="43.3553" lon="2.37659">
        <ele>286.3</ele>
        <time>2018-09-26T05:59:15Z</time>
      </trkpt>
      <trkpt lat="43.35545" lon="2.37675">
        <ele>284.45</ele>
        <time>2018-09-26T05:59:23Z</time>
      </trkpt>
      <trkpt lat="43.35564" lon="2.37683">
        <ele>282.89</ele>
        <time>2018-09-26T05:59:29Z</time>
      </trkpt>
      <trkpt lat="43.35581" lon="2.37686">
        <ele>280.9</ele>
        <time>2018-09-26T05:59:35Z</time>
      </trkpt>
      <trkpt lat="43.35595" lon="2.3769">
        <ele>279.47</ele>
        <time>2018-09-26T05:59:41Z</time>
      </trkpt>
      <trkpt lat="43.35612" lon="2.37697">
        <ele>278.06</ele>
        <time>2018-09-26T05:59:48Z</time>
      </trkpt>
      <trkpt lat="43.35624" lon="2.37701">
        <ele>276.77</ele>
        <time>2018-09-26T05:59:53Z</time>
      </trkpt>
      <trkpt lat="43.35638" lon="2.37701">
        <ele>275.11</ele>
        <time>2018-09-26T05:59:59Z</time>
      </trkpt>
      <trkpt lat="43.3565" lon="2.37701">
        <ele>274.13</ele>
        <time>2018-09-26T06:00:04Z</time>
      </trkpt>
      <trkpt lat="43.35665" lon="2.37701">
        <ele>272.89</ele>
        <time>2018-09-26T06:00:10Z</time>
      </trkpt>
      <trkpt lat="43.35679" lon="2.37698">
        <ele>272.06</ele>
        <time>2018-09-26T06:00:15Z</time>
      </trkpt>
      <trkpt lat="43.35692" lon="2.37692">
        <ele>271.08</ele>
        <time>2018-09-26T06:00:20Z</time>
      </trkpt>
      <trkpt lat="43.35702" lon="2.37684">
        <ele>269.65</ele>
        <time>2018-09-26T06:00:25Z</time>
      </trkpt>
      <trkpt lat="43.35712" lon="2.37672">
        <ele>268.56</ele>
        <time>2018-09-26T06:00:30Z</time>
      </trkpt>
      <trkpt lat="43.3572" lon="2.37666">
        <ele>267.85</ele>
        <time>2018-09-26T06:00:34Z</time>
      </trkpt>
      <trkpt lat="43.35729" lon="2.37659">
        <ele>266.93</ele>
        <time>2018-09-26T06:00:39Z</time>
      </trkpt>
      <trkpt lat="43.35737" lon="2.3765">
        <ele>265.78</ele>
        <time>2018-09-26T06:00:44Z</time>
      </trkpt>
      <trkpt lat="43.35746" lon="2.37643">
        <ele>264.38</ele>
        <time>2018-09-26T06:00:49Z</time>
      </trkpt>
      <trkpt lat="43.35753" lon="2.3763">
        <ele>263.18</ele>
        <time>2018-09-26T06:00:54Z</time>
      </trkpt>
      <trkpt lat="43.35757" lon="2.37625">
        <ele>262.34</ele>
        <time>2018-09-26T06:00:57Z</time>
      </trkpt>
      <trkpt lat="43.35757" lon="2.37617">
        <ele>261.3</ele>
        <time>2018-09-26T06:01:17Z</time>
      </trkpt>
      <trkpt lat="43.35749" lon="2.37623">
        <ele>261.7</ele>
        <time>2018-09-26T06:01:26Z</time>
      </trkpt>
      <trkpt lat="43.35741" lon="2.37631">
        <ele>262.23</ele>
        <time>2018-09-26T06:01:31Z</time>
      </trkpt>
      <trkpt lat="43.35734" lon="2.37643">
        <ele>263.31</ele>
        <time>2018-09-26T06:01:36Z</time>
      </trkpt>
      <trkpt lat="43.35726" lon="2.37655">
        <ele>264.65</ele>
        <time>2018-09-26T06:01:41Z</time>
      </trkpt>
      <trkpt lat="43.3572" lon="2.37669">
        <ele>265.62</ele>
        <time>2018-09-26T06:01:46Z</time>
      </trkpt>
      <trkpt lat="43.35713" lon="2.37682">
        <ele>266.81</ele>
        <time>2018-09-26T06:01:51Z</time>
      </trkpt>
      <trkpt lat="43.35705" lon="2.37694">
        <ele>267.7</ele>
        <time>2018-09-26T06:01:56Z</time>
      </trkpt>
      <trkpt lat="43.35697" lon="2.37703">
        <ele>268.57</ele>
        <time>2018-09-26T06:02:01Z</time>
      </trkpt>
      <trkpt lat="43.35688" lon="2.37713">
        <ele>269.48</ele>
        <time>2018-09-26T06:02:06Z</time>
      </trkpt>
      <trkpt lat="43.35679" lon="2.3772">
        <ele>270.13</ele>
        <time>2018-09-26T06:02:10Z</time>
      </trkpt>
      <trkpt lat="43.35668" lon="2.37724">
        <ele>270.89</ele>
        <time>2018-09-26T06:02:15Z</time>
      </trkpt>
      <trkpt lat="43.35658" lon="2.37722">
        <ele>271.56</ele>
        <time>2018-09-26T06:02:20Z</time>
      </trkpt>
      <trkpt lat="43.35648" lon="2.37722">
        <ele>272.08</ele>
        <time>2018-09-26T06:02:25Z</time>
      </trkpt>
      <trkpt lat="43.35637" lon="2.37722">
        <ele>273.33</ele>
        <time>2018-09-26T06:02:31Z</time>
      </trkpt>
      <trkpt lat="43.35627" lon="2.37723">
        <ele>274.38</ele>
        <time>2018-09-26T06:02:36Z</time>
      </trkpt>
      <trkpt lat="43.35618" lon="2.37721">
        <ele>275.22</ele>
        <time>2018-09-26T06:02:41Z</time>
      </trkpt>
      <trkpt lat="43.35608" lon="2.37718">
        <ele>276.01</ele>
        <time>2018-09-26T06:02:47Z</time>
      </trkpt>
      <trkpt lat="43.35597" lon="2.37717">
        <ele>277.4</ele>
        <time>2018-09-26T06:02:54Z</time>
      </trkpt>
      <trkpt lat="43.35586" lon="2.37717">
        <ele>278.6</ele>
        <time>2018-09-26T06:03:01Z</time>
      </trkpt>
      <trkpt lat="43.35572" lon="2.3771">
        <ele>280.81</ele>
        <time>2018-09-26T06:03:12Z</time>
      </trkpt>
      <trkpt lat="43.35575" lon="2.37718">
        <ele>283.47</ele>
        <time>2018-09-26T06:03:25Z</time>
      </trkpt>
      <trkpt lat="43.35585" lon="2.37726">
        <ele>286.43</ele>
        <time>2018-09-26T06:03:34Z</time>
      </trkpt>
      <trkpt lat="43.35594" lon="2.37735">
        <ele>288.74</ele>
        <time>2018-09-26T06:03:42Z</time>
      </trkpt>
      <trkpt lat="43.35602" lon="2.37744">
        <ele>290.76</ele>
        <time>2018-09-26T06:03:51Z</time>
      </trkpt>
      <trkpt lat="43.35608" lon="2.37737">
        <ele>294.38</ele>
        <time>2018-09-26T06:04:03Z</time>
      </trkpt>
      <trkpt lat="43.35618" lon="2.37754">
        <ele>297.46</ele>
        <time>2018-09-26T06:04:14Z</time>
      </trkpt>
      <trkpt lat="43.35628" lon="2.37765">
        <ele>300.7</ele>
        <time>2018-09-26T06:04:24Z</time>
      </trkpt>
      <trkpt lat="43.35638" lon="2.37772">
        <ele>303.03</ele>
        <time>2018-09-26T06:04:33Z</time>
      </trkpt>
      <trkpt lat="43.35649" lon="2.37778">
        <ele>304.04</ele>
        <time>2018-09-26T06:04:42Z</time>
      </trkpt>
      <trkpt lat="43.35661" lon="2.37785">
        <ele>305.07</ele>
        <time>2018-09-26T06:04:49Z</time>
      </trkpt>
      <trkpt lat="43.35674" lon="2.37783">
        <ele>305.6</ele>
        <time>2018-09-26T06:04:56Z</time>
      </trkpt>
      <trkpt lat="43.35685" lon="2.37782">
        <ele>305.56</ele>
        <time>2018-09-26T06:05:02Z</time>
      </trkpt>
      <trkpt lat="43.35698" lon="2.37779">
        <ele>306.14</ele>
        <time>2018-09-26T06:05:10Z</time>
      </trkpt>
      <trkpt lat="43.35707" lon="2.37771">
        <ele>307.03</ele>
        <time>2018-09-26T06:05:16Z</time>
      </trkpt>
      <trkpt lat="43.35714" lon="2.37758">
        <ele>307.44</ele>
        <time>2018-09-26T06:05:21Z</time>
      </trkpt>
      <trkpt lat="43.35722" lon="2.3775">
        <ele>307.85</ele>
        <time>2018-09-26T06:05:28Z</time>
      </trkpt>
      <trkpt lat="43.35726" lon="2.37761">
        <ele>310.07</ele>
        <time>2018-09-26T06:05:40Z</time>
      </trkpt>
      <trkpt lat="43.35726" lon="2.37776">
        <ele>307.74</ele>
        <time>2018-09-26T06:05:52Z</time>
      </trkpt>
      <trkpt lat="43.35727" lon="2.37791">
        <ele>305.42</ele>
        <time>2018-09-26T06:05:59Z</time>
      </trkpt>
      <trkpt lat="43.35731" lon="2.37804">
        <ele>303.79</ele>
        <time>2018-09-26T06:06:06Z</time>
      </trkpt>
      <trkpt lat="43.35731" lon="2.37822">
        <ele>302.36</ele>
        <time>2018-09-26T06:06:15Z</time>
      </trkpt>
      <trkpt lat="43.35733" lon="2.3784">
        <ele>301.23</ele>
        <time>2018-09-26T06:06:21Z</time>
      </trkpt>
      <trkpt lat="43.35732" lon="2.37857">
        <ele>299.83</ele>
        <time>2018-09-26T06:06:28Z</time>
      </trkpt>
      <trkpt lat="43.3573" lon="2.37872">
        <ele>299.27</ele>
        <time>2018-09-26T06:06:34Z</time>
      </trkpt>
      <trkpt lat="43.35731" lon="2.37889">
        <ele>299.41</ele>
        <time>2018-09-26T06:06:44Z</time>
      </trkpt>
      <trkpt lat="43.3573" lon="2.37912">
        <ele>299.45</ele>
        <time>2018-09-26T06:06:51Z</time>
      </trkpt>
      <trkpt lat="43.3573" lon="2.37934">
        <ele>299.45</ele>
        <time>2018-09-26T06:06:59Z</time>
      </trkpt>
      <trkpt lat="43.35731" lon="2.37957">
        <ele>300.33</ele>
        <time>2018-09-26T06:07:08Z</time>
      </trkpt>
      <trkpt lat="43.35736" lon="2.37979">
        <ele>301.26</ele>
        <time>2018-09-26T06:07:16Z</time>
      </trkpt>
      <trkpt lat="43.3574" lon="2.37999">
        <ele>302.78</ele>
        <time>2018-09-26T06:07:24Z</time>
      </trkpt>
      <trkpt lat="43.35755" lon="2.3802">
        <ele>304.57</ele>
        <time>2018-09-26T06:07:35Z</time>
      </trkpt>
      <trkpt lat="43.35766" lon="2.38036">
        <ele>307.94</ele>
        <time>2018-09-26T06:07:45Z</time>
      </trkpt>
      <trkpt lat="43.3577" lon="2.38054">
        <ele>310.26</ele>
        <time>2018-09-26T06:07:53Z</time>
      </trkpt>
      <trkpt lat="43.35771" lon="2.38069">
        <ele>312.25</ele>
        <time>2018-09-26T06:08:01Z</time>
      </trkpt>
      <trkpt lat="43.35769" lon="2.38082">
        <ele>313.1</ele>
        <time>2018-09-26T06:08:08Z</time>
      </trkpt>
      <trkpt lat="43.35761" lon="2.38093">
        <ele>313.77</ele>
        <time>2018-09-26T06:08:16Z</time>
      </trkpt>
      <trkpt lat="43.35755" lon="2.3811">
        <ele>315.29</ele>
        <time>2018-09-26T06:08:27Z</time>
      </trkpt>
      <trkpt lat="43.35764" lon="2.3813">
        <ele>317.99</ele>
        <time>2018-09-26T06:08:38Z</time>
      </trkpt>
      <trkpt lat="43.35771" lon="2.38146">
        <ele>321.04</ele>
        <time>2018-09-26T06:08:48Z</time>
      </trkpt>
      <trkpt lat="43.35778" lon="2.38159">
        <ele>324.13</ele>
        <time>2018-09-26T06:08:58Z</time>
      </trkpt>
      <trkpt lat="43.35786" lon="2.3817">
        <ele>328.69</ele>
        <time>2018-09-26T06:09:18Z</time>
      </trkpt>
      <trkpt lat="43.35791" lon="2.38174">
        <ele>328.38</ele>
        <time>2018-09-26T06:09:47Z</time>
      </trkpt>
      <trkpt lat="43.35799" lon="2.38183">
        <ele>328.36</ele>
        <time>2018-09-26T06:09:54Z</time>
      </trkpt>
      <trkpt lat="43.35802" lon="2.38197">
        <ele>327.06</ele>
        <time>2018-09-26T06:10:08Z</time>
      </trkpt>
      <trkpt lat="43.35806" lon="2.38209">
        <ele>324.93</ele>
        <time>2018-09-26T06:10:16Z</time>
      </trkpt>
      <trkpt lat="43.3581" lon="2.38222">
        <ele>322.51</ele>
        <time>2018-09-26T06:10:24Z</time>
      </trkpt>
      <trkpt lat="43.3582" lon="2.38232">
        <ele>320.36</ele>
        <time>2018-09-26T06:10:33Z</time>
      </trkpt>
      <trkpt lat="43.3583" lon="2.3824">
        <ele>317.35</ele>
        <time>2018-09-26T06:10:42Z</time>
      </trkpt>
      <trkpt lat="43.35838" lon="2.38248">
        <ele>315.21</ele>
        <time>2018-09-26T06:10:50Z</time>
      </trkpt>
      <trkpt lat="43.35839" lon="2.38262">
        <ele>313.85</ele>
        <time>2018-09-26T06:10:56Z</time>
      </trkpt>
      <trkpt lat="43.35839" lon="2.38275">
        <ele>312.4</ele>
        <time>2018-09-26T06:11:02Z</time>
      </trkpt>
      <trkpt lat="43.35834" lon="2.38286">
        <ele>311.22</ele>
        <time>2018-09-26T06:11:09Z</time>
      </trkpt>
      <trkpt lat="43.35833" lon="2.38295">
        <ele>309.69</ele>
        <time>2018-09-26T06:11:14Z</time>
      </trkpt>
      <trkpt lat="43.35834" lon="2.38299">
        <ele>309.09</ele>
        <time>2018-09-26T06:11:17Z</time>
      </trkpt>
      <trkpt lat="43.35834" lon="2.38319">
        <ele>305.56</ele>
        <time>2018-09-26T06:11:29Z</time>
      </trkpt>
      <trkpt lat="43.35833" lon="2.38336">
        <ele>303.2</ele>
        <time>2018-09-26T06:11:42Z</time>
      </trkpt>
      <trkpt lat="43.35833" lon="2.38354">
        <ele>298.17</ele>
        <time>2018-09-26T06:11:57Z</time>
      </trkpt>
      <trkpt lat="43.35831" lon="2.38368">
        <ele>294.01</ele>
        <time>2018-09-26T06:12:10Z</time>
      </trkpt>
      <trkpt lat="43.35847" lon="2.38378">
        <ele>292.92</ele>
        <time>2018-09-26T06:12:23Z</time>
      </trkpt>
      <trkpt lat="43.35864" lon="2.38377">
        <ele>294.25</ele>
        <time>2018-09-26T06:12:31Z</time>
      </trkpt>
      <trkpt lat="43.35874" lon="2.38372">
        <ele>296.28</ele>
        <time>2018-09-26T06:12:39Z</time>
      </trkpt>
      <trkpt lat="43.35883" lon="2.38366">
        <ele>297.21</ele>
        <time>2018-09-26T06:12:45Z</time>
      </trkpt>
      <trkpt lat="43.35893" lon="2.38359">
        <ele>297.96</ele>
        <time>2018-09-26T06:12:51Z</time>
      </trkpt>
      <trkpt lat="43.35901" lon="2.38351">
        <ele>299.26</ele>
        <time>2018-09-26T06:12:57Z</time>
      </trkpt>
      <trkpt lat="43.3591" lon="2.38343">
        <ele>300.14</ele>
        <time>2018-09-26T06:13:03Z</time>
      </trkpt>
      <trkpt lat="43.3592" lon="2.38337">
        <ele>300.28</ele>
        <time>2018-09-26T06:13:10Z</time>
      </trkpt>
      <trkpt lat="43.35929" lon="2.38331">
        <ele>301.2</ele>
        <time>2018-09-26T06:13:17Z</time>
      </trkpt>
      <trkpt lat="43.35938" lon="2.38322">
        <ele>302.02</ele>
        <time>2018-09-26T06:13:25Z</time>
      </trkpt>
      <trkpt lat="43.35946" lon="2.3831">
        <ele>301.67</ele>
        <time>2018-09-26T06:13:33Z</time>
      </trkpt>
      <trkpt lat="43.35952" lon="2.38297">
        <ele>299.86</ele>
        <time>2018-09-26T06:13:40Z</time>
      </trkpt>
      <trkpt lat="43.3596" lon="2.38282">
        <ele>298.96</ele>
        <time>2018-09-26T06:13:46Z</time>
      </trkpt>
      <trkpt lat="43.35968" lon="2.38273">
        <ele>298.85</ele>
        <time>2018-09-26T06:13:52Z</time>
      </trkpt>
      <trkpt lat="43.35977" lon="2.38276">
        <ele>299.38</ele>
        <time>2018-09-26T06:14:01Z</time>
      </trkpt>
      <trkpt lat="43.35983" lon="2.38285">
        <ele>298.33</ele>
        <time>2018-09-26T06:14:08Z</time>
      </trkpt>
      <trkpt lat="43.35993" lon="2.38294">
        <ele>296.13</ele>
        <time>2018-09-26T06:14:18Z</time>
      </trkpt>
      <trkpt lat="43.36005" lon="2.38297">
        <ele>294.8</ele>
        <time>2018-09-26T06:14:27Z</time>
      </trkpt>
      <trkpt lat="43.36018" lon="2.38299">
        <ele>293.68</ele>
        <time>2018-09-26T06:14:34Z</time>
      </trkpt>
      <trkpt lat="43.36029" lon="2.38299">
        <ele>292.64</ele>
        <time>2018-09-26T06:14:40Z</time>
      </trkpt>
      <trkpt lat="43.36041" lon="2.38299">
        <ele>291.7</ele>
        <time>2018-09-26T06:14:46Z</time>
      </trkpt>
      <trkpt lat="43.36052" lon="2.38299">
        <ele>290.94</ele>
        <time>2018-09-26T06:14:52Z</time>
      </trkpt>
      <trkpt lat="43.36061" lon="2.38296">
        <ele>289.67</ele>
        <time>2018-09-26T06:14:58Z</time>
      </trkpt>
      <trkpt lat="43.36071" lon="2.38298">
        <ele>288.66</ele>
        <time>2018-09-26T06:15:04Z</time>
      </trkpt>
      <trkpt lat="43.36081" lon="2.38296">
        <ele>288.69</ele>
        <time>2018-09-26T06:15:11Z</time>
      </trkpt>
      <trkpt lat="43.36092" lon="2.38293">
        <ele>288.03</ele>
        <time>2018-09-26T06:15:17Z</time>
      </trkpt>
      <trkpt lat="43.36103" lon="2.38291">
        <ele>287.16</ele>
        <time>2018-09-26T06:15:23Z</time>
      </trkpt>
      <trkpt lat="43.36113" lon="2.38286">
        <ele>286.47</ele>
        <time>2018-09-26T06:15:28Z</time>
      </trkpt>
      <trkpt lat="43.36122" lon="2.38282">
        <ele>285.6</ele>
        <time>2018-09-26T06:15:33Z</time>
      </trkpt>
      <trkpt lat="43.36132" lon="2.38278">
        <ele>285.53</ele>
        <time>2018-09-26T06:15:38Z</time>
      </trkpt>
      <trkpt lat="43.36141" lon="2.38273">
        <ele>285.48</ele>
        <time>2018-09-26T06:15:44Z</time>
      </trkpt>
      <trkpt lat="43.36153" lon="2.38271">
        <ele>283.99</ele>
        <time>2018-09-26T06:15:54Z</time>
      </trkpt>
      <trkpt lat="43.36164" lon="2.38269">
        <ele>282.89</ele>
        <time>2018-09-26T06:16:00Z</time>
      </trkpt>
      <trkpt lat="43.36173" lon="2.38266">
        <ele>281.74</ele>
        <time>2018-09-26T06:16:06Z</time>
      </trkpt>
      <trkpt lat="43.3618" lon="2.38281">
        <ele>280.46</ele>
        <time>2018-09-26T06:16:12Z</time>
      </trkpt>
      <trkpt lat="43.36182" lon="2.38296">
        <ele>279.37</ele>
        <time>2018-09-26T06:16:19Z</time>
      </trkpt>
      <trkpt lat="43.36186" lon="2.38311">
        <ele>277.77</ele>
        <time>2018-09-26T06:16:27Z</time>
      </trkpt>
      <trkpt lat="43.36189" lon="2.38325">
        <ele>275.56</ele>
        <time>2018-09-26T06:16:36Z</time>
      </trkpt>
      <trkpt lat="43.36197" lon="2.38337">
        <ele>273.51</ele>
        <time>2018-09-26T06:16:45Z</time>
      </trkpt>
      <trkpt lat="43.36215" lon="2.38346">
        <ele>271.59</ele>
        <time>2018-09-26T06:16:56Z</time>
      </trkpt>
      <trkpt lat="43.36232" lon="2.38347">
        <ele>271.28</ele>
        <time>2018-09-26T06:17:04Z</time>
      </trkpt>
      <trkpt lat="43.3624" lon="2.38339">
        <ele>271.44</ele>
        <time>2018-09-26T06:17:09Z</time>
      </trkpt>
      <trkpt lat="43.36244" lon="2.38327">
        <ele>271.61</ele>
        <time>2018-09-26T06:17:14Z</time>
      </trkpt>
      <trkpt lat="43.36247" lon="2.38314">
        <ele>271.64</ele>
        <time>2018-09-26T06:17:19Z</time>
      </trkpt>
      <trkpt lat="43.36251" lon="2.38302">
        <ele>271.83</ele>
        <time>2018-09-26T06:17:25Z</time>
      </trkpt>
      <trkpt lat="43.36253" lon="2.38289">
        <ele>272.74</ele>
        <time>2018-09-26T06:17:32Z</time>
      </trkpt>
      <trkpt lat="43.36252" lon="2.38273">
        <ele>274.17</ele>
        <time>2018-09-26T06:17:40Z</time>
      </trkpt>
      <trkpt lat="43.36251" lon="2.38258">
        <ele>275.51</ele>
        <time>2018-09-26T06:17:47Z</time>
      </trkpt>
      <trkpt lat="43.36252" lon="2.38243">
        <ele>277.59</ele>
        <time>2018-09-26T06:17:54Z</time>
      </trkpt>
      <trkpt lat="43.36251" lon="2.38225">
        <ele>279.45</ele>
        <time>2018-09-26T06:18:01Z</time>
      </trkpt>
      <trkpt lat="43.36252" lon="2.3821">
        <ele>281.48</ele>
        <time>2018-09-26T06:18:08Z</time>
      </trkpt>
      <trkpt lat="43.3625" lon="2.38195">
        <ele>284.28</ele>
        <time>2018-09-26T06:18:20Z</time>
      </trkpt>
      <trkpt lat="43.36247" lon="2.38177">
        <ele>286.2</ele>
        <time>2018-09-26T06:18:32Z</time>
      </trkpt>
      <trkpt lat="43.36243" lon="2.38144">
        <ele>288.44</ele>
        <time>2018-09-26T06:18:43Z</time>
      </trkpt>
      <trkpt lat="43.36238" lon="2.38123">
        <ele>289.84</ele>
        <time>2018-09-26T06:18:50Z</time>
      </trkpt>
      <trkpt lat="43.3623" lon="2.38109">
        <ele>291.11</ele>
        <time>2018-09-26T06:19:00Z</time>
      </trkpt>
      <trkpt lat="43.36223" lon="2.38095">
        <ele>291.68</ele>
        <time>2018-09-26T06:19:12Z</time>
      </trkpt>
      <trkpt lat="43.36215" lon="2.38087">
        <ele>292.11</ele>
        <time>2018-09-26T06:19:18Z</time>
      </trkpt>
      <trkpt lat="43.36215" lon="2.38072">
        <ele>293.06</ele>
        <time>2018-09-26T06:19:24Z</time>
      </trkpt>
      <trkpt lat="43.36222" lon="2.38065">
        <ele>295.53</ele>
        <time>2018-09-26T06:19:33Z</time>
      </trkpt>
      <trkpt lat="43.36232" lon="2.38067">
        <ele>297.21</ele>
        <time>2018-09-26T06:19:41Z</time>
      </trkpt>
      <trkpt lat="43.36244" lon="2.38069">
        <ele>299.42</ele>
        <time>2018-09-26T06:19:49Z</time>
      </trkpt>
      <trkpt lat="43.36254" lon="2.38069">
        <ele>301.28</ele>
        <time>2018-09-26T06:19:55Z</time>
      </trkpt>
      <trkpt lat="43.36265" lon="2.38068">
        <ele>303.1</ele>
        <time>2018-09-26T06:20:02Z</time>
      </trkpt>
      <trkpt lat="43.36276" lon="2.38065">
        <ele>304.63</ele>
        <time>2018-09-26T06:20:09Z</time>
      </trkpt>
      <trkpt lat="43.36285" lon="2.3806">
        <ele>306.36</ele>
        <time>2018-09-26T06:20:16Z</time>
      </trkpt>
      <trkpt lat="43.36295" lon="2.38055">
        <ele>309.16</ele>
        <time>2018-09-26T06:20:24Z</time>
      </trkpt>
      <trkpt lat="43.36306" lon="2.38048">
        <ele>310.88</ele>
        <time>2018-09-26T06:20:32Z</time>
      </trkpt>
      <trkpt lat="43.36316" lon="2.38042">
        <ele>312.91</ele>
        <time>2018-09-26T06:20:41Z</time>
      </trkpt>
      <trkpt lat="43.36325" lon="2.38036">
        <ele>314.92</ele>
        <time>2018-09-26T06:20:49Z</time>
      </trkpt>
      <trkpt lat="43.36333" lon="2.38028">
        <ele>316.68</ele>
        <time>2018-09-26T06:20:56Z</time>
      </trkpt>
      <trkpt lat="43.36335" lon="2.38027">
        <ele>317.15</ele>
        <time>2018-09-26T06:20:57Z</time>
      </trkpt>
      <trkpt lat="43.36343" lon="2.3802">
        <ele>319.12</ele>
        <time>2018-09-26T06:21:05Z</time>
      </trkpt>
      <trkpt lat="43.36351" lon="2.38013">
        <ele>321.33</ele>
        <time>2018-09-26T06:21:13Z</time>
      </trkpt>
      <trkpt lat="43.36359" lon="2.38006">
        <ele>323.02</ele>
        <time>2018-09-26T06:21:20Z</time>
      </trkpt>
      <trkpt lat="43.36368" lon="2.37998">
        <ele>324.85</ele>
        <time>2018-09-26T06:21:28Z</time>
      </trkpt>
      <trkpt lat="43.36376" lon="2.37988">
        <ele>326.36</ele>
        <time>2018-09-26T06:21:36Z</time>
      </trkpt>
      <trkpt lat="43.36385" lon="2.37982">
        <ele>328.02</ele>
        <time>2018-09-26T06:21:45Z</time>
      </trkpt>
      <trkpt lat="43.36393" lon="2.37981">
        <ele>330.51</ele>
        <time>2018-09-26T06:21:55Z</time>
      </trkpt>
      <trkpt lat="43.36404" lon="2.3798">
        <ele>333.06</ele>
        <time>2018-09-26T06:22:06Z</time>
      </trkpt>
      <trkpt lat="43.36416" lon="2.37973">
        <ele>334.85</ele>
        <time>2018-09-26T06:22:14Z</time>
      </trkpt>
      <trkpt lat="43.36425" lon="2.37965">
        <ele>336.16</ele>
        <time>2018-09-26T06:22:21Z</time>
      </trkpt>
      <trkpt lat="43.36433" lon="2.37952">
        <ele>337.59</ele>
        <time>2018-09-26T06:22:29Z</time>
      </trkpt>
      <trkpt lat="43.36439" lon="2.37939">
        <ele>339.42</ele>
        <time>2018-09-26T06:22:37Z</time>
      </trkpt>
      <trkpt lat="43.36443" lon="2.37927">
        <ele>341.33</ele>
        <time>2018-09-26T06:22:44Z</time>
      </trkpt>
      <trkpt lat="43.36447" lon="2.37913">
        <ele>343.54</ele>
        <time>2018-09-26T06:22:52Z</time>
      </trkpt>
      <trkpt lat="43.36448" lon="2.379">
        <ele>344.82</ele>
        <time>2018-09-26T06:22:58Z</time>
      </trkpt>
      <trkpt lat="43.36445" lon="2.37884">
        <ele>346.06</ele>
        <time>2018-09-26T06:23:04Z</time>
      </trkpt>
      <trkpt lat="43.36443" lon="2.37869">
        <ele>347.03</ele>
        <time>2018-09-26T06:23:09Z</time>
      </trkpt>
      <trkpt lat="43.3644" lon="2.37855">
        <ele>348.57</ele>
        <time>2018-09-26T06:23:14Z</time>
      </trkpt>
      <trkpt lat="43.36437" lon="2.37841">
        <ele>349.34</ele>
        <time>2018-09-26T06:23:18Z</time>
      </trkpt>
      <trkpt lat="43.36442" lon="2.37831">
        <ele>349.93</ele>
        <time>2018-09-26T06:23:24Z</time>
      </trkpt>
      <trkpt lat="43.36453" lon="2.37831">
        <ele>353.87</ele>
        <time>2018-09-26T06:23:35Z</time>
      </trkpt>
      <trkpt lat="43.36463" lon="2.37832">
        <ele>357.51</ele>
        <time>2018-09-26T06:23:46Z</time>
      </trkpt>
      <trkpt lat="43.36473" lon="2.37831">
        <ele>360.46</ele>
        <time>2018-09-26T06:23:58Z</time>
      </trkpt>
      <trkpt lat="43.36483" lon="2.37837">
        <ele>362.32</ele>
        <time>2018-09-26T06:24:07Z</time>
      </trkpt>
      <trkpt lat="43.36492" lon="2.37843">
        <ele>364.33</ele>
        <time>2018-09-26T06:24:18Z</time>
      </trkpt>
      <trkpt lat="43.36502" lon="2.37855">
        <ele>366.69</ele>
        <time>2018-09-26T06:24:30Z</time>
      </trkpt>
      <trkpt lat="43.36511" lon="2.37863">
        <ele>368.7</ele>
        <time>2018-09-26T06:24:40Z</time>
      </trkpt>
      <trkpt lat="43.36521" lon="2.3787">
        <ele>371.77</ele>
        <time>2018-09-26T06:24:54Z</time>
      </trkpt>
      <trkpt lat="43.36533" lon="2.37868">
        <ele>375.04</ele>
        <time>2018-09-26T06:25:07Z</time>
      </trkpt>
      <trkpt lat="43.36544" lon="2.37867">
        <ele>377.68</ele>
        <time>2018-09-26T06:25:20Z</time>
      </trkpt>
      <trkpt lat="43.36555" lon="2.37871">
        <ele>380.21</ele>
        <time>2018-09-26T06:25:35Z</time>
      </trkpt>
      <trkpt lat="43.36557" lon="2.37878">
        <ele>381</ele>
        <time>2018-09-26T06:26:22Z</time>
      </trkpt>
      <trkpt lat="43.3656" lon="2.37892">
        <ele>381.56</ele>
        <time>2018-09-26T06:26:39Z</time>
      </trkpt>
      <trkpt lat="43.36563" lon="2.37904">
        <ele>382.65</ele>
        <time>2018-09-26T06:26:45Z</time>
      </trkpt>
      <trkpt lat="43.36564" lon="2.37918">
        <ele>384.06</ele>
        <time>2018-09-26T06:26:52Z</time>
      </trkpt>
      <trkpt lat="43.36568" lon="2.37932">
        <ele>386.62</ele>
        <time>2018-09-26T06:26:59Z</time>
      </trkpt>
      <trkpt lat="43.3657" lon="2.37946">
        <ele>389.07</ele>
        <time>2018-09-26T06:27:06Z</time>
      </trkpt>
      <trkpt lat="43.36573" lon="2.3796">
        <ele>390.9</ele>
        <time>2018-09-26T06:27:15Z</time>
      </trkpt>
      <trkpt lat="43.36575" lon="2.37973">
        <ele>392.8</ele>
        <time>2018-09-26T06:27:24Z</time>
      </trkpt>
      <trkpt lat="43.36581" lon="2.3799">
        <ele>394.88</ele>
        <time>2018-09-26T06:27:37Z</time>
      </trkpt>
      <trkpt lat="43.36584" lon="2.38009">
        <ele>397.66</ele>
        <time>2018-09-26T06:27:52Z</time>
      </trkpt>
      <trkpt lat="43.36587" lon="2.38028">
        <ele>399.68</ele>
        <time>2018-09-26T06:28:04Z</time>
      </trkpt>
      <trkpt lat="43.3659" lon="2.38053">
        <ele>401.75</ele>
        <time>2018-09-26T06:28:17Z</time>
      </trkpt>
      <trkpt lat="43.36591" lon="2.38071">
        <ele>403.35</ele>
        <time>2018-09-26T06:28:27Z</time>
      </trkpt>
      <trkpt lat="43.36594" lon="2.38091">
        <ele>404.99</ele>
        <time>2018-09-26T06:28:37Z</time>
      </trkpt>
      <trkpt lat="43.36597" lon="2.38113">
        <ele>407.72</ele>
        <time>2018-09-26T06:28:48Z</time>
      </trkpt>
      <trkpt lat="43.366" lon="2.38131">
        <ele>411.12</ele>
        <time>2018-09-26T06:29:01Z</time>
      </trkpt>
      <trkpt lat="43.36601" lon="2.3816">
        <ele>412.58</ele>
        <time>2018-09-26T06:29:17Z</time>
      </trkpt>
      <trkpt lat="43.36603" lon="2.38183">
        <ele>413.71</ele>
        <time>2018-09-26T06:29:29Z</time>
      </trkpt>
      <trkpt lat="43.36606" lon="2.38208">
        <ele>416.81</ele>
        <time>2018-09-26T06:29:45Z</time>
      </trkpt>
      <trkpt lat="43.36608" lon="2.38231">
        <ele>419.55</ele>
        <time>2018-09-26T06:29:58Z</time>
      </trkpt>
      <trkpt lat="43.36609" lon="2.38252">
        <ele>422.21</ele>
        <time>2018-09-26T06:30:10Z</time>
      </trkpt>
      <trkpt lat="43.36609" lon="2.38272">
        <ele>425.26</ele>
        <time>2018-09-26T06:30:21Z</time>
      </trkpt>
      <trkpt lat="43.36611" lon="2.38288">
        <ele>428.19</ele>
        <time>2018-09-26T06:30:32Z</time>
      </trkpt>
      <trkpt lat="43.36613" lon="2.38309">
        <ele>430.56</ele>
        <time>2018-09-26T06:30:45Z</time>
      </trkpt>
      <trkpt lat="43.3662" lon="2.38322">
        <ele>432.98</ele>
        <time>2018-09-26T06:30:57Z</time>
      </trkpt>
      <trkpt lat="43.36627" lon="2.38336">
        <ele>434.52</ele>
        <time>2018-09-26T06:31:07Z</time>
      </trkpt>
      <trkpt lat="43.36631" lon="2.38349">
        <ele>436.64</ele>
        <time>2018-09-26T06:31:15Z</time>
      </trkpt>
      <trkpt lat="43.36635" lon="2.38362">
        <ele>438.5</ele>
        <time>2018-09-26T06:31:26Z</time>
      </trkpt>
      <trkpt lat="43.36643" lon="2.3837">
        <ele>441.89</ele>
        <time>2018-09-26T06:31:37Z</time>
      </trkpt>
      <trkpt lat="43.36649" lon="2.38381">
        <ele>444.2</ele>
        <time>2018-09-26T06:31:45Z</time>
      </trkpt>
      <trkpt lat="43.36659" lon="2.38386">
        <ele>446.38</ele>
        <time>2018-09-26T06:31:53Z</time>
      </trkpt>
      <trkpt lat="43.3667" lon="2.38387">
        <ele>447.67</ele>
        <time>2018-09-26T06:32:00Z</time>
      </trkpt>
      <trkpt lat="43.36682" lon="2.38389">
        <ele>448.12</ele>
        <time>2018-09-26T06:32:08Z</time>
      </trkpt>
      <trkpt lat="43.36692" lon="2.38389">
        <ele>449.44</ele>
        <time>2018-09-26T06:32:16Z</time>
      </trkpt>
      <trkpt lat="43.36702" lon="2.38393">
        <ele>450.79</ele>
        <time>2018-09-26T06:32:22Z</time>
      </trkpt>
      <trkpt lat="43.36713" lon="2.38397">
        <ele>452.05</ele>
        <time>2018-09-26T06:32:29Z</time>
      </trkpt>
      <trkpt lat="43.36725" lon="2.38398">
        <ele>452.89</ele>
        <time>2018-09-26T06:32:36Z</time>
      </trkpt>
      <trkpt lat="43.36737" lon="2.38398">
        <ele>453.77</ele>
        <time>2018-09-26T06:32:43Z</time>
      </trkpt>
      <trkpt lat="43.36747" lon="2.38402">
        <ele>456.29</ele>
        <time>2018-09-26T06:32:54Z</time>
      </trkpt>
      <trkpt lat="43.3676" lon="2.38407">
        <ele>457.47</ele>
        <time>2018-09-26T06:33:10Z</time>
      </trkpt>
      <trkpt lat="43.3677" lon="2.38413">
        <ele>456.32</ele>
        <time>2018-09-26T06:33:23Z</time>
      </trkpt>
      <trkpt lat="43.36785" lon="2.3842">
        <ele>457.64</ele>
        <time>2018-09-26T06:33:35Z</time>
      </trkpt>
      <trkpt lat="43.36794" lon="2.38423">
        <ele>458.12</ele>
        <time>2018-09-26T06:33:39Z</time>
      </trkpt>
      <trkpt lat="43.36797" lon="2.38425">
        <ele>458.34</ele>
        <time>2018-09-26T06:33:41Z</time>
      </trkpt>
      <trkpt lat="43.36809" lon="2.38431">
        <ele>458.29</ele>
        <time>2018-09-26T06:33:46Z</time>
      </trkpt>
      <trkpt lat="43.3682" lon="2.38437">
        <ele>457.46</ele>
        <time>2018-09-26T06:33:51Z</time>
      </trkpt>
      <trkpt lat="43.3683" lon="2.38442">
        <ele>456.47</ele>
        <time>2018-09-26T06:33:56Z</time>
      </trkpt>
      <trkpt lat="43.36842" lon="2.38446">
        <ele>454.91</ele>
        <time>2018-09-26T06:34:02Z</time>
      </trkpt>
      <trkpt lat="43.36851" lon="2.38448">
        <ele>452.74</ele>
        <time>2018-09-26T06:34:07Z</time>
      </trkpt>
      <trkpt lat="43.36862" lon="2.38448">
        <ele>452.32</ele>
        <time>2018-09-26T06:34:13Z</time>
      </trkpt>
      <trkpt lat="43.36873" lon="2.3845">
        <ele>452.92</ele>
        <time>2018-09-26T06:34:19Z</time>
      </trkpt>
      <trkpt lat="43.36884" lon="2.38452">
        <ele>453.27</ele>
        <time>2018-09-26T06:34:25Z</time>
      </trkpt>
      <trkpt lat="43.36895" lon="2.38453">
        <ele>453.72</ele>
        <time>2018-09-26T06:34:31Z</time>
      </trkpt>
      <trkpt lat="43.36905" lon="2.38457">
        <ele>453.81</ele>
        <time>2018-09-26T06:34:37Z</time>
      </trkpt>
      <trkpt lat="43.36915" lon="2.38459">
        <ele>453.29</ele>
        <time>2018-09-26T06:34:44Z</time>
      </trkpt>
      <trkpt lat="43.36926" lon="2.38457">
        <ele>454.08</ele>
        <time>2018-09-26T06:34:53Z</time>
      </trkpt>
      <trkpt lat="43.3694" lon="2.3846">
        <ele>455.74</ele>
        <time>2018-09-26T06:34:59Z</time>
      </trkpt>
      <trkpt lat="43.36951" lon="2.38464">
        <ele>456.14</ele>
        <time>2018-09-26T06:35:04Z</time>
      </trkpt>
      <trkpt lat="43.36962" lon="2.38468">
        <ele>455.76</ele>
        <time>2018-09-26T06:35:09Z</time>
      </trkpt>
      <trkpt lat="43.36974" lon="2.38469">
        <ele>455.31</ele>
        <time>2018-09-26T06:35:15Z</time>
      </trkpt>
      <trkpt lat="43.36986" lon="2.38472">
        <ele>455.81</ele>
        <time>2018-09-26T06:35:22Z</time>
      </trkpt>
      <trkpt lat="43.36997" lon="2.38477">
        <ele>456.96</ele>
        <time>2018-09-26T06:35:28Z</time>
      </trkpt>
      <trkpt lat="43.37008" lon="2.3848">
        <ele>458.19</ele>
        <time>2018-09-26T06:35:34Z</time>
      </trkpt>
      <trkpt lat="43.37017" lon="2.38487">
        <ele>459.62</ele>
        <time>2018-09-26T06:35:39Z</time>
      </trkpt>
      <trkpt lat="43.37028" lon="2.38495">
        <ele>460.87</ele>
        <time>2018-09-26T06:35:45Z</time>
      </trkpt>
      <trkpt lat="43.37038" lon="2.38499">
        <ele>461.51</ele>
        <time>2018-09-26T06:35:50Z</time>
      </trkpt>
      <trkpt lat="43.37048" lon="2.38503">
        <ele>462.26</ele>
        <time>2018-09-26T06:35:57Z</time>
      </trkpt>
      <trkpt lat="43.37059" lon="2.38506">
        <ele>464.01</ele>
        <time>2018-09-26T06:36:05Z</time>
      </trkpt>
      <trkpt lat="43.37071" lon="2.38509">
        <ele>466.62</ele>
        <time>2018-09-26T06:36:15Z</time>
      </trkpt>
      <trkpt lat="43.37083" lon="2.38512">
        <ele>469.01</ele>
        <time>2018-09-26T06:36:24Z</time>
      </trkpt>
      <trkpt lat="43.37094" lon="2.38517">
        <ele>471.07</ele>
        <time>2018-09-26T06:36:35Z</time>
      </trkpt>
      <trkpt lat="43.37103" lon="2.38528">
        <ele>470.92</ele>
        <time>2018-09-26T06:36:42Z</time>
      </trkpt>
      <trkpt lat="43.37113" lon="2.38536">
        <ele>469.8</ele>
        <time>2018-09-26T06:36:50Z</time>
      </trkpt>
      <trkpt lat="43.37124" lon="2.38544">
        <ele>469.89</ele>
        <time>2018-09-26T06:36:58Z</time>
      </trkpt>
      <trkpt lat="43.37135" lon="2.38552">
        <ele>471.09</ele>
        <time>2018-09-26T06:37:05Z</time>
      </trkpt>
      <trkpt lat="43.37146" lon="2.38559">
        <ele>472.15</ele>
        <time>2018-09-26T06:37:12Z</time>
      </trkpt>
      <trkpt lat="43.37155" lon="2.38566">
        <ele>473.27</ele>
        <time>2018-09-26T06:37:19Z</time>
      </trkpt>
      <trkpt lat="43.37167" lon="2.38572">
        <ele>474.13</ele>
        <time>2018-09-26T06:37:27Z</time>
      </trkpt>
      <trkpt lat="43.37177" lon="2.38579">
        <ele>475.63</ele>
        <time>2018-09-26T06:37:35Z</time>
      </trkpt>
      <trkpt lat="43.37185" lon="2.38586">
        <ele>477.47</ele>
        <time>2018-09-26T06:37:45Z</time>
      </trkpt>
      <trkpt lat="43.37196" lon="2.38591">
        <ele>479.68</ele>
        <time>2018-09-26T06:37:54Z</time>
      </trkpt>
      <trkpt lat="43.3721" lon="2.38597">
        <ele>480.74</ele>
        <time>2018-09-26T06:38:02Z</time>
      </trkpt>
      <trkpt lat="43.37226" lon="2.38607">
        <ele>481.51</ele>
        <time>2018-09-26T06:38:09Z</time>
      </trkpt>
      <trkpt lat="43.37235" lon="2.38616">
        <ele>482.49</ele>
        <time>2018-09-26T06:38:15Z</time>
      </trkpt>
      <trkpt lat="43.37244" lon="2.38626">
        <ele>483.55</ele>
        <time>2018-09-26T06:38:22Z</time>
      </trkpt>
      <trkpt lat="43.37253" lon="2.38636">
        <ele>486.33</ele>
        <time>2018-09-26T06:38:29Z</time>
      </trkpt>
      <trkpt lat="43.37261" lon="2.38645">
        <ele>488.87</ele>
        <time>2018-09-26T06:38:38Z</time>
      </trkpt>
      <trkpt lat="43.37273" lon="2.38653">
        <ele>490.39</ele>
        <time>2018-09-26T06:38:49Z</time>
      </trkpt>
      <trkpt lat="43.37285" lon="2.3866">
        <ele>490.03</ele>
        <time>2018-09-26T06:38:57Z</time>
      </trkpt>
      <trkpt lat="43.37294" lon="2.3867">
        <ele>489.35</ele>
        <time>2018-09-26T06:39:04Z</time>
      </trkpt>
      <trkpt lat="43.37305" lon="2.38679">
        <ele>489.3</ele>
        <time>2018-09-26T06:39:10Z</time>
      </trkpt>
      <trkpt lat="43.37315" lon="2.38687">
        <ele>489.83</ele>
        <time>2018-09-26T06:39:16Z</time>
      </trkpt>
      <trkpt lat="43.37325" lon="2.387">
        <ele>490.55</ele>
        <time>2018-09-26T06:39:23Z</time>
      </trkpt>
      <trkpt lat="43.37334" lon="2.38709">
        <ele>491.7</ele>
        <time>2018-09-26T06:39:29Z</time>
      </trkpt>
      <trkpt lat="43.37341" lon="2.38719">
        <ele>493.17</ele>
        <time>2018-09-26T06:39:34Z</time>
      </trkpt>
      <trkpt lat="43.37349" lon="2.3873">
        <ele>494.69</ele>
        <time>2018-09-26T06:39:39Z</time>
      </trkpt>
      <trkpt lat="43.37357" lon="2.38738">
        <ele>496.47</ele>
        <time>2018-09-26T06:39:45Z</time>
      </trkpt>
      <trkpt lat="43.37364" lon="2.38749">
        <ele>497.28</ele>
        <time>2018-09-26T06:39:51Z</time>
      </trkpt>
      <trkpt lat="43.37372" lon="2.38757">
        <ele>498.22</ele>
        <time>2018-09-26T06:39:57Z</time>
      </trkpt>
      <trkpt lat="43.3738" lon="2.38766">
        <ele>499.25</ele>
        <time>2018-09-26T06:40:03Z</time>
      </trkpt>
      <trkpt lat="43.37389" lon="2.38773">
        <ele>500.61</ele>
        <time>2018-09-26T06:40:10Z</time>
      </trkpt>
      <trkpt lat="43.37397" lon="2.38783">
        <ele>502.25</ele>
        <time>2018-09-26T06:40:18Z</time>
      </trkpt>
      <trkpt lat="43.37407" lon="2.3879">
        <ele>503.54</ele>
        <time>2018-09-26T06:40:25Z</time>
      </trkpt>
      <trkpt lat="43.37416" lon="2.38798">
        <ele>505.59</ele>
        <time>2018-09-26T06:40:34Z</time>
      </trkpt>
      <trkpt lat="43.37425" lon="2.3881">
        <ele>507.13</ele>
        <time>2018-09-26T06:40:43Z</time>
      </trkpt>
      <trkpt lat="43.37433" lon="2.38819">
        <ele>508.77</ele>
        <time>2018-09-26T06:40:51Z</time>
      </trkpt>
      <trkpt lat="43.3744" lon="2.3883">
        <ele>509.97</ele>
        <time>2018-09-26T06:40:58Z</time>
      </trkpt>
      <trkpt lat="43.37446" lon="2.38842">
        <ele>511.4</ele>
        <time>2018-09-26T06:41:07Z</time>
      </trkpt>
      <trkpt lat="43.37453" lon="2.38853">
        <ele>512.99</ele>
        <time>2018-09-26T06:41:16Z</time>
      </trkpt>
      <trkpt lat="43.3746" lon="2.38858">
        <ele>516.22</ele>
        <time>2018-09-26T06:41:26Z</time>
      </trkpt>
      <trkpt lat="43.37462" lon="2.38845">
        <ele>519.84</ele>
        <time>2018-09-26T06:41:35Z</time>
      </trkpt>
      <trkpt lat="43.37464" lon="2.38835">
        <ele>522.15</ele>
        <time>2018-09-26T06:41:46Z</time>
      </trkpt>
      <trkpt lat="43.37468" lon="2.38849">
        <ele>522.44</ele>
        <time>2018-09-26T06:41:52Z</time>
      </trkpt>
      <trkpt lat="43.37472" lon="2.38862">
        <ele>522.5</ele>
        <time>2018-09-26T06:41:57Z</time>
      </trkpt>
      <trkpt lat="43.37475" lon="2.38875">
        <ele>522.37</ele>
        <time>2018-09-26T06:42:01Z</time>
      </trkpt>
      <trkpt lat="43.37477" lon="2.38888">
        <ele>522.36</ele>
        <time>2018-09-26T06:42:05Z</time>
      </trkpt>
      <trkpt lat="43.3748" lon="2.38901">
        <ele>522.44</ele>
        <time>2018-09-26T06:42:09Z</time>
      </trkpt>
      <trkpt lat="43.37482" lon="2.38914">
        <ele>522.15</ele>
        <time>2018-09-26T06:42:13Z</time>
      </trkpt>
      <trkpt lat="43.37483" lon="2.38927">
        <ele>521.94</ele>
        <time>2018-09-26T06:42:17Z</time>
      </trkpt>
      <trkpt lat="43.37486" lon="2.38941">
        <ele>521.17</ele>
        <time>2018-09-26T06:42:22Z</time>
      </trkpt>
      <trkpt lat="43.37488" lon="2.38954">
        <ele>520.18</ele>
        <time>2018-09-26T06:42:26Z</time>
      </trkpt>
      <trkpt lat="43.3749" lon="2.38969">
        <ele>519.99</ele>
        <time>2018-09-26T06:42:31Z</time>
      </trkpt>
      <trkpt lat="43.37492" lon="2.38984">
        <ele>520.12</ele>
        <time>2018-09-26T06:42:36Z</time>
      </trkpt>
      <trkpt lat="43.37495" lon="2.39003">
        <ele>521.03</ele>
        <time>2018-09-26T06:42:42Z</time>
      </trkpt>
      <trkpt lat="43.37497" lon="2.39017">
        <ele>521.06</ele>
        <time>2018-09-26T06:42:46Z</time>
      </trkpt>
      <trkpt lat="43.37498" lon="2.39032">
        <ele>520.79</ele>
        <time>2018-09-26T06:42:51Z</time>
      </trkpt>
      <trkpt lat="43.375" lon="2.39047">
        <ele>521.35</ele>
        <time>2018-09-26T06:42:57Z</time>
      </trkpt>
      <trkpt lat="43.37502" lon="2.39061">
        <ele>522.61</ele>
        <time>2018-09-26T06:43:05Z</time>
      </trkpt>
      <trkpt lat="43.37504" lon="2.39075">
        <ele>522.86</ele>
        <time>2018-09-26T06:43:13Z</time>
      </trkpt>
      <trkpt lat="43.37506" lon="2.39087">
        <ele>523.23</ele>
        <time>2018-09-26T06:43:20Z</time>
      </trkpt>
      <trkpt lat="43.37508" lon="2.391">
        <ele>523.29</ele>
        <time>2018-09-26T06:43:27Z</time>
      </trkpt>
      <trkpt lat="43.37513" lon="2.39115">
        <ele>523.52</ele>
        <time>2018-09-26T06:43:33Z</time>
      </trkpt>
      <trkpt lat="43.37515" lon="2.39129">
        <ele>524.02</ele>
        <time>2018-09-26T06:43:38Z</time>
      </trkpt>
      <trkpt lat="43.37517" lon="2.39142">
        <ele>524.27</ele>
        <time>2018-09-26T06:43:43Z</time>
      </trkpt>
      <trkpt lat="43.37519" lon="2.39157">
        <ele>524.16</ele>
        <time>2018-09-26T06:43:50Z</time>
      </trkpt>
      <trkpt lat="43.37519" lon="2.39175">
        <ele>524.25</ele>
        <time>2018-09-26T06:43:59Z</time>
      </trkpt>
      <trkpt lat="43.37517" lon="2.39193">
        <ele>526.98</ele>
        <time>2018-09-26T06:44:06Z</time>
      </trkpt>
      <trkpt lat="43.37515" lon="2.39211">
        <ele>527.72</ele>
        <time>2018-09-26T06:44:13Z</time>
      </trkpt>
      <trkpt lat="43.37513" lon="2.39233">
        <ele>528.67</ele>
        <time>2018-09-26T06:44:20Z</time>
      </trkpt>
      <trkpt lat="43.37505" lon="2.3925">
        <ele>528.79</ele>
        <time>2018-09-26T06:44:26Z</time>
      </trkpt>
      <trkpt lat="43.37497" lon="2.39263">
        <ele>529.72</ele>
        <time>2018-09-26T06:44:33Z</time>
      </trkpt>
      <trkpt lat="43.37492" lon="2.39279">
        <ele>530.59</ele>
        <time>2018-09-26T06:44:40Z</time>
      </trkpt>
      <trkpt lat="43.37488" lon="2.39293">
        <ele>531.84</ele>
        <time>2018-09-26T06:44:48Z</time>
      </trkpt>
      <trkpt lat="43.37479" lon="2.39308">
        <ele>533.07</ele>
        <time>2018-09-26T06:44:56Z</time>
      </trkpt>
      <trkpt lat="43.37471" lon="2.39315">
        <ele>534.8</ele>
        <time>2018-09-26T06:45:03Z</time>
      </trkpt>
      <trkpt lat="43.3746" lon="2.3932">
        <ele>534.76</ele>
        <time>2018-09-26T06:45:10Z</time>
      </trkpt>
      <trkpt lat="43.37447" lon="2.39325">
        <ele>534.61</ele>
        <time>2018-09-26T06:45:16Z</time>
      </trkpt>
      <trkpt lat="43.37432" lon="2.39333">
        <ele>534.46</ele>
        <time>2018-09-26T06:45:22Z</time>
      </trkpt>
      <trkpt lat="43.3742" lon="2.39339">
        <ele>534.4</ele>
        <time>2018-09-26T06:45:28Z</time>
      </trkpt>
      <trkpt lat="43.3741" lon="2.39345">
        <ele>534.42</ele>
        <time>2018-09-26T06:45:33Z</time>
      </trkpt>
      <trkpt lat="43.374" lon="2.39354">
        <ele>534.58</ele>
        <time>2018-09-26T06:45:39Z</time>
      </trkpt>
      <trkpt lat="43.37393" lon="2.39365">
        <ele>534.9</ele>
        <time>2018-09-26T06:45:44Z</time>
      </trkpt>
      <trkpt lat="43.37387" lon="2.39377">
        <ele>534.9</ele>
        <time>2018-09-26T06:45:50Z</time>
      </trkpt>
      <trkpt lat="43.37382" lon="2.39392">
        <ele>534.8</ele>
        <time>2018-09-26T06:45:56Z</time>
      </trkpt>
      <trkpt lat="43.37378" lon="2.39405">
        <ele>535.29</ele>
        <time>2018-09-26T06:46:01Z</time>
      </trkpt>
      <trkpt lat="43.37375" lon="2.3942">
        <ele>535.59</ele>
        <time>2018-09-26T06:46:07Z</time>
      </trkpt>
      <trkpt lat="43.3737" lon="2.39434">
        <ele>536.4</ele>
        <time>2018-09-26T06:46:12Z</time>
      </trkpt>
      <trkpt lat="43.37366" lon="2.39448">
        <ele>536.77</ele>
        <time>2018-09-26T06:46:18Z</time>
      </trkpt>
      <trkpt lat="43.37363" lon="2.39463">
        <ele>538.06</ele>
        <time>2018-09-26T06:46:24Z</time>
      </trkpt>
      <trkpt lat="43.37359" lon="2.39478">
        <ele>539.21</ele>
        <time>2018-09-26T06:46:29Z</time>
      </trkpt>
      <trkpt lat="43.37354" lon="2.39495">
        <ele>539.62</ele>
        <time>2018-09-26T06:46:35Z</time>
      </trkpt>
      <trkpt lat="43.37351" lon="2.39509">
        <ele>540.45</ele>
        <time>2018-09-26T06:46:40Z</time>
      </trkpt>
      <trkpt lat="43.37347" lon="2.39523">
        <ele>541.26</ele>
        <time>2018-09-26T06:46:45Z</time>
      </trkpt>
      <trkpt lat="43.37342" lon="2.39538">
        <ele>542.86</ele>
        <time>2018-09-26T06:46:52Z</time>
      </trkpt>
      <trkpt lat="43.37338" lon="2.39553">
        <ele>543.49</ele>
        <time>2018-09-26T06:46:59Z</time>
      </trkpt>
      <trkpt lat="43.37337" lon="2.39568">
        <ele>544.43</ele>
        <time>2018-09-26T06:47:05Z</time>
      </trkpt>
      <trkpt lat="43.37334" lon="2.39581">
        <ele>545.41</ele>
        <time>2018-09-26T06:47:11Z</time>
      </trkpt>
      <trkpt lat="43.3733" lon="2.39597">
        <ele>546.26</ele>
        <time>2018-09-26T06:47:18Z</time>
      </trkpt>
      <trkpt lat="43.37327" lon="2.39614">
        <ele>546.75</ele>
        <time>2018-09-26T06:47:24Z</time>
      </trkpt>
      <trkpt lat="43.37322" lon="2.3963">
        <ele>547.37</ele>
        <time>2018-09-26T06:47:30Z</time>
      </trkpt>
      <trkpt lat="43.37318" lon="2.39648">
        <ele>547.88</ele>
        <time>2018-09-26T06:47:36Z</time>
      </trkpt>
      <trkpt lat="43.37313" lon="2.39666">
        <ele>547.45</ele>
        <time>2018-09-26T06:47:42Z</time>
      </trkpt>
      <trkpt lat="43.3731" lon="2.39684">
        <ele>547.03</ele>
        <time>2018-09-26T06:47:48Z</time>
      </trkpt>
      <trkpt lat="43.37306" lon="2.39701">
        <ele>547.67</ele>
        <time>2018-09-26T06:47:54Z</time>
      </trkpt>
      <trkpt lat="43.373" lon="2.39718">
        <ele>547.78</ele>
        <time>2018-09-26T06:48:00Z</time>
      </trkpt>
      <trkpt lat="43.37295" lon="2.39733">
        <ele>548.08</ele>
        <time>2018-09-26T06:48:06Z</time>
      </trkpt>
      <trkpt lat="43.3729" lon="2.39748">
        <ele>548.49</ele>
        <time>2018-09-26T06:48:12Z</time>
      </trkpt>
      <trkpt lat="43.37285" lon="2.39763">
        <ele>550.06</ele>
        <time>2018-09-26T06:48:18Z</time>
      </trkpt>
      <trkpt lat="43.37281" lon="2.39777">
        <ele>551.63</ele>
        <time>2018-09-26T06:48:24Z</time>
      </trkpt>
      <trkpt lat="43.37281" lon="2.39793">
        <ele>551.78</ele>
        <time>2018-09-26T06:48:30Z</time>
      </trkpt>
      <trkpt lat="43.37284" lon="2.39807">
        <ele>551.95</ele>
        <time>2018-09-26T06:48:36Z</time>
      </trkpt>
      <trkpt lat="43.37288" lon="2.39821">
        <ele>552.57</ele>
        <time>2018-09-26T06:48:41Z</time>
      </trkpt>
      <trkpt lat="43.37291" lon="2.39837">
        <ele>552.9</ele>
        <time>2018-09-26T06:48:46Z</time>
      </trkpt>
      <trkpt lat="43.37291" lon="2.39853">
        <ele>553.02</ele>
        <time>2018-09-26T06:48:51Z</time>
      </trkpt>
      <trkpt lat="43.37284" lon="2.39864">
        <ele>552.9</ele>
        <time>2018-09-26T06:48:56Z</time>
      </trkpt>
      <trkpt lat="43.37274" lon="2.39872">
        <ele>552.94</ele>
        <time>2018-09-26T06:49:01Z</time>
      </trkpt>
      <trkpt lat="43.37262" lon="2.39877">
        <ele>552.94</ele>
        <time>2018-09-26T06:49:05Z</time>
      </trkpt>
      <trkpt lat="43.3725" lon="2.39879">
        <ele>552.83</ele>
        <time>2018-09-26T06:49:09Z</time>
      </trkpt>
      <trkpt lat="43.37237" lon="2.39877">
        <ele>552.54</ele>
        <time>2018-09-26T06:49:13Z</time>
      </trkpt>
      <trkpt lat="43.37226" lon="2.39876">
        <ele>552.26</ele>
        <time>2018-09-26T06:49:17Z</time>
      </trkpt>
      <trkpt lat="43.37215" lon="2.3988">
        <ele>552.17</ele>
        <time>2018-09-26T06:49:21Z</time>
      </trkpt>
      <trkpt lat="43.37209" lon="2.3989">
        <ele>551.76</ele>
        <time>2018-09-26T06:49:26Z</time>
      </trkpt>
      <trkpt lat="43.37198" lon="2.3989">
        <ele>550.58</ele>
        <time>2018-09-26T06:49:37Z</time>
      </trkpt>
      <trkpt lat="43.37186" lon="2.39884">
        <ele>545.37</ele>
        <time>2018-09-26T06:49:49Z</time>
      </trkpt>
      <trkpt lat="43.37175" lon="2.39879">
        <ele>542.04</ele>
        <time>2018-09-26T06:49:57Z</time>
      </trkpt>
      <trkpt lat="43.37166" lon="2.39871">
        <ele>538.73</ele>
        <time>2018-09-26T06:50:05Z</time>
      </trkpt>
      <trkpt lat="43.37159" lon="2.39861">
        <ele>536.73</ele>
        <time>2018-09-26T06:50:12Z</time>
      </trkpt>
      <trkpt lat="43.3715" lon="2.39853">
        <ele>533.93</ele>
        <time>2018-09-26T06:50:19Z</time>
      </trkpt>
      <trkpt lat="43.37144" lon="2.39847">
        <ele>532.16</ele>
        <time>2018-09-26T06:50:23Z</time>
      </trkpt>
      <trkpt lat="43.37139" lon="2.39844">
        <ele>530.77</ele>
        <time>2018-09-26T06:50:27Z</time>
      </trkpt>
      <trkpt lat="43.37129" lon="2.39844">
        <ele>526.44</ele>
        <time>2018-09-26T06:50:46Z</time>
      </trkpt>
      <trkpt lat="43.3713" lon="2.3986">
        <ele>524.54</ele>
        <time>2018-09-26T06:50:54Z</time>
      </trkpt>
      <trkpt lat="43.37134" lon="2.39874">
        <ele>522.52</ele>
        <time>2018-09-26T06:51:01Z</time>
      </trkpt>
      <trkpt lat="43.37135" lon="2.3989">
        <ele>520.4</ele>
        <time>2018-09-26T06:51:08Z</time>
      </trkpt>
      <trkpt lat="43.37135" lon="2.39904">
        <ele>518.25</ele>
        <time>2018-09-26T06:51:14Z</time>
      </trkpt>
      <trkpt lat="43.37134" lon="2.3992">
        <ele>515.76</ele>
        <time>2018-09-26T06:51:21Z</time>
      </trkpt>
      <trkpt lat="43.37135" lon="2.39936">
        <ele>513.77</ele>
        <time>2018-09-26T06:51:28Z</time>
      </trkpt>
      <trkpt lat="43.37137" lon="2.39951">
        <ele>511.49</ele>
        <time>2018-09-26T06:51:34Z</time>
      </trkpt>
      <trkpt lat="43.37138" lon="2.39966">
        <ele>510.39</ele>
        <time>2018-09-26T06:51:41Z</time>
      </trkpt>
      <trkpt lat="43.37131" lon="2.39981">
        <ele>509.97</ele>
        <time>2018-09-26T06:51:49Z</time>
      </trkpt>
      <trkpt lat="43.37125" lon="2.39998">
        <ele>508.83</ele>
        <time>2018-09-26T06:51:57Z</time>
      </trkpt>
      <trkpt lat="43.37127" lon="2.40012">
        <ele>506.02</ele>
        <time>2018-09-26T06:52:06Z</time>
      </trkpt>
      <trkpt lat="43.37124" lon="2.40034">
        <ele>504.25</ele>
        <time>2018-09-26T06:52:15Z</time>
      </trkpt>
      <trkpt lat="43.37112" lon="2.40046">
        <ele>502.85</ele>
        <time>2018-09-26T06:52:23Z</time>
      </trkpt>
      <trkpt lat="43.37104" lon="2.40058">
        <ele>499.46</ele>
        <time>2018-09-26T06:52:33Z</time>
      </trkpt>
      <trkpt lat="43.37103" lon="2.40074">
        <ele>498.54</ele>
        <time>2018-09-26T06:52:41Z</time>
      </trkpt>
      <trkpt lat="43.37096" lon="2.4009">
        <ele>496.42</ele>
        <time>2018-09-26T06:52:54Z</time>
      </trkpt>
      <trkpt lat="43.37081" lon="2.40114">
        <ele>493.4</ele>
        <time>2018-09-26T06:53:05Z</time>
      </trkpt>
      <trkpt lat="43.37075" lon="2.40136">
        <ele>490.03</ele>
        <time>2018-09-26T06:53:15Z</time>
      </trkpt>
      <trkpt lat="43.37065" lon="2.40149">
        <ele>487.75</ele>
        <time>2018-09-26T06:53:26Z</time>
      </trkpt>
      <trkpt lat="43.3705" lon="2.40162">
        <ele>485.43</ele>
        <time>2018-09-26T06:53:38Z</time>
      </trkpt>
      <trkpt lat="43.37039" lon="2.40176">
        <ele>481.6</ele>
        <time>2018-09-26T06:53:48Z</time>
      </trkpt>
      <trkpt lat="43.37033" lon="2.40187">
        <ele>479.11</ele>
        <time>2018-09-26T06:53:57Z</time>
      </trkpt>
      <trkpt lat="43.37028" lon="2.40203">
        <ele>474.93</ele>
        <time>2018-09-26T06:54:10Z</time>
      </trkpt>
      <trkpt lat="43.3702" lon="2.40207">
        <ele>470.86</ele>
        <time>2018-09-26T06:54:24Z</time>
      </trkpt>
      <trkpt lat="43.37024" lon="2.4022">
        <ele>464.62</ele>
        <time>2018-09-26T06:54:37Z</time>
      </trkpt>
      <trkpt lat="43.37031" lon="2.40231">
        <ele>460.22</ele>
        <time>2018-09-26T06:54:47Z</time>
      </trkpt>
      <trkpt lat="43.37037" lon="2.40246">
        <ele>457.35</ele>
        <time>2018-09-26T06:54:58Z</time>
      </trkpt>
      <trkpt lat="43.37035" lon="2.40266">
        <ele>454.97</ele>
        <time>2018-09-26T06:55:06Z</time>
      </trkpt>
      <trkpt lat="43.37034" lon="2.40286">
        <ele>451.71</ele>
        <time>2018-09-26T06:55:14Z</time>
      </trkpt>
      <trkpt lat="43.37037" lon="2.40304">
        <ele>449.15</ele>
        <time>2018-09-26T06:55:21Z</time>
      </trkpt>
      <trkpt lat="43.37043" lon="2.40313">
        <ele>449.3</ele>
        <time>2018-09-26T06:55:28Z</time>
      </trkpt>
      <trkpt lat="43.37052" lon="2.40318">
        <ele>448.77</ele>
        <time>2018-09-26T06:55:35Z</time>
      </trkpt>
      <trkpt lat="43.3706" lon="2.40324">
        <ele>446.1</ele>
        <time>2018-09-26T06:55:44Z</time>
      </trkpt>
      <trkpt lat="43.37071" lon="2.40342">
        <ele>447.05</ele>
        <time>2018-09-26T06:55:56Z</time>
      </trkpt>
      <trkpt lat="43.37079" lon="2.40374">
        <ele>445.82</ele>
        <time>2018-09-26T06:56:11Z</time>
      </trkpt>
      <trkpt lat="43.37069" lon="2.40396">
        <ele>449.02</ele>
        <time>2018-09-26T06:56:23Z</time>
      </trkpt>
      <trkpt lat="43.37062" lon="2.40411">
        <ele>450.31</ele>
        <time>2018-09-26T06:56:31Z</time>
      </trkpt>
      <trkpt lat="43.3706" lon="2.40425">
        <ele>452.39</ele>
        <time>2018-09-26T06:56:38Z</time>
      </trkpt>
      <trkpt lat="43.3706" lon="2.40442">
        <ele>454.64</ele>
        <time>2018-09-26T06:56:46Z</time>
      </trkpt>
      <trkpt lat="43.37057" lon="2.40457">
        <ele>456.32</ele>
        <time>2018-09-26T06:56:55Z</time>
      </trkpt>
      <trkpt lat="43.37057" lon="2.4047">
        <ele>456.73</ele>
        <time>2018-09-26T06:57:02Z</time>
      </trkpt>
      <trkpt lat="43.37055" lon="2.40482">
        <ele>459.34</ele>
        <time>2018-09-26T06:57:12Z</time>
      </trkpt>
      <trkpt lat="43.37055" lon="2.40498">
        <ele>460.88</ele>
        <time>2018-09-26T06:57:23Z</time>
      </trkpt>
      <trkpt lat="43.37055" lon="2.4051">
        <ele>462.68</ele>
        <time>2018-09-26T06:57:34Z</time>
      </trkpt>
      <trkpt lat="43.37053" lon="2.4053">
        <ele>464.92</ele>
        <time>2018-09-26T06:57:47Z</time>
      </trkpt>
      <trkpt lat="43.37054" lon="2.40551">
        <ele>464.68</ele>
        <time>2018-09-26T06:57:59Z</time>
      </trkpt>
      <trkpt lat="43.37049" lon="2.40565">
        <ele>464.9</ele>
        <time>2018-09-26T06:58:08Z</time>
      </trkpt>
      <trkpt lat="43.37046" lon="2.40578">
        <ele>464.29</ele>
        <time>2018-09-26T06:58:16Z</time>
      </trkpt>
      <trkpt lat="43.3705" lon="2.40593">
        <ele>462.22</ele>
        <time>2018-09-26T06:58:25Z</time>
      </trkpt>
      <trkpt lat="43.37057" lon="2.40604">
        <ele>460.54</ele>
        <time>2018-09-26T06:58:33Z</time>
      </trkpt>
      <trkpt lat="43.37066" lon="2.40613">
        <ele>459.65</ele>
        <time>2018-09-26T06:58:42Z</time>
      </trkpt>
      <trkpt lat="43.37074" lon="2.40628">
        <ele>459.5</ele>
        <time>2018-09-26T06:58:50Z</time>
      </trkpt>
      <trkpt lat="43.37081" lon="2.40645">
        <ele>458.41</ele>
        <time>2018-09-26T06:58:58Z</time>
      </trkpt>
      <trkpt lat="43.3709" lon="2.40661">
        <ele>457.7</ele>
        <time>2018-09-26T06:59:07Z</time>
      </trkpt>
      <trkpt lat="43.37101" lon="2.4067">
        <ele>456.38</ele>
        <time>2018-09-26T06:59:15Z</time>
      </trkpt>
      <trkpt lat="43.37107" lon="2.40696">
        <ele>454.04</ele>
        <time>2018-09-26T06:59:23Z</time>
      </trkpt>
      <trkpt lat="43.37112" lon="2.40712">
        <ele>452.05</ele>
        <time>2018-09-26T06:59:31Z</time>
      </trkpt>
      <trkpt lat="43.37117" lon="2.40728">
        <ele>447.63</ele>
        <time>2018-09-26T06:59:42Z</time>
      </trkpt>
      <trkpt lat="43.37122" lon="2.40748">
        <ele>443.12</ele>
        <time>2018-09-26T06:59:52Z</time>
      </trkpt>
      <trkpt lat="43.37124" lon="2.40764">
        <ele>439.5</ele>
        <time>2018-09-26T06:59:59Z</time>
      </trkpt>
      <trkpt lat="43.37132" lon="2.40776">
        <ele>436.82</ele>
        <time>2018-09-26T07:00:06Z</time>
      </trkpt>
      <trkpt lat="43.37139" lon="2.4079">
        <ele>434.94</ele>
        <time>2018-09-26T07:00:13Z</time>
      </trkpt>
      <trkpt lat="43.37148" lon="2.40801">
        <ele>434.47</ele>
        <time>2018-09-26T07:00:19Z</time>
      </trkpt>
      <trkpt lat="43.37152" lon="2.40822">
        <ele>435.27</ele>
        <time>2018-09-26T07:00:27Z</time>
      </trkpt>
      <trkpt lat="43.37161" lon="2.40816">
        <ele>430.23</ele>
        <time>2018-09-26T07:00:41Z</time>
      </trkpt>
      <trkpt lat="43.37175" lon="2.40815">
        <ele>425.83</ele>
        <time>2018-09-26T07:00:51Z</time>
      </trkpt>
      <trkpt lat="43.37182" lon="2.40818">
        <ele>425.38</ele>
        <time>2018-09-26T07:00:54Z</time>
      </trkpt>
      <trkpt lat="43.37192" lon="2.4083">
        <ele>423.81</ele>
        <time>2018-09-26T07:01:01Z</time>
      </trkpt>
      <trkpt lat="43.37205" lon="2.40834">
        <ele>421.63</ele>
        <time>2018-09-26T07:01:14Z</time>
      </trkpt>
      <trkpt lat="43.37219" lon="2.4085">
        <ele>419.19</ele>
        <time>2018-09-26T07:01:25Z</time>
      </trkpt>
      <trkpt lat="43.37224" lon="2.40867">
        <ele>417.81</ele>
        <time>2018-09-26T07:01:32Z</time>
      </trkpt>
      <trkpt lat="43.37231" lon="2.40878">
        <ele>415.28</ele>
        <time>2018-09-26T07:01:39Z</time>
      </trkpt>
      <trkpt lat="43.3724" lon="2.4088">
        <ele>413.84</ele>
        <time>2018-09-26T07:01:48Z</time>
      </trkpt>
      <trkpt lat="43.37246" lon="2.40897">
        <ele>413.56</ele>
        <time>2018-09-26T07:01:58Z</time>
      </trkpt>
      <trkpt lat="43.37254" lon="2.40907">
        <ele>412.79</ele>
        <time>2018-09-26T07:02:06Z</time>
      </trkpt>
      <trkpt lat="43.37259" lon="2.40925">
        <ele>412.81</ele>
        <time>2018-09-26T07:02:18Z</time>
      </trkpt>
      <trkpt lat="43.37259" lon="2.40942">
        <ele>411.1</ele>
        <time>2018-09-26T07:02:26Z</time>
      </trkpt>
      <trkpt lat="43.37263" lon="2.4096">
        <ele>409.27</ele>
        <time>2018-09-26T07:02:35Z</time>
      </trkpt>
      <trkpt lat="43.37272" lon="2.40967">
        <ele>409.14</ele>
        <time>2018-09-26T07:02:44Z</time>
      </trkpt>
      <trkpt lat="43.37282" lon="2.40976">
        <ele>407.18</ele>
        <time>2018-09-26T07:02:54Z</time>
      </trkpt>
      <trkpt lat="43.37289" lon="2.40985">
        <ele>404.27</ele>
        <time>2018-09-26T07:03:02Z</time>
      </trkpt>
      <trkpt lat="43.37299" lon="2.40996">
        <ele>400.04</ele>
        <time>2018-09-26T07:03:14Z</time>
      </trkpt>
      <trkpt lat="43.37309" lon="2.41008">
        <ele>398.39</ele>
        <time>2018-09-26T07:03:25Z</time>
      </trkpt>
      <trkpt lat="43.37318" lon="2.41025">
        <ele>395.78</ele>
        <time>2018-09-26T07:03:36Z</time>
      </trkpt>
      <trkpt lat="43.37327" lon="2.41042">
        <ele>394.46</ele>
        <time>2018-09-26T07:03:45Z</time>
      </trkpt>
      <trkpt lat="43.37336" lon="2.41056">
        <ele>391.59</ele>
        <time>2018-09-26T07:03:55Z</time>
      </trkpt>
      <trkpt lat="43.37345" lon="2.41068">
        <ele>387.96</ele>
        <time>2018-09-26T07:04:05Z</time>
      </trkpt>
      <trkpt lat="43.37354" lon="2.41073">
        <ele>385.6</ele>
        <time>2018-09-26T07:04:14Z</time>
      </trkpt>
      <trkpt lat="43.37352" lon="2.41084">
        <ele>385.7</ele>
        <time>2018-09-26T07:04:52Z</time>
      </trkpt>
      <trkpt lat="43.37355" lon="2.41094">
        <ele>386.02</ele>
        <time>2018-09-26T07:05:18Z</time>
      </trkpt>
      <trkpt lat="43.37357" lon="2.41113">
        <ele>382.83</ele>
        <time>2018-09-26T07:05:42Z</time>
      </trkpt>
      <trkpt lat="43.37352" lon="2.41123">
        <ele>384.01</ele>
        <time>2018-09-26T07:06:02Z</time>
      </trkpt>
      <trkpt lat="43.37342" lon="2.41118">
        <ele>383.05</ele>
        <time>2018-09-26T07:06:19Z</time>
      </trkpt>
      <trkpt lat="43.37327" lon="2.41108">
        <ele>380.94</ele>
        <time>2018-09-26T07:06:38Z</time>
      </trkpt>
      <trkpt lat="43.37315" lon="2.41103">
        <ele>381.27</ele>
        <time>2018-09-26T07:06:58Z</time>
      </trkpt>
      <trkpt lat="43.37307" lon="2.41092">
        <ele>380.56</ele>
        <time>2018-09-26T07:07:16Z</time>
      </trkpt>
      <trkpt lat="43.37293" lon="2.41081">
        <ele>380.04</ele>
        <time>2018-09-26T07:07:34Z</time>
      </trkpt>
      <trkpt lat="43.37281" lon="2.41078">
        <ele>380.02</ele>
        <time>2018-09-26T07:07:50Z</time>
      </trkpt>
      <trkpt lat="43.37274" lon="2.4107">
        <ele>380.36</ele>
        <time>2018-09-26T07:08:06Z</time>
      </trkpt>
      <trkpt lat="43.37263" lon="2.41057">
        <ele>378.2</ele>
        <time>2018-09-26T07:08:20Z</time>
      </trkpt>
      <trkpt lat="43.37252" lon="2.41044">
        <ele>376.97</ele>
        <time>2018-09-26T07:08:31Z</time>
      </trkpt>
      <trkpt lat="43.3724" lon="2.41041">
        <ele>375.86</ele>
        <time>2018-09-26T07:08:43Z</time>
      </trkpt>
      <trkpt lat="43.37226" lon="2.41042">
        <ele>375.53</ele>
        <time>2018-09-26T07:09:00Z</time>
      </trkpt>
      <trkpt lat="43.37216" lon="2.4105">
        <ele>377.11</ele>
        <time>2018-09-26T07:09:13Z</time>
      </trkpt>
      <trkpt lat="43.37213" lon="2.41067">
        <ele>378.55</ele>
        <time>2018-09-26T07:09:26Z</time>
      </trkpt>
      <trkpt lat="43.37211" lon="2.41087">
        <ele>378.15</ele>
        <time>2018-09-26T07:09:35Z</time>
      </trkpt>
      <trkpt lat="43.37208" lon="2.41104">
        <ele>379.03</ele>
        <time>2018-09-26T07:09:42Z</time>
      </trkpt>
      <trkpt lat="43.37199" lon="2.41121">
        <ele>380.99</ele>
        <time>2018-09-26T07:09:51Z</time>
      </trkpt>
      <trkpt lat="43.37192" lon="2.41135">
        <ele>383.07</ele>
        <time>2018-09-26T07:10:00Z</time>
      </trkpt>
      <trkpt lat="43.37184" lon="2.4115">
        <ele>385.08</ele>
        <time>2018-09-26T07:10:11Z</time>
      </trkpt>
      <trkpt lat="43.3718" lon="2.41172">
        <ele>386.32</ele>
        <time>2018-09-26T07:10:20Z</time>
      </trkpt>
      <trkpt lat="43.37174" lon="2.41188">
        <ele>387.85</ele>
        <time>2018-09-26T07:10:31Z</time>
      </trkpt>
      <trkpt lat="43.37166" lon="2.41204">
        <ele>390.9</ele>
        <time>2018-09-26T07:10:42Z</time>
      </trkpt>
      <trkpt lat="43.37157" lon="2.41224">
        <ele>392.13</ele>
        <time>2018-09-26T07:10:54Z</time>
      </trkpt>
      <trkpt lat="43.3715" lon="2.41238">
        <ele>392.15</ele>
        <time>2018-09-26T07:11:05Z</time>
      </trkpt>
      <trkpt lat="43.37139" lon="2.41243">
        <ele>392.81</ele>
        <time>2018-09-26T07:11:17Z</time>
      </trkpt>
      <trkpt lat="43.37127" lon="2.41251">
        <ele>395.18</ele>
        <time>2018-09-26T07:11:27Z</time>
      </trkpt>
      <trkpt lat="43.37118" lon="2.4126">
        <ele>397.49</ele>
        <time>2018-09-26T07:11:37Z</time>
      </trkpt>
      <trkpt lat="43.37112" lon="2.4127">
        <ele>398.96</ele>
        <time>2018-09-26T07:11:49Z</time>
      </trkpt>
      <trkpt lat="43.37101" lon="2.41284">
        <ele>401.23</ele>
        <time>2018-09-26T07:12:02Z</time>
      </trkpt>
      <trkpt lat="43.3709" lon="2.41298">
        <ele>402.42</ele>
        <time>2018-09-26T07:12:18Z</time>
      </trkpt>
      <trkpt lat="43.37083" lon="2.41311">
        <ele>402.57</ele>
        <time>2018-09-26T07:12:32Z</time>
      </trkpt>
      <trkpt lat="43.37073" lon="2.41314">
        <ele>403.23</ele>
        <time>2018-09-26T07:12:46Z</time>
      </trkpt>
      <trkpt lat="43.37074" lon="2.41313">
        <ele>403.41</ele>
        <time>2018-09-26T07:13:12Z</time>
      </trkpt>
      <trkpt lat="43.37072" lon="2.41333">
        <ele>403.4</ele>
        <time>2018-09-26T07:13:28Z</time>
      </trkpt>
      <trkpt lat="43.3708" lon="2.41337">
        <ele>402.4</ele>
        <time>2018-09-26T07:13:39Z</time>
      </trkpt>
      <trkpt lat="43.37082" lon="2.41343">
        <ele>406.87</ele>
        <time>2018-09-26T07:14:03Z</time>
      </trkpt>
      <trkpt lat="43.37088" lon="2.41349">
        <ele>410.55</ele>
        <time>2018-09-26T07:14:19Z</time>
      </trkpt>
      <trkpt lat="43.3709" lon="2.4136">
        <ele>414.01</ele>
        <time>2018-09-26T07:14:32Z</time>
      </trkpt>
      <trkpt lat="43.37103" lon="2.41363">
        <ele>417.88</ele>
        <time>2018-09-26T07:14:47Z</time>
      </trkpt>
      <trkpt lat="43.37123" lon="2.41359">
        <ele>421.26</ele>
        <time>2018-09-26T07:15:00Z</time>
      </trkpt>
      <trkpt lat="43.37131" lon="2.41359">
        <ele>424.31</ele>
        <time>2018-09-26T07:15:25Z</time>
      </trkpt>
      <trkpt lat="43.37128" lon="2.41372">
        <ele>427.17</ele>
        <time>2018-09-26T07:15:39Z</time>
      </trkpt>
      <trkpt lat="43.37124" lon="2.4138">
        <ele>429.84</ele>
        <time>2018-09-26T07:15:47Z</time>
      </trkpt>
      <trkpt lat="43.37122" lon="2.41386">
        <ele>431.84</ele>
        <time>2018-09-26T07:15:54Z</time>
      </trkpt>
      <trkpt lat="43.37118" lon="2.41405">
        <ele>435.67</ele>
        <time>2018-09-26T07:16:08Z</time>
      </trkpt>
      <trkpt lat="43.37114" lon="2.41426">
        <ele>440.27</ele>
        <time>2018-09-26T07:16:23Z</time>
      </trkpt>
      <trkpt lat="43.37106" lon="2.41446">
        <ele>443.82</ele>
        <time>2018-09-26T07:16:39Z</time>
      </trkpt>
      <trkpt lat="43.37101" lon="2.41465">
        <ele>445.32</ele>
        <time>2018-09-26T07:16:53Z</time>
      </trkpt>
      <trkpt lat="43.37095" lon="2.41485">
        <ele>446.66</ele>
        <time>2018-09-26T07:17:06Z</time>
      </trkpt>
      <trkpt lat="43.37094" lon="2.41505">
        <ele>447.89</ele>
        <time>2018-09-26T07:17:16Z</time>
      </trkpt>
      <trkpt lat="43.37088" lon="2.41522">
        <ele>449.68</ele>
        <time>2018-09-26T07:17:26Z</time>
      </trkpt>
      <trkpt lat="43.37083" lon="2.41536">
        <ele>452.04</ele>
        <time>2018-09-26T07:17:37Z</time>
      </trkpt>
      <trkpt lat="43.37074" lon="2.41555">
        <ele>457.32</ele>
        <time>2018-09-26T07:17:54Z</time>
      </trkpt>
      <trkpt lat="43.3707" lon="2.41574">
        <ele>461.03</ele>
        <time>2018-09-26T07:18:09Z</time>
      </trkpt>
      <trkpt lat="43.37072" lon="2.41595">
        <ele>465.29</ele>
        <time>2018-09-26T07:18:25Z</time>
      </trkpt>
      <trkpt lat="43.37077" lon="2.41614">
        <ele>468.16</ele>
        <time>2018-09-26T07:18:40Z</time>
      </trkpt>
      <trkpt lat="43.37081" lon="2.41632">
        <ele>472.42</ele>
        <time>2018-09-26T07:18:55Z</time>
      </trkpt>
      <trkpt lat="43.37085" lon="2.41652">
        <ele>474.66</ele>
        <time>2018-09-26T07:19:09Z</time>
      </trkpt>
      <trkpt lat="43.37089" lon="2.41669">
        <ele>477.5</ele>
        <time>2018-09-26T07:19:20Z</time>
      </trkpt>
      <trkpt lat="43.37092" lon="2.41688">
        <ele>481.65</ele>
        <time>2018-09-26T07:19:39Z</time>
      </trkpt>
      <trkpt lat="43.37096" lon="2.41707">
        <ele>486.74</ele>
        <time>2018-09-26T07:19:55Z</time>
      </trkpt>
      <trkpt lat="43.371" lon="2.4172">
        <ele>492.24</ele>
        <time>2018-09-26T07:20:17Z</time>
      </trkpt>
      <trkpt lat="43.37102" lon="2.41734">
        <ele>496.31</ele>
        <time>2018-09-26T07:20:37Z</time>
      </trkpt>
      <trkpt lat="43.37108" lon="2.41748">
        <ele>499.94</ele>
        <time>2018-09-26T07:20:55Z</time>
      </trkpt>
      <trkpt lat="43.37113" lon="2.41764">
        <ele>502.8</ele>
        <time>2018-09-26T07:21:06Z</time>
      </trkpt>
      <trkpt lat="43.37116" lon="2.41785">
        <ele>505.77</ele>
        <time>2018-09-26T07:21:17Z</time>
      </trkpt>
      <trkpt lat="43.37118" lon="2.41804">
        <ele>508.58</ele>
        <time>2018-09-26T07:21:27Z</time>
      </trkpt>
      <trkpt lat="43.37116" lon="2.41828">
        <ele>513.76</ele>
        <time>2018-09-26T07:21:45Z</time>
      </trkpt>
      <trkpt lat="43.37115" lon="2.41846">
        <ele>516.98</ele>
        <time>2018-09-26T07:21:59Z</time>
      </trkpt>
      <trkpt lat="43.37113" lon="2.41866">
        <ele>519.52</ele>
        <time>2018-09-26T07:22:12Z</time>
      </trkpt>
      <trkpt lat="43.37109" lon="2.41886">
        <ele>521.39</ele>
        <time>2018-09-26T07:22:22Z</time>
      </trkpt>
      <trkpt lat="43.37104" lon="2.41902">
        <ele>522.48</ele>
        <time>2018-09-26T07:22:31Z</time>
      </trkpt>
      <trkpt lat="43.371" lon="2.41915">
        <ele>523.96</ele>
        <time>2018-09-26T07:22:40Z</time>
      </trkpt>
      <trkpt lat="43.37098" lon="2.41933">
        <ele>525.85</ele>
        <time>2018-09-26T07:22:49Z</time>
      </trkpt>
      <trkpt lat="43.3709" lon="2.41945">
        <ele>527.16</ele>
        <time>2018-09-26T07:22:59Z</time>
      </trkpt>
      <trkpt lat="43.37088" lon="2.41958">
        <ele>526.46</ele>
        <time>2018-09-26T07:23:07Z</time>
      </trkpt>
      <trkpt lat="43.37085" lon="2.41976">
        <ele>528.07</ele>
        <time>2018-09-26T07:23:17Z</time>
      </trkpt>
      <trkpt lat="43.37082" lon="2.41997">
        <ele>529.05</ele>
        <time>2018-09-26T07:23:27Z</time>
      </trkpt>
      <trkpt lat="43.37077" lon="2.42014">
        <ele>528.59</ele>
        <time>2018-09-26T07:23:33Z</time>
      </trkpt>
      <trkpt lat="43.37073" lon="2.42031">
        <ele>528.08</ele>
        <time>2018-09-26T07:23:40Z</time>
      </trkpt>
      <trkpt lat="43.3707" lon="2.42047">
        <ele>527.51</ele>
        <time>2018-09-26T07:23:48Z</time>
      </trkpt>
      <trkpt lat="43.37069" lon="2.42062">
        <ele>527.37</ele>
        <time>2018-09-26T07:23:55Z</time>
      </trkpt>
      <trkpt lat="43.37068" lon="2.42077">
        <ele>527.58</ele>
        <time>2018-09-26T07:24:03Z</time>
      </trkpt>
      <trkpt lat="43.37069" lon="2.42092">
        <ele>530.09</ele>
        <time>2018-09-26T07:24:16Z</time>
      </trkpt>
      <trkpt lat="43.37063" lon="2.42109">
        <ele>530.6</ele>
        <time>2018-09-26T07:24:27Z</time>
      </trkpt>
      <trkpt lat="43.37053" lon="2.42117">
        <ele>531.69</ele>
        <time>2018-09-26T07:24:35Z</time>
      </trkpt>
      <trkpt lat="43.37042" lon="2.42128">
        <ele>532.5</ele>
        <time>2018-09-26T07:24:46Z</time>
      </trkpt>
      <trkpt lat="43.37035" lon="2.4214">
        <ele>532.66</ele>
        <time>2018-09-26T07:24:52Z</time>
      </trkpt>
      <trkpt lat="43.37033" lon="2.42155">
        <ele>534.22</ele>
        <time>2018-09-26T07:25:01Z</time>
      </trkpt>
      <trkpt lat="43.3703" lon="2.42173">
        <ele>537.33</ele>
        <time>2018-09-26T07:25:11Z</time>
      </trkpt>
      <trkpt lat="43.37028" lon="2.42192">
        <ele>540.9</ele>
        <time>2018-09-26T07:25:23Z</time>
      </trkpt>
      <trkpt lat="43.37026" lon="2.42205">
        <ele>543.57</ele>
        <time>2018-09-26T07:25:33Z</time>
      </trkpt>
      <trkpt lat="43.37021" lon="2.42222">
        <ele>547.75</ele>
        <time>2018-09-26T07:25:44Z</time>
      </trkpt>
      <trkpt lat="43.37016" lon="2.42239">
        <ele>551.18</ele>
        <time>2018-09-26T07:25:58Z</time>
      </trkpt>
      <trkpt lat="43.37013" lon="2.42261">
        <ele>555.51</ele>
        <time>2018-09-26T07:26:14Z</time>
      </trkpt>
      <trkpt lat="43.37007" lon="2.42289">
        <ele>559.79</ele>
        <time>2018-09-26T07:26:32Z</time>
      </trkpt>
      <trkpt lat="43.37004" lon="2.42311">
        <ele>563.28</ele>
        <time>2018-09-26T07:26:49Z</time>
      </trkpt>
      <trkpt lat="43.37002" lon="2.42332">
        <ele>566.46</ele>
        <time>2018-09-26T07:27:06Z</time>
      </trkpt>
      <trkpt lat="43.36998" lon="2.42346">
        <ele>567.7</ele>
        <time>2018-09-26T07:27:25Z</time>
      </trkpt>
      <trkpt lat="43.36998" lon="2.42362">
        <ele>568.23</ele>
        <time>2018-09-26T07:27:37Z</time>
      </trkpt>
      <trkpt lat="43.37" lon="2.42378">
        <ele>569.48</ele>
        <time>2018-09-26T07:27:49Z</time>
      </trkpt>
      <trkpt lat="43.37" lon="2.42398">
        <ele>571.13</ele>
        <time>2018-09-26T07:28:01Z</time>
      </trkpt>
      <trkpt lat="43.36998" lon="2.42419">
        <ele>572.13</ele>
        <time>2018-09-26T07:28:08Z</time>
      </trkpt>
      <trkpt lat="43.37" lon="2.42436">
        <ele>573.6</ele>
        <time>2018-09-26T07:28:16Z</time>
      </trkpt>
      <trkpt lat="43.37001" lon="2.42452">
        <ele>575.58</ele>
        <time>2018-09-26T07:28:24Z</time>
      </trkpt>
      <trkpt lat="43.37005" lon="2.42468">
        <ele>577.66</ele>
        <time>2018-09-26T07:28:33Z</time>
      </trkpt>
      <trkpt lat="43.37003" lon="2.42487">
        <ele>579.31</ele>
        <time>2018-09-26T07:28:43Z</time>
      </trkpt>
      <trkpt lat="43.36998" lon="2.42501">
        <ele>580.21</ele>
        <time>2018-09-26T07:28:49Z</time>
      </trkpt>
      <trkpt lat="43.36997" lon="2.42504">
        <ele>580.35</ele>
        <time>2018-09-26T07:28:51Z</time>
      </trkpt>
      <trkpt lat="43.36992" lon="2.42523">
        <ele>579.6</ele>
        <time>2018-09-26T07:29:01Z</time>
      </trkpt>
      <trkpt lat="43.36989" lon="2.4254">
        <ele>580.03</ele>
        <time>2018-09-26T07:29:07Z</time>
      </trkpt>
      <trkpt lat="43.36987" lon="2.42553">
        <ele>581.98</ele>
        <time>2018-09-26T07:29:13Z</time>
      </trkpt>
      <trkpt lat="43.36983" lon="2.42567">
        <ele>585.64</ele>
        <time>2018-09-26T07:29:36Z</time>
      </trkpt>
      <trkpt lat="43.3698" lon="2.42584">
        <ele>584.92</ele>
        <time>2018-09-26T07:29:46Z</time>
      </trkpt>
      <trkpt lat="43.36978" lon="2.426">
        <ele>587.35</ele>
        <time>2018-09-26T07:29:56Z</time>
      </trkpt>
      <trkpt lat="43.36979" lon="2.42614">
        <ele>590.12</ele>
        <time>2018-09-26T07:30:07Z</time>
      </trkpt>
      <trkpt lat="43.36976" lon="2.42632">
        <ele>591.52</ele>
        <time>2018-09-26T07:30:19Z</time>
      </trkpt>
      <trkpt lat="43.36973" lon="2.42651">
        <ele>593.27</ele>
        <time>2018-09-26T07:30:32Z</time>
      </trkpt>
      <trkpt lat="43.36975" lon="2.42673">
        <ele>596.32</ele>
        <time>2018-09-26T07:30:48Z</time>
      </trkpt>
      <trkpt lat="43.36978" lon="2.42696">
        <ele>599.28</ele>
        <time>2018-09-26T07:31:07Z</time>
      </trkpt>
      <trkpt lat="43.36981" lon="2.42726">
        <ele>601.39</ele>
        <time>2018-09-26T07:31:21Z</time>
      </trkpt>
      <trkpt lat="43.3698" lon="2.42746">
        <ele>601.71</ele>
        <time>2018-09-26T07:31:28Z</time>
      </trkpt>
      <trkpt lat="43.36981" lon="2.42768">
        <ele>601.64</ele>
        <time>2018-09-26T07:31:39Z</time>
      </trkpt>
      <trkpt lat="43.36991" lon="2.42783">
        <ele>603.01</ele>
        <time>2018-09-26T07:31:50Z</time>
      </trkpt>
      <trkpt lat="43.36995" lon="2.42805">
        <ele>605.9</ele>
        <time>2018-09-26T07:32:04Z</time>
      </trkpt>
      <trkpt lat="43.37002" lon="2.42827">
        <ele>608.1</ele>
        <time>2018-09-26T07:32:17Z</time>
      </trkpt>
      <trkpt lat="43.36997" lon="2.42848">
        <ele>607.82</ele>
        <time>2018-09-26T07:32:28Z</time>
      </trkpt>
      <trkpt lat="43.36998" lon="2.42871">
        <ele>609.13</ele>
        <time>2018-09-26T07:32:44Z</time>
      </trkpt>
      <trkpt lat="43.37001" lon="2.42893">
        <ele>611.89</ele>
        <time>2018-09-26T07:32:58Z</time>
      </trkpt>
      <trkpt lat="43.36999" lon="2.42917">
        <ele>612.27</ele>
        <time>2018-09-26T07:33:08Z</time>
      </trkpt>
      <trkpt lat="43.36995" lon="2.42935">
        <ele>611.9</ele>
        <time>2018-09-26T07:33:16Z</time>
      </trkpt>
      <trkpt lat="43.36993" lon="2.42953">
        <ele>610.42</ele>
        <time>2018-09-26T07:33:25Z</time>
      </trkpt>
      <trkpt lat="43.36993" lon="2.42974">
        <ele>610.42</ele>
        <time>2018-09-26T07:33:33Z</time>
      </trkpt>
      <trkpt lat="43.36992" lon="2.42989">
        <ele>609.86</ele>
        <time>2018-09-26T07:33:40Z</time>
      </trkpt>
      <trkpt lat="43.36988" lon="2.43009">
        <ele>609.13</ele>
        <time>2018-09-26T07:33:46Z</time>
      </trkpt>
      <trkpt lat="43.36985" lon="2.43026">
        <ele>608.86</ele>
        <time>2018-09-26T07:33:53Z</time>
      </trkpt>
      <trkpt lat="43.36984" lon="2.43043">
        <ele>609.21</ele>
        <time>2018-09-26T07:34:00Z</time>
      </trkpt>
      <trkpt lat="43.36983" lon="2.4306">
        <ele>608.42</ele>
        <time>2018-09-26T07:34:08Z</time>
      </trkpt>
      <trkpt lat="43.36983" lon="2.43077">
        <ele>607.38</ele>
        <time>2018-09-26T07:34:15Z</time>
      </trkpt>
      <trkpt lat="43.36984" lon="2.4309">
        <ele>606.5</ele>
        <time>2018-09-26T07:34:22Z</time>
      </trkpt>
      <trkpt lat="43.36979" lon="2.43109">
        <ele>606.42</ele>
        <time>2018-09-26T07:34:30Z</time>
      </trkpt>
      <trkpt lat="43.36977" lon="2.43127">
        <ele>605.98</ele>
        <time>2018-09-26T07:34:40Z</time>
      </trkpt>
      <trkpt lat="43.36976" lon="2.43143">
        <ele>604.53</ele>
        <time>2018-09-26T07:34:49Z</time>
      </trkpt>
      <trkpt lat="43.36975" lon="2.43162">
        <ele>603.43</ele>
        <time>2018-09-26T07:34:57Z</time>
      </trkpt>
      <trkpt lat="43.36973" lon="2.43179">
        <ele>603.05</ele>
        <time>2018-09-26T07:35:03Z</time>
      </trkpt>
      <trkpt lat="43.3697" lon="2.43197">
        <ele>602.24</ele>
        <time>2018-09-26T07:35:10Z</time>
      </trkpt>
      <trkpt lat="43.36965" lon="2.43213">
        <ele>600.1</ele>
        <time>2018-09-26T07:35:23Z</time>
      </trkpt>
      <trkpt lat="43.36955" lon="2.43222">
        <ele>595.41</ele>
        <time>2018-09-26T07:35:41Z</time>
      </trkpt>
      <trkpt lat="43.3695" lon="2.43239">
        <ele>589.82</ele>
        <time>2018-09-26T07:36:00Z</time>
      </trkpt>
      <trkpt lat="43.3694" lon="2.43244">
        <ele>585.72</ele>
        <time>2018-09-26T07:36:22Z</time>
      </trkpt>
      <trkpt lat="43.36929" lon="2.43238">
        <ele>585.76</ele>
        <time>2018-09-26T07:36:38Z</time>
      </trkpt>
      <trkpt lat="43.36917" lon="2.43227">
        <ele>590.42</ele>
        <time>2018-09-26T07:36:50Z</time>
      </trkpt>
      <trkpt lat="43.36907" lon="2.43215">
        <ele>594.58</ele>
        <time>2018-09-26T07:37:02Z</time>
      </trkpt>
      <trkpt lat="43.36897" lon="2.43202">
        <ele>598.39</ele>
        <time>2018-09-26T07:37:16Z</time>
      </trkpt>
      <trkpt lat="43.36887" lon="2.43186">
        <ele>602.54</ele>
        <time>2018-09-26T07:37:34Z</time>
      </trkpt>
      <trkpt lat="43.36883" lon="2.43171">
        <ele>604.29</ele>
        <time>2018-09-26T07:37:45Z</time>
      </trkpt>
      <trkpt lat="43.36874" lon="2.43154">
        <ele>606.14</ele>
        <time>2018-09-26T07:37:59Z</time>
      </trkpt>
      <trkpt lat="43.36862" lon="2.43145">
        <ele>608.49</ele>
        <time>2018-09-26T07:38:13Z</time>
      </trkpt>
      <trkpt lat="43.36849" lon="2.43139">
        <ele>611.61</ele>
        <time>2018-09-26T07:38:27Z</time>
      </trkpt>
      <trkpt lat="43.36844" lon="2.43128">
        <ele>615.25</ele>
        <time>2018-09-26T07:38:42Z</time>
      </trkpt>
      <trkpt lat="43.36831" lon="2.43113">
        <ele>616.25</ele>
        <time>2018-09-26T07:38:58Z</time>
      </trkpt>
      <trkpt lat="43.36819" lon="2.43095">
        <ele>618.55</ele>
        <time>2018-09-26T07:39:10Z</time>
      </trkpt>
      <trkpt lat="43.3681" lon="2.4306">
        <ele>624.45</ele>
        <time>2018-09-26T07:39:27Z</time>
      </trkpt>
      <trkpt lat="43.36806" lon="2.43043">
        <ele>627.25</ele>
        <time>2018-09-26T07:39:45Z</time>
      </trkpt>
      <trkpt lat="43.36798" lon="2.43036">
        <ele>626.89</ele>
        <time>2018-09-26T07:40:04Z</time>
      </trkpt>
      <trkpt lat="43.36788" lon="2.43031">
        <ele>628.02</ele>
        <time>2018-09-26T07:40:12Z</time>
      </trkpt>
      <trkpt lat="43.3678" lon="2.43019">
        <ele>630.99</ele>
        <time>2018-09-26T07:40:25Z</time>
      </trkpt>
      <trkpt lat="43.36773" lon="2.43">
        <ele>632.41</ele>
        <time>2018-09-26T07:40:38Z</time>
      </trkpt>
      <trkpt lat="43.36764" lon="2.42979">
        <ele>635.17</ele>
        <time>2018-09-26T07:40:52Z</time>
      </trkpt>
      <trkpt lat="43.36754" lon="2.42963">
        <ele>637.77</ele>
        <time>2018-09-26T07:41:03Z</time>
      </trkpt>
      <trkpt lat="43.36753" lon="2.42955">
        <ele>639.42</ele>
        <time>2018-09-26T07:41:10Z</time>
      </trkpt>
      <trkpt lat="43.36753" lon="2.42937">
        <ele>640.58</ele>
        <time>2018-09-26T07:41:17Z</time>
      </trkpt>
      <trkpt lat="43.36746" lon="2.42916">
        <ele>641.85</ele>
        <time>2018-09-26T07:41:28Z</time>
      </trkpt>
      <trkpt lat="43.36735" lon="2.42903">
        <ele>644.02</ele>
        <time>2018-09-26T07:41:46Z</time>
      </trkpt>
      <trkpt lat="43.36725" lon="2.4289">
        <ele>645.3</ele>
        <time>2018-09-26T07:41:56Z</time>
      </trkpt>
      <trkpt lat="43.36715" lon="2.42877">
        <ele>646.77</ele>
        <time>2018-09-26T07:42:06Z</time>
      </trkpt>
      <trkpt lat="43.36707" lon="2.42865">
        <ele>648.04</ele>
        <time>2018-09-26T07:42:13Z</time>
      </trkpt>
      <trkpt lat="43.36697" lon="2.42853">
        <ele>649.29</ele>
        <time>2018-09-26T07:42:21Z</time>
      </trkpt>
      <trkpt lat="43.36687" lon="2.42845">
        <ele>649.5</ele>
        <time>2018-09-26T07:42:27Z</time>
      </trkpt>
      <trkpt lat="43.36679" lon="2.42838">
        <ele>649.99</ele>
        <time>2018-09-26T07:42:33Z</time>
      </trkpt>
      <trkpt lat="43.36669" lon="2.4283">
        <ele>650.91</ele>
        <time>2018-09-26T07:42:41Z</time>
      </trkpt>
      <trkpt lat="43.36661" lon="2.42821">
        <ele>652.53</ele>
        <time>2018-09-26T07:42:50Z</time>
      </trkpt>
      <trkpt lat="43.36654" lon="2.42808">
        <ele>654.19</ele>
        <time>2018-09-26T07:43:00Z</time>
      </trkpt>
      <trkpt lat="43.36647" lon="2.42796">
        <ele>655.54</ele>
        <time>2018-09-26T07:43:08Z</time>
      </trkpt>
      <trkpt lat="43.36643" lon="2.42783">
        <ele>657.3</ele>
        <time>2018-09-26T07:43:16Z</time>
      </trkpt>
      <trkpt lat="43.36639" lon="2.42768">
        <ele>658.52</ele>
        <time>2018-09-26T07:43:25Z</time>
      </trkpt>
      <trkpt lat="43.36638" lon="2.42753">
        <ele>659.57</ele>
        <time>2018-09-26T07:43:34Z</time>
      </trkpt>
      <trkpt lat="43.36633" lon="2.42735">
        <ele>660.14</ele>
        <time>2018-09-26T07:43:45Z</time>
      </trkpt>
      <trkpt lat="43.36632" lon="2.42719">
        <ele>661.12</ele>
        <time>2018-09-26T07:43:55Z</time>
      </trkpt>
      <trkpt lat="43.36633" lon="2.42706">
        <ele>661.08</ele>
        <time>2018-09-26T07:44:22Z</time>
      </trkpt>
      <trkpt lat="43.36632" lon="2.42687">
        <ele>661.37</ele>
        <time>2018-09-26T07:44:34Z</time>
      </trkpt>
      <trkpt lat="43.36635" lon="2.42673">
        <ele>662.32</ele>
        <time>2018-09-26T07:44:41Z</time>
      </trkpt>
      <trkpt lat="43.36637" lon="2.42658">
        <ele>663.46</ele>
        <time>2018-09-26T07:44:48Z</time>
      </trkpt>
      <trkpt lat="43.36639" lon="2.42642">
        <ele>663.94</ele>
        <time>2018-09-26T07:44:55Z</time>
      </trkpt>
      <trkpt lat="43.36642" lon="2.42627">
        <ele>665</ele>
        <time>2018-09-26T07:45:03Z</time>
      </trkpt>
      <trkpt lat="43.36643" lon="2.42612">
        <ele>666.76</ele>
        <time>2018-09-26T07:45:18Z</time>
      </trkpt>
      <trkpt lat="43.36642" lon="2.42596">
        <ele>667.01</ele>
        <time>2018-09-26T07:45:25Z</time>
      </trkpt>
      <trkpt lat="43.36642" lon="2.42581">
        <ele>667.47</ele>
        <time>2018-09-26T07:45:32Z</time>
      </trkpt>
      <trkpt lat="43.36642" lon="2.42567">
        <ele>668.61</ele>
        <time>2018-09-26T07:45:39Z</time>
      </trkpt>
      <trkpt lat="43.36639" lon="2.42553">
        <ele>669.8</ele>
        <time>2018-09-26T07:45:46Z</time>
      </trkpt>
      <trkpt lat="43.36636" lon="2.42541">
        <ele>670.6</ele>
        <time>2018-09-26T07:45:53Z</time>
      </trkpt>
      <trkpt lat="43.36631" lon="2.42528">
        <ele>672.56</ele>
        <time>2018-09-26T07:46:01Z</time>
      </trkpt>
      <trkpt lat="43.36626" lon="2.42515">
        <ele>673.83</ele>
        <time>2018-09-26T07:46:10Z</time>
      </trkpt>
      <trkpt lat="43.36622" lon="2.42502">
        <ele>674.2</ele>
        <time>2018-09-26T07:46:17Z</time>
      </trkpt>
      <trkpt lat="43.36618" lon="2.42488">
        <ele>674.78</ele>
        <time>2018-09-26T07:46:26Z</time>
      </trkpt>
      <trkpt lat="43.36615" lon="2.42472">
        <ele>675.53</ele>
        <time>2018-09-26T07:46:35Z</time>
      </trkpt>
      <trkpt lat="43.36611" lon="2.42461">
        <ele>675.99</ele>
        <time>2018-09-26T07:46:41Z</time>
      </trkpt>
      <trkpt lat="43.36606" lon="2.42448">
        <ele>676.79</ele>
        <time>2018-09-26T07:46:47Z</time>
      </trkpt>
      <trkpt lat="43.366" lon="2.42437">
        <ele>677.09</ele>
        <time>2018-09-26T07:46:53Z</time>
      </trkpt>
      <trkpt lat="43.36592" lon="2.42427">
        <ele>677.38</ele>
        <time>2018-09-26T07:46:59Z</time>
      </trkpt>
      <trkpt lat="43.36584" lon="2.42417">
        <ele>678.49</ele>
        <time>2018-09-26T07:47:06Z</time>
      </trkpt>
      <trkpt lat="43.36577" lon="2.42405">
        <ele>678.92</ele>
        <time>2018-09-26T07:47:12Z</time>
      </trkpt>
      <trkpt lat="43.36573" lon="2.42392">
        <ele>679.1</ele>
        <time>2018-09-26T07:47:17Z</time>
      </trkpt>
      <trkpt lat="43.36569" lon="2.42378">
        <ele>679.26</ele>
        <time>2018-09-26T07:47:22Z</time>
      </trkpt>
      <trkpt lat="43.36566" lon="2.42363">
        <ele>678.92</ele>
        <time>2018-09-26T07:47:27Z</time>
      </trkpt>
      <trkpt lat="43.36563" lon="2.42348">
        <ele>678.07</ele>
        <time>2018-09-26T07:47:32Z</time>
      </trkpt>
      <trkpt lat="43.36561" lon="2.42333">
        <ele>677.24</ele>
        <time>2018-09-26T07:47:37Z</time>
      </trkpt>
      <trkpt lat="43.36559" lon="2.42318">
        <ele>676.3</ele>
        <time>2018-09-26T07:47:42Z</time>
      </trkpt>
      <trkpt lat="43.36558" lon="2.42302">
        <ele>675.2</ele>
        <time>2018-09-26T07:47:47Z</time>
      </trkpt>
      <trkpt lat="43.36557" lon="2.42287">
        <ele>674.09</ele>
        <time>2018-09-26T07:47:52Z</time>
      </trkpt>
      <trkpt lat="43.36558" lon="2.42271">
        <ele>673.28</ele>
        <time>2018-09-26T07:47:57Z</time>
      </trkpt>
      <trkpt lat="43.3656" lon="2.42256">
        <ele>672.26</ele>
        <time>2018-09-26T07:48:02Z</time>
      </trkpt>
      <trkpt lat="43.36562" lon="2.4224">
        <ele>671.19</ele>
        <time>2018-09-26T07:48:07Z</time>
      </trkpt>
      <trkpt lat="43.36565" lon="2.42225">
        <ele>670.41</ele>
        <time>2018-09-26T07:48:12Z</time>
      </trkpt>
      <trkpt lat="43.36567" lon="2.42209">
        <ele>669.73</ele>
        <time>2018-09-26T07:48:17Z</time>
      </trkpt>
      <trkpt lat="43.36567" lon="2.42197">
        <ele>669.28</ele>
        <time>2018-09-26T07:48:21Z</time>
      </trkpt>
      <trkpt lat="43.36566" lon="2.42181">
        <ele>668.69</ele>
        <time>2018-09-26T07:48:26Z</time>
      </trkpt>
      <trkpt lat="43.36566" lon="2.42167">
        <ele>667.98</ele>
        <time>2018-09-26T07:48:31Z</time>
      </trkpt>
      <trkpt lat="43.36566" lon="2.4215">
        <ele>667.25</ele>
        <time>2018-09-26T07:48:36Z</time>
      </trkpt>
      <trkpt lat="43.36568" lon="2.42136">
        <ele>666.32</ele>
        <time>2018-09-26T07:48:41Z</time>
      </trkpt>
      <trkpt lat="43.36571" lon="2.4212">
        <ele>665.58</ele>
        <time>2018-09-26T07:48:46Z</time>
      </trkpt>
      <trkpt lat="43.3657" lon="2.42106">
        <ele>665.16</ele>
        <time>2018-09-26T07:48:51Z</time>
      </trkpt>
      <trkpt lat="43.36569" lon="2.42091">
        <ele>664.78</ele>
        <time>2018-09-26T07:48:56Z</time>
      </trkpt>
      <trkpt lat="43.36567" lon="2.42078">
        <ele>664.35</ele>
        <time>2018-09-26T07:49:01Z</time>
      </trkpt>
      <trkpt lat="43.36563" lon="2.42066">
        <ele>664.36</ele>
        <time>2018-09-26T07:49:06Z</time>
      </trkpt>
      <trkpt lat="43.36558" lon="2.42053">
        <ele>664.2</ele>
        <time>2018-09-26T07:49:11Z</time>
      </trkpt>
      <trkpt lat="43.36554" lon="2.42041">
        <ele>663.77</ele>
        <time>2018-09-26T07:49:16Z</time>
      </trkpt>
      <trkpt lat="43.36549" lon="2.42029">
        <ele>663.56</ele>
        <time>2018-09-26T07:49:21Z</time>
      </trkpt>
      <trkpt lat="43.36544" lon="2.42016">
        <ele>663.82</ele>
        <time>2018-09-26T07:49:26Z</time>
      </trkpt>
      <trkpt lat="43.36539" lon="2.42004">
        <ele>664.75</ele>
        <time>2018-09-26T07:49:31Z</time>
      </trkpt>
      <trkpt lat="43.36535" lon="2.4199">
        <ele>665.53</ele>
        <time>2018-09-26T07:49:36Z</time>
      </trkpt>
      <trkpt lat="43.36532" lon="2.41974">
        <ele>666.06</ele>
        <time>2018-09-26T07:49:42Z</time>
      </trkpt>
      <trkpt lat="43.36529" lon="2.4196">
        <ele>666.13</ele>
        <time>2018-09-26T07:49:47Z</time>
      </trkpt>
      <trkpt lat="43.36524" lon="2.41945">
        <ele>666.77</ele>
        <time>2018-09-26T07:49:52Z</time>
      </trkpt>
      <trkpt lat="43.36519" lon="2.41934">
        <ele>667.78</ele>
        <time>2018-09-26T07:49:56Z</time>
      </trkpt>
      <trkpt lat="43.36512" lon="2.41922">
        <ele>668.94</ele>
        <time>2018-09-26T07:50:01Z</time>
      </trkpt>
      <trkpt lat="43.36504" lon="2.41911">
        <ele>669.7</ele>
        <time>2018-09-26T07:50:06Z</time>
      </trkpt>
      <trkpt lat="43.36497" lon="2.419">
        <ele>670.58</ele>
        <time>2018-09-26T07:50:12Z</time>
      </trkpt>
      <trkpt lat="43.36489" lon="2.41889">
        <ele>670.74</ele>
        <time>2018-09-26T07:50:18Z</time>
      </trkpt>
      <trkpt lat="43.36482" lon="2.41879">
        <ele>670.56</ele>
        <time>2018-09-26T07:50:24Z</time>
      </trkpt>
      <trkpt lat="43.3648" lon="2.41876">
        <ele>670.55</ele>
        <time>2018-09-26T07:50:25Z</time>
      </trkpt>
      <trkpt lat="43.36475" lon="2.41867">
        <ele>670.45</ele>
        <time>2018-09-26T07:50:30Z</time>
      </trkpt>
      <trkpt lat="43.36467" lon="2.41855">
        <ele>670.66</ele>
        <time>2018-09-26T07:50:37Z</time>
      </trkpt>
      <trkpt lat="43.3646" lon="2.41843">
        <ele>672.02</ele>
        <time>2018-09-26T07:50:44Z</time>
      </trkpt>
      <trkpt lat="43.36454" lon="2.41831">
        <ele>672.74</ele>
        <time>2018-09-26T07:50:51Z</time>
      </trkpt>
      <trkpt lat="43.36448" lon="2.41819">
        <ele>673.1</ele>
        <time>2018-09-26T07:50:57Z</time>
      </trkpt>
      <trkpt lat="43.36442" lon="2.41806">
        <ele>674.32</ele>
        <time>2018-09-26T07:51:04Z</time>
      </trkpt>
      <trkpt lat="43.36436" lon="2.41791">
        <ele>675.47</ele>
        <time>2018-09-26T07:51:11Z</time>
      </trkpt>
      <trkpt lat="43.36434" lon="2.41777">
        <ele>676.65</ele>
        <time>2018-09-26T07:51:17Z</time>
      </trkpt>
      <trkpt lat="43.36432" lon="2.41763">
        <ele>677.77</ele>
        <time>2018-09-26T07:51:23Z</time>
      </trkpt>
      <trkpt lat="43.36433" lon="2.41747">
        <ele>679.07</ele>
        <time>2018-09-26T07:51:30Z</time>
      </trkpt>
      <trkpt lat="43.36435" lon="2.41733">
        <ele>679.99</ele>
        <time>2018-09-26T07:51:36Z</time>
      </trkpt>
      <trkpt lat="43.36435" lon="2.41718">
        <ele>680.79</ele>
        <time>2018-09-26T07:51:42Z</time>
      </trkpt>
      <trkpt lat="43.36434" lon="2.41705">
        <ele>679.97</ele>
        <time>2018-09-26T07:51:50Z</time>
      </trkpt>
      <trkpt lat="43.36435" lon="2.4169">
        <ele>679.8</ele>
        <time>2018-09-26T07:52:02Z</time>
      </trkpt>
      <trkpt lat="43.36434" lon="2.41677">
        <ele>678.26</ele>
        <time>2018-09-26T07:52:27Z</time>
      </trkpt>
      <trkpt lat="43.36431" lon="2.41661">
        <ele>677.52</ele>
        <time>2018-09-26T07:52:46Z</time>
      </trkpt>
      <trkpt lat="43.36428" lon="2.41648">
        <ele>676.91</ele>
        <time>2018-09-26T07:52:50Z</time>
      </trkpt>
      <trkpt lat="43.36425" lon="2.41635">
        <ele>675.84</ele>
        <time>2018-09-26T07:52:54Z</time>
      </trkpt>
      <trkpt lat="43.36422" lon="2.41622">
        <ele>674.48</ele>
        <time>2018-09-26T07:52:58Z</time>
      </trkpt>
      <trkpt lat="43.36419" lon="2.4161">
        <ele>673.1</ele>
        <time>2018-09-26T07:53:02Z</time>
      </trkpt>
      <trkpt lat="43.36417" lon="2.41597">
        <ele>672.01</ele>
        <time>2018-09-26T07:53:06Z</time>
      </trkpt>
      <trkpt lat="43.36415" lon="2.41583">
        <ele>670.93</ele>
        <time>2018-09-26T07:53:10Z</time>
      </trkpt>
      <trkpt lat="43.36413" lon="2.4157">
        <ele>670.29</ele>
        <time>2018-09-26T07:53:14Z</time>
      </trkpt>
      <trkpt lat="43.3641" lon="2.41556">
        <ele>669.46</ele>
        <time>2018-09-26T07:53:18Z</time>
      </trkpt>
      <trkpt lat="43.36406" lon="2.41541">
        <ele>667.94</ele>
        <time>2018-09-26T07:53:23Z</time>
      </trkpt>
      <trkpt lat="43.36401" lon="2.4153">
        <ele>667.06</ele>
        <time>2018-09-26T07:53:27Z</time>
      </trkpt>
      <trkpt lat="43.36395" lon="2.41516">
        <ele>665.51</ele>
        <time>2018-09-26T07:53:32Z</time>
      </trkpt>
      <trkpt lat="43.3639" lon="2.41504">
        <ele>663.7</ele>
        <time>2018-09-26T07:53:36Z</time>
      </trkpt>
      <trkpt lat="43.36385" lon="2.41492">
        <ele>662.56</ele>
        <time>2018-09-26T07:53:40Z</time>
      </trkpt>
      <trkpt lat="43.36377" lon="2.41479">
        <ele>660.6</ele>
        <time>2018-09-26T07:53:45Z</time>
      </trkpt>
      <trkpt lat="43.36369" lon="2.41469">
        <ele>659.61</ele>
        <time>2018-09-26T07:53:49Z</time>
      </trkpt>
      <trkpt lat="43.36361" lon="2.4146">
        <ele>658.65</ele>
        <time>2018-09-26T07:53:54Z</time>
      </trkpt>
      <trkpt lat="43.36352" lon="2.41452">
        <ele>657.28</ele>
        <time>2018-09-26T07:53:59Z</time>
      </trkpt>
      <trkpt lat="43.36343" lon="2.41444">
        <ele>655.99</ele>
        <time>2018-09-26T07:54:03Z</time>
      </trkpt>
      <trkpt lat="43.36336" lon="2.41436">
        <ele>654.68</ele>
        <time>2018-09-26T07:54:07Z</time>
      </trkpt>
      <trkpt lat="43.36328" lon="2.41427">
        <ele>653.19</ele>
        <time>2018-09-26T07:54:11Z</time>
      </trkpt>
      <trkpt lat="43.3632" lon="2.41419">
        <ele>651.91</ele>
        <time>2018-09-26T07:54:15Z</time>
      </trkpt>
      <trkpt lat="43.36312" lon="2.4141">
        <ele>650.11</ele>
        <time>2018-09-26T07:54:19Z</time>
      </trkpt>
      <trkpt lat="43.36305" lon="2.414">
        <ele>648.1</ele>
        <time>2018-09-26T07:54:29Z</time>
      </trkpt>
      <trkpt lat="43.36297" lon="2.41388">
        <ele>647.93</ele>
        <time>2018-09-26T07:54:35Z</time>
      </trkpt>
      <trkpt lat="43.36291" lon="2.41377">
        <ele>647.01</ele>
        <time>2018-09-26T07:54:40Z</time>
      </trkpt>
      <trkpt lat="43.36282" lon="2.41368">
        <ele>646.57</ele>
        <time>2018-09-26T07:54:45Z</time>
      </trkpt>
      <trkpt lat="43.36272" lon="2.41358">
        <ele>645.98</ele>
        <time>2018-09-26T07:54:50Z</time>
      </trkpt>
      <trkpt lat="43.36265" lon="2.41349">
        <ele>645.04</ele>
        <time>2018-09-26T07:54:54Z</time>
      </trkpt>
      <trkpt lat="43.36257" lon="2.41339">
        <ele>644.34</ele>
        <time>2018-09-26T07:54:58Z</time>
      </trkpt>
      <trkpt lat="43.3625" lon="2.41329">
        <ele>643.98</ele>
        <time>2018-09-26T07:55:02Z</time>
      </trkpt>
      <trkpt lat="43.36241" lon="2.41318">
        <ele>642.67</ele>
        <time>2018-09-26T07:55:07Z</time>
      </trkpt>
      <trkpt lat="43.36234" lon="2.41307">
        <ele>641.95</ele>
        <time>2018-09-26T07:55:11Z</time>
      </trkpt>
      <trkpt lat="43.36226" lon="2.41296">
        <ele>641.39</ele>
        <time>2018-09-26T07:55:15Z</time>
      </trkpt>
      <trkpt lat="43.36218" lon="2.41283">
        <ele>640.91</ele>
        <time>2018-09-26T07:55:19Z</time>
      </trkpt>
      <trkpt lat="43.3621" lon="2.41272">
        <ele>640.64</ele>
        <time>2018-09-26T07:55:23Z</time>
      </trkpt>
      <trkpt lat="43.36202" lon="2.41262">
        <ele>640.07</ele>
        <time>2018-09-26T07:55:27Z</time>
      </trkpt>
      <trkpt lat="43.36194" lon="2.41256">
        <ele>639.03</ele>
        <time>2018-09-26T07:55:33Z</time>
      </trkpt>
      <trkpt lat="43.36187" lon="2.41247">
        <ele>637.71</ele>
        <time>2018-09-26T07:55:50Z</time>
      </trkpt>
      <trkpt lat="43.36179" lon="2.41238">
        <ele>637.41</ele>
        <time>2018-09-26T07:55:54Z</time>
      </trkpt>
      <trkpt lat="43.36172" lon="2.41228">
        <ele>636.87</ele>
        <time>2018-09-26T07:55:58Z</time>
      </trkpt>
      <trkpt lat="43.36164" lon="2.4122">
        <ele>636.27</ele>
        <time>2018-09-26T07:56:02Z</time>
      </trkpt>
      <trkpt lat="43.36156" lon="2.41212">
        <ele>635.77</ele>
        <time>2018-09-26T07:56:06Z</time>
      </trkpt>
      <trkpt lat="43.36148" lon="2.41204">
        <ele>635.05</ele>
        <time>2018-09-26T07:56:10Z</time>
      </trkpt>
      <trkpt lat="43.36139" lon="2.41196">
        <ele>634.34</ele>
        <time>2018-09-26T07:56:14Z</time>
      </trkpt>
      <trkpt lat="43.36131" lon="2.41187">
        <ele>633.53</ele>
        <time>2018-09-26T07:56:18Z</time>
      </trkpt>
      <trkpt lat="43.36124" lon="2.41179">
        <ele>632.22</ele>
        <time>2018-09-26T07:56:22Z</time>
      </trkpt>
      <trkpt lat="43.36116" lon="2.4117">
        <ele>631.33</ele>
        <time>2018-09-26T07:56:26Z</time>
      </trkpt>
      <trkpt lat="43.36108" lon="2.41161">
        <ele>630.57</ele>
        <time>2018-09-26T07:56:30Z</time>
      </trkpt>
      <trkpt lat="43.361" lon="2.41152">
        <ele>629.86</ele>
        <time>2018-09-26T07:56:34Z</time>
      </trkpt>
      <trkpt lat="43.36092" lon="2.41143">
        <ele>629.11</ele>
        <time>2018-09-26T07:56:38Z</time>
      </trkpt>
      <trkpt lat="43.36084" lon="2.41134">
        <ele>628.83</ele>
        <time>2018-09-26T07:56:42Z</time>
      </trkpt>
      <trkpt lat="43.36077" lon="2.41125">
        <ele>628.69</ele>
        <time>2018-09-26T07:56:46Z</time>
      </trkpt>
      <trkpt lat="43.36068" lon="2.41116">
        <ele>628.2</ele>
        <time>2018-09-26T07:56:50Z</time>
      </trkpt>
      <trkpt lat="43.3606" lon="2.41107">
        <ele>626.64</ele>
        <time>2018-09-26T07:56:54Z</time>
      </trkpt>
      <trkpt lat="43.36053" lon="2.41096">
        <ele>625.53</ele>
        <time>2018-09-26T07:56:58Z</time>
      </trkpt>
      <trkpt lat="43.36046" lon="2.41085">
        <ele>624.92</ele>
        <time>2018-09-26T07:57:02Z</time>
      </trkpt>
      <trkpt lat="43.3604" lon="2.41074">
        <ele>624.15</ele>
        <time>2018-09-26T07:57:06Z</time>
      </trkpt>
      <trkpt lat="43.36034" lon="2.41062">
        <ele>623.24</ele>
        <time>2018-09-26T07:57:10Z</time>
      </trkpt>
      <trkpt lat="43.36028" lon="2.41051">
        <ele>622.72</ele>
        <time>2018-09-26T07:57:14Z</time>
      </trkpt>
      <trkpt lat="43.36023" lon="2.41039">
        <ele>621.83</ele>
        <time>2018-09-26T07:57:18Z</time>
      </trkpt>
      <trkpt lat="43.36017" lon="2.41028">
        <ele>620.97</ele>
        <time>2018-09-26T07:57:22Z</time>
      </trkpt>
      <trkpt lat="43.36011" lon="2.41017">
        <ele>620.09</ele>
        <time>2018-09-26T07:57:26Z</time>
      </trkpt>
      <trkpt lat="43.36006" lon="2.41006">
        <ele>619.32</ele>
        <time>2018-09-26T07:57:30Z</time>
      </trkpt>
      <trkpt lat="43.35999" lon="2.40993">
        <ele>618.51</ele>
        <time>2018-09-26T07:57:35Z</time>
      </trkpt>
      <trkpt lat="43.35994" lon="2.40983">
        <ele>617.94</ele>
        <time>2018-09-26T07:57:39Z</time>
      </trkpt>
      <trkpt lat="43.35988" lon="2.40971">
        <ele>617.19</ele>
        <time>2018-09-26T07:57:44Z</time>
      </trkpt>
      <trkpt lat="43.35982" lon="2.40958">
        <ele>615.43</ele>
        <time>2018-09-26T07:57:49Z</time>
      </trkpt>
      <trkpt lat="43.35977" lon="2.40945">
        <ele>614.06</ele>
        <time>2018-09-26T07:57:54Z</time>
      </trkpt>
      <trkpt lat="43.35974" lon="2.40933">
        <ele>612.52</ele>
        <time>2018-09-26T07:57:58Z</time>
      </trkpt>
      <trkpt lat="43.35972" lon="2.40927">
        <ele>611.95</ele>
        <time>2018-09-26T07:58:00Z</time>
      </trkpt>
      <trkpt lat="43.35969" lon="2.40918">
        <ele>611.19</ele>
        <time>2018-09-26T07:58:03Z</time>
      </trkpt>
      <trkpt lat="43.35967" lon="2.40905">
        <ele>610.43</ele>
        <time>2018-09-26T07:58:07Z</time>
      </trkpt>
      <trkpt lat="43.35963" lon="2.40893">
        <ele>609.14</ele>
        <time>2018-09-26T07:58:11Z</time>
      </trkpt>
      <trkpt lat="43.3596" lon="2.4088">
        <ele>608.24</ele>
        <time>2018-09-26T07:58:15Z</time>
      </trkpt>
      <trkpt lat="43.35956" lon="2.40867">
        <ele>607.07</ele>
        <time>2018-09-26T07:58:19Z</time>
      </trkpt>
      <trkpt lat="43.35953" lon="2.40853">
        <ele>605.03</ele>
        <time>2018-09-26T07:58:24Z</time>
      </trkpt>
      <trkpt lat="43.35947" lon="2.40839">
        <ele>603.37</ele>
        <time>2018-09-26T07:58:29Z</time>
      </trkpt>
      <trkpt lat="43.35943" lon="2.40827">
        <ele>602.06</ele>
        <time>2018-09-26T07:58:36Z</time>
      </trkpt>
      <trkpt lat="43.35939" lon="2.40814">
        <ele>603.41</ele>
        <time>2018-09-26T07:58:45Z</time>
      </trkpt>
      <trkpt lat="43.35934" lon="2.40802">
        <ele>604.27</ele>
        <time>2018-09-26T07:58:54Z</time>
      </trkpt>
      <trkpt lat="43.35927" lon="2.40792">
        <ele>603.71</ele>
        <time>2018-09-26T07:59:02Z</time>
      </trkpt>
      <trkpt lat="43.35922" lon="2.40782">
        <ele>603.64</ele>
        <time>2018-09-26T07:59:06Z</time>
      </trkpt>
      <trkpt lat="43.35917" lon="2.40771">
        <ele>603.58</ele>
        <time>2018-09-26T07:59:10Z</time>
      </trkpt>
      <trkpt lat="43.35912" lon="2.40759">
        <ele>603.14</ele>
        <time>2018-09-26T07:59:14Z</time>
      </trkpt>
      <trkpt lat="43.35906" lon="2.40747">
        <ele>602.57</ele>
        <time>2018-09-26T07:59:18Z</time>
      </trkpt>
      <trkpt lat="43.359" lon="2.40736">
        <ele>601.37</ele>
        <time>2018-09-26T07:59:22Z</time>
      </trkpt>
      <trkpt lat="43.35895" lon="2.40725">
        <ele>600.36</ele>
        <time>2018-09-26T07:59:26Z</time>
      </trkpt>
      <trkpt lat="43.35889" lon="2.40714">
        <ele>599.73</ele>
        <time>2018-09-26T07:59:30Z</time>
      </trkpt>
      <trkpt lat="43.35884" lon="2.40703">
        <ele>599.13</ele>
        <time>2018-09-26T07:59:34Z</time>
      </trkpt>
      <trkpt lat="43.35879" lon="2.40689">
        <ele>598.81</ele>
        <time>2018-09-26T07:59:39Z</time>
      </trkpt>
      <trkpt lat="43.35876" lon="2.40674">
        <ele>598.89</ele>
        <time>2018-09-26T07:59:44Z</time>
      </trkpt>
      <trkpt lat="43.35875" lon="2.4066">
        <ele>598.9</ele>
        <time>2018-09-26T07:59:48Z</time>
      </trkpt>
      <trkpt lat="43.35874" lon="2.40647">
        <ele>598.79</ele>
        <time>2018-09-26T07:59:52Z</time>
      </trkpt>
      <trkpt lat="43.35874" lon="2.40634">
        <ele>598.47</ele>
        <time>2018-09-26T07:59:56Z</time>
      </trkpt>
      <trkpt lat="43.35873" lon="2.4062">
        <ele>598.08</ele>
        <time>2018-09-26T08:00:00Z</time>
      </trkpt>
      <trkpt lat="43.3587" lon="2.40608">
        <ele>597.86</ele>
        <time>2018-09-26T08:00:04Z</time>
      </trkpt>
      <trkpt lat="43.35865" lon="2.40596">
        <ele>597.99</ele>
        <time>2018-09-26T08:00:08Z</time>
      </trkpt>
      <trkpt lat="43.35858" lon="2.40586">
        <ele>598.75</ele>
        <time>2018-09-26T08:00:12Z</time>
      </trkpt>
      <trkpt lat="43.3585" lon="2.4058">
        <ele>598.81</ele>
        <time>2018-09-26T08:00:16Z</time>
      </trkpt>
      <trkpt lat="43.35839" lon="2.40577">
        <ele>598.3</ele>
        <time>2018-09-26T08:00:20Z</time>
      </trkpt>
      <trkpt lat="43.3583" lon="2.40575">
        <ele>597.04</ele>
        <time>2018-09-26T08:00:24Z</time>
      </trkpt>
      <trkpt lat="43.35821" lon="2.40567">
        <ele>596.01</ele>
        <time>2018-09-26T08:00:28Z</time>
      </trkpt>
      <trkpt lat="43.35815" lon="2.40556">
        <ele>595.04</ele>
        <time>2018-09-26T08:00:32Z</time>
      </trkpt>
      <trkpt lat="43.3581" lon="2.40546">
        <ele>593.8</ele>
        <time>2018-09-26T08:00:36Z</time>
      </trkpt>
      <trkpt lat="43.35804" lon="2.40533">
        <ele>593.14</ele>
        <time>2018-09-26T08:00:41Z</time>
      </trkpt>
      <trkpt lat="43.358" lon="2.40521">
        <ele>592.28</ele>
        <time>2018-09-26T08:00:45Z</time>
      </trkpt>
      <trkpt lat="43.35798" lon="2.40508">
        <ele>591.03</ele>
        <time>2018-09-26T08:00:50Z</time>
      </trkpt>
      <trkpt lat="43.35793" lon="2.40494">
        <ele>589.57</ele>
        <time>2018-09-26T08:00:55Z</time>
      </trkpt>
      <trkpt lat="43.35784" lon="2.40485">
        <ele>587.66</ele>
        <time>2018-09-26T08:01:00Z</time>
      </trkpt>
      <trkpt lat="43.35776" lon="2.40487">
        <ele>585.7</ele>
        <time>2018-09-26T08:01:05Z</time>
      </trkpt>
      <trkpt lat="43.35767" lon="2.4049">
        <ele>583.77</ele>
        <time>2018-09-26T08:01:10Z</time>
      </trkpt>
      <trkpt lat="43.35757" lon="2.40495">
        <ele>582.2</ele>
        <time>2018-09-26T08:01:15Z</time>
      </trkpt>
      <trkpt lat="43.35746" lon="2.405">
        <ele>580.8</ele>
        <time>2018-09-26T08:01:20Z</time>
      </trkpt>
      <trkpt lat="43.35732" lon="2.40506">
        <ele>579.74</ele>
        <time>2018-09-26T08:01:29Z</time>
      </trkpt>
      <trkpt lat="43.35721" lon="2.40508">
        <ele>579.17</ele>
        <time>2018-09-26T08:01:34Z</time>
      </trkpt>
      <trkpt lat="43.35713" lon="2.40505">
        <ele>578.22</ele>
        <time>2018-09-26T08:01:39Z</time>
      </trkpt>
      <trkpt lat="43.35709" lon="2.40491">
        <ele>576.86</ele>
        <time>2018-09-26T08:01:44Z</time>
      </trkpt>
      <trkpt lat="43.35706" lon="2.40477">
        <ele>575.65</ele>
        <time>2018-09-26T08:01:49Z</time>
      </trkpt>
      <trkpt lat="43.35706" lon="2.40462">
        <ele>574.82</ele>
        <time>2018-09-26T08:01:54Z</time>
      </trkpt>
      <trkpt lat="43.35707" lon="2.40447">
        <ele>573.6</ele>
        <time>2018-09-26T08:01:59Z</time>
      </trkpt>
      <trkpt lat="43.35707" lon="2.40432">
        <ele>572.05</ele>
        <time>2018-09-26T08:02:04Z</time>
      </trkpt>
      <trkpt lat="43.3571" lon="2.40418">
        <ele>569.87</ele>
        <time>2018-09-26T08:02:09Z</time>
      </trkpt>
      <trkpt lat="43.35718" lon="2.40408">
        <ele>568.97</ele>
        <time>2018-09-26T08:02:14Z</time>
      </trkpt>
      <trkpt lat="43.35723" lon="2.40393">
        <ele>568.38</ele>
        <time>2018-09-26T08:02:19Z</time>
      </trkpt>
      <trkpt lat="43.35729" lon="2.4038">
        <ele>567.28</ele>
        <time>2018-09-26T08:02:24Z</time>
      </trkpt>
      <trkpt lat="43.35732" lon="2.40367">
        <ele>566.23</ele>
        <time>2018-09-26T08:02:29Z</time>
      </trkpt>
      <trkpt lat="43.35735" lon="2.4035">
        <ele>565.13</ele>
        <time>2018-09-26T08:02:35Z</time>
      </trkpt>
      <trkpt lat="43.35735" lon="2.40335">
        <ele>564.47</ele>
        <time>2018-09-26T08:02:41Z</time>
      </trkpt>
      <trkpt lat="43.3573" lon="2.40321">
        <ele>562.82</ele>
        <time>2018-09-26T08:02:47Z</time>
      </trkpt>
      <trkpt lat="43.35723" lon="2.40308">
        <ele>561.05</ele>
        <time>2018-09-26T08:02:53Z</time>
      </trkpt>
      <trkpt lat="43.35714" lon="2.40297">
        <ele>559.31</ele>
        <time>2018-09-26T08:02:58Z</time>
      </trkpt>
      <trkpt lat="43.35707" lon="2.40287">
        <ele>557.94</ele>
        <time>2018-09-26T08:03:03Z</time>
      </trkpt>
      <trkpt lat="43.35703" lon="2.40271">
        <ele>556.5</ele>
        <time>2018-09-26T08:03:09Z</time>
      </trkpt>
      <trkpt lat="43.35707" lon="2.40257">
        <ele>555.55</ele>
        <time>2018-09-26T08:03:16Z</time>
      </trkpt>
      <trkpt lat="43.35703" lon="2.40243">
        <ele>555.91</ele>
        <time>2018-09-26T08:03:24Z</time>
      </trkpt>
      <trkpt lat="43.3569" lon="2.40223">
        <ele>556.51</ele>
        <time>2018-09-26T08:03:40Z</time>
      </trkpt>
      <trkpt lat="43.35678" lon="2.40204">
        <ele>558.87</ele>
        <time>2018-09-26T08:03:49Z</time>
      </trkpt>
      <trkpt lat="43.35674" lon="2.40188">
        <ele>560.72</ele>
        <time>2018-09-26T08:03:59Z</time>
      </trkpt>
      <trkpt lat="43.35669" lon="2.4017">
        <ele>560.99</ele>
        <time>2018-09-26T08:04:07Z</time>
      </trkpt>
      <trkpt lat="43.35664" lon="2.40151">
        <ele>561.73</ele>
        <time>2018-09-26T08:04:17Z</time>
      </trkpt>
      <trkpt lat="43.35658" lon="2.40132">
        <ele>563.88</ele>
        <time>2018-09-26T08:04:27Z</time>
      </trkpt>
      <trkpt lat="43.35657" lon="2.40121">
        <ele>565.02</ele>
        <time>2018-09-26T08:04:37Z</time>
      </trkpt>
      <trkpt lat="43.35654" lon="2.40105">
        <ele>565.59</ele>
        <time>2018-09-26T08:04:46Z</time>
      </trkpt>
      <trkpt lat="43.35653" lon="2.40087">
        <ele>565.99</ele>
        <time>2018-09-26T08:04:53Z</time>
      </trkpt>
      <trkpt lat="43.35651" lon="2.40064">
        <ele>566.27</ele>
        <time>2018-09-26T08:05:02Z</time>
      </trkpt>
      <trkpt lat="43.35647" lon="2.40043">
        <ele>566.38</ele>
        <time>2018-09-26T08:05:13Z</time>
      </trkpt>
      <trkpt lat="43.35643" lon="2.40022">
        <ele>567.1</ele>
        <time>2018-09-26T08:05:22Z</time>
      </trkpt>
      <trkpt lat="43.35638" lon="2.40001">
        <ele>567.53</ele>
        <time>2018-09-26T08:05:31Z</time>
      </trkpt>
      <trkpt lat="43.35636" lon="2.39979">
        <ele>567.29</ele>
        <time>2018-09-26T08:05:40Z</time>
      </trkpt>
      <trkpt lat="43.35635" lon="2.39973">
        <ele>566.92</ele>
        <time>2018-09-26T08:05:42Z</time>
      </trkpt>
      <trkpt lat="43.35629" lon="2.39954">
        <ele>566.52</ele>
        <time>2018-09-26T08:05:48Z</time>
      </trkpt>
      <trkpt lat="43.35625" lon="2.39928">
        <ele>566.99</ele>
        <time>2018-09-26T08:05:56Z</time>
      </trkpt>
      <trkpt lat="43.35624" lon="2.39915">
        <ele>566.92</ele>
        <time>2018-09-26T08:06:04Z</time>
      </trkpt>
      <trkpt lat="43.35617" lon="2.39878">
        <ele>567.14</ele>
        <time>2018-09-26T08:06:16Z</time>
      </trkpt>
      <trkpt lat="43.3562" lon="2.39857">
        <ele>565.54</ele>
        <time>2018-09-26T08:06:26Z</time>
      </trkpt>
      <trkpt lat="43.35622" lon="2.39841">
        <ele>563.98</ele>
        <time>2018-09-26T08:06:33Z</time>
      </trkpt>
      <trkpt lat="43.35616" lon="2.39803">
        <ele>561.11</ele>
        <time>2018-09-26T08:06:43Z</time>
      </trkpt>
      <trkpt lat="43.35615" lon="2.39779">
        <ele>559.49</ele>
        <time>2018-09-26T08:06:50Z</time>
      </trkpt>
      <trkpt lat="43.35614" lon="2.39755">
        <ele>557.76</ele>
        <time>2018-09-26T08:06:56Z</time>
      </trkpt>
      <trkpt lat="43.35612" lon="2.39718">
        <ele>555.68</ele>
        <time>2018-09-26T08:07:02Z</time>
      </trkpt>
      <trkpt lat="43.35614" lon="2.39696">
        <ele>554</ele>
        <time>2018-09-26T08:07:08Z</time>
      </trkpt>
      <trkpt lat="43.35601" lon="2.39648">
        <ele>551.01</ele>
        <time>2018-09-26T08:07:17Z</time>
      </trkpt>
      <trkpt lat="43.35597" lon="2.39628">
        <ele>548.81</ele>
        <time>2018-09-26T08:07:33Z</time>
      </trkpt>
      <trkpt lat="43.35591" lon="2.39623">
        <ele>548.5</ele>
        <time>2018-09-26T08:08:23Z</time>
      </trkpt>
      <trkpt lat="43.35583" lon="2.39631">
        <ele>548.18</ele>
        <time>2018-09-26T08:08:29Z</time>
      </trkpt>
      <trkpt lat="43.35574" lon="2.39638">
        <ele>546.84</ele>
        <time>2018-09-26T08:08:34Z</time>
      </trkpt>
      <trkpt lat="43.35564" lon="2.39645">
        <ele>545.5</ele>
        <time>2018-09-26T08:08:39Z</time>
      </trkpt>
      <trkpt lat="43.35555" lon="2.39651">
        <ele>544.13</ele>
        <time>2018-09-26T08:08:44Z</time>
      </trkpt>
      <trkpt lat="43.35545" lon="2.39657">
        <ele>543.36</ele>
        <time>2018-09-26T08:08:49Z</time>
      </trkpt>
      <trkpt lat="43.35536" lon="2.39662">
        <ele>543.16</ele>
        <time>2018-09-26T08:08:53Z</time>
      </trkpt>
      <trkpt lat="43.35527" lon="2.39667">
        <ele>542.84</ele>
        <time>2018-09-26T08:08:57Z</time>
      </trkpt>
      <trkpt lat="43.35516" lon="2.3967">
        <ele>542.33</ele>
        <time>2018-09-26T08:09:01Z</time>
      </trkpt>
      <trkpt lat="43.35505" lon="2.39674">
        <ele>542.2</ele>
        <time>2018-09-26T08:09:05Z</time>
      </trkpt>
      <trkpt lat="43.35494" lon="2.39676">
        <ele>542.03</ele>
        <time>2018-09-26T08:09:09Z</time>
      </trkpt>
      <trkpt lat="43.35483" lon="2.39677">
        <ele>541.84</ele>
        <time>2018-09-26T08:09:13Z</time>
      </trkpt>
      <trkpt lat="43.35473" lon="2.39674">
        <ele>541.44</ele>
        <time>2018-09-26T08:09:17Z</time>
      </trkpt>
      <trkpt lat="43.35461" lon="2.39669">
        <ele>541.08</ele>
        <time>2018-09-26T08:09:22Z</time>
      </trkpt>
      <trkpt lat="43.35452" lon="2.39666">
        <ele>540.89</ele>
        <time>2018-09-26T08:09:26Z</time>
      </trkpt>
      <trkpt lat="43.35442" lon="2.39667">
        <ele>540.21</ele>
        <time>2018-09-26T08:09:30Z</time>
      </trkpt>
      <trkpt lat="43.35433" lon="2.3967">
        <ele>539.21</ele>
        <time>2018-09-26T08:09:34Z</time>
      </trkpt>
      <trkpt lat="43.35424" lon="2.39675">
        <ele>538.31</ele>
        <time>2018-09-26T08:09:38Z</time>
      </trkpt>
      <trkpt lat="43.35416" lon="2.39683">
        <ele>536.69</ele>
        <time>2018-09-26T08:09:43Z</time>
      </trkpt>
      <trkpt lat="43.35409" lon="2.39691">
        <ele>534.99</ele>
        <time>2018-09-26T08:09:48Z</time>
      </trkpt>
      <trkpt lat="43.354" lon="2.39698">
        <ele>532.11</ele>
        <time>2018-09-26T08:09:55Z</time>
      </trkpt>
      <trkpt lat="43.35393" lon="2.39704">
        <ele>530.74</ele>
        <time>2018-09-26T08:10:10Z</time>
      </trkpt>
      <trkpt lat="43.35386" lon="2.39711">
        <ele>530.28</ele>
        <time>2018-09-26T08:10:31Z</time>
      </trkpt>
      <trkpt lat="43.35382" lon="2.39725">
        <ele>530.46</ele>
        <time>2018-09-26T08:10:36Z</time>
      </trkpt>
      <trkpt lat="43.3538" lon="2.39737">
        <ele>530.89</ele>
        <time>2018-09-26T08:10:41Z</time>
      </trkpt>
      <trkpt lat="43.35377" lon="2.39752">
        <ele>531.48</ele>
        <time>2018-09-26T08:10:46Z</time>
      </trkpt>
      <trkpt lat="43.35375" lon="2.39767">
        <ele>531.5</ele>
        <time>2018-09-26T08:10:51Z</time>
      </trkpt>
      <trkpt lat="43.35371" lon="2.39782">
        <ele>531.48</ele>
        <time>2018-09-26T08:10:56Z</time>
      </trkpt>
      <trkpt lat="43.35368" lon="2.398">
        <ele>531.31</ele>
        <time>2018-09-26T08:11:01Z</time>
      </trkpt>
      <trkpt lat="43.35365" lon="2.39814">
        <ele>530.85</ele>
        <time>2018-09-26T08:11:05Z</time>
      </trkpt>
      <trkpt lat="43.35363" lon="2.39831">
        <ele>530.36</ele>
        <time>2018-09-26T08:11:10Z</time>
      </trkpt>
      <trkpt lat="43.35362" lon="2.39846">
        <ele>529.55</ele>
        <time>2018-09-26T08:11:15Z</time>
      </trkpt>
      <trkpt lat="43.35364" lon="2.39859">
        <ele>528.87</ele>
        <time>2018-09-26T08:11:19Z</time>
      </trkpt>
      <trkpt lat="43.35368" lon="2.39875">
        <ele>528.55</ele>
        <time>2018-09-26T08:11:24Z</time>
      </trkpt>
      <trkpt lat="43.35373" lon="2.39888">
        <ele>528.15</ele>
        <time>2018-09-26T08:11:29Z</time>
      </trkpt>
      <trkpt lat="43.35379" lon="2.39898">
        <ele>527.65</ele>
        <time>2018-09-26T08:11:33Z</time>
      </trkpt>
      <trkpt lat="43.35386" lon="2.39908">
        <ele>526.44</ele>
        <time>2018-09-26T08:11:39Z</time>
      </trkpt>
      <trkpt lat="43.35378" lon="2.39922">
        <ele>524.74</ele>
        <time>2018-09-26T08:11:46Z</time>
      </trkpt>
      <trkpt lat="43.35367" lon="2.39931">
        <ele>524.29</ele>
        <time>2018-09-26T08:11:52Z</time>
      </trkpt>
      <trkpt lat="43.35357" lon="2.39937">
        <ele>524.15</ele>
        <time>2018-09-26T08:11:59Z</time>
      </trkpt>
      <trkpt lat="43.35345" lon="2.39944">
        <ele>524.32</ele>
        <time>2018-09-26T08:12:07Z</time>
      </trkpt>
      <trkpt lat="43.35333" lon="2.39951">
        <ele>524.6</ele>
        <time>2018-09-26T08:12:14Z</time>
      </trkpt>
      <trkpt lat="43.35319" lon="2.39957">
        <ele>525.15</ele>
        <time>2018-09-26T08:12:22Z</time>
      </trkpt>
      <trkpt lat="43.35306" lon="2.39958">
        <ele>525.53</ele>
        <time>2018-09-26T08:12:28Z</time>
      </trkpt>
      <trkpt lat="43.35294" lon="2.39959">
        <ele>525.42</ele>
        <time>2018-09-26T08:12:33Z</time>
      </trkpt>
      <trkpt lat="43.35281" lon="2.39959">
        <ele>525.22</ele>
        <time>2018-09-26T08:12:38Z</time>
      </trkpt>
      <trkpt lat="43.35267" lon="2.39958">
        <ele>525.07</ele>
        <time>2018-09-26T08:12:43Z</time>
      </trkpt>
      <trkpt lat="43.35256" lon="2.39957">
        <ele>525.09</ele>
        <time>2018-09-26T08:12:47Z</time>
      </trkpt>
      <trkpt lat="43.35246" lon="2.39956">
        <ele>525.56</ele>
        <time>2018-09-26T08:12:51Z</time>
      </trkpt>
      <trkpt lat="43.35236" lon="2.39955">
        <ele>526.37</ele>
        <time>2018-09-26T08:12:56Z</time>
      </trkpt>
      <trkpt lat="43.35227" lon="2.39953">
        <ele>527.35</ele>
        <time>2018-09-26T08:13:01Z</time>
      </trkpt>
      <trkpt lat="43.35218" lon="2.39951">
        <ele>528.35</ele>
        <time>2018-09-26T08:13:06Z</time>
      </trkpt>
      <trkpt lat="43.35207" lon="2.39947">
        <ele>529.14</ele>
        <time>2018-09-26T08:13:12Z</time>
      </trkpt>
      <trkpt lat="43.35197" lon="2.39944">
        <ele>530.16</ele>
        <time>2018-09-26T08:13:17Z</time>
      </trkpt>
      <trkpt lat="43.35188" lon="2.39944">
        <ele>531.9</ele>
        <time>2018-09-26T08:13:22Z</time>
      </trkpt>
      <trkpt lat="43.35179" lon="2.39945">
        <ele>533.02</ele>
        <time>2018-09-26T08:13:27Z</time>
      </trkpt>
      <trkpt lat="43.35169" lon="2.39947">
        <ele>533.75</ele>
        <time>2018-09-26T08:13:32Z</time>
      </trkpt>
      <trkpt lat="43.35167" lon="2.39948">
        <ele>534.07</ele>
        <time>2018-09-26T08:13:33Z</time>
      </trkpt>
      <trkpt lat="43.35158" lon="2.3995">
        <ele>534.96</ele>
        <time>2018-09-26T08:13:40Z</time>
      </trkpt>
      <trkpt lat="43.35148" lon="2.39952">
        <ele>535.71</ele>
        <time>2018-09-26T08:13:52Z</time>
      </trkpt>
      <trkpt lat="43.35146" lon="2.39941">
        <ele>535.72</ele>
        <time>2018-09-26T08:14:03Z</time>
      </trkpt>
      <trkpt lat="43.35145" lon="2.39928">
        <ele>535.49</ele>
        <time>2018-09-26T08:14:09Z</time>
      </trkpt>
      <trkpt lat="43.35145" lon="2.39914">
        <ele>535.3</ele>
        <time>2018-09-26T08:14:14Z</time>
      </trkpt>
      <trkpt lat="43.35146" lon="2.39902">
        <ele>535.3</ele>
        <time>2018-09-26T08:14:19Z</time>
      </trkpt>
      <trkpt lat="43.35144" lon="2.39888">
        <ele>536.11</ele>
        <time>2018-09-26T08:14:24Z</time>
      </trkpt>
      <trkpt lat="43.35144" lon="2.39875">
        <ele>537</ele>
        <time>2018-09-26T08:14:29Z</time>
      </trkpt>
      <trkpt lat="43.35146" lon="2.39858">
        <ele>537.89</ele>
        <time>2018-09-26T08:14:34Z</time>
      </trkpt>
      <trkpt lat="43.35147" lon="2.39843">
        <ele>538.89</ele>
        <time>2018-09-26T08:14:39Z</time>
      </trkpt>
      <trkpt lat="43.35149" lon="2.39829">
        <ele>539.45</ele>
        <time>2018-09-26T08:14:43Z</time>
      </trkpt>
      <trkpt lat="43.3515" lon="2.39813">
        <ele>539.71</ele>
        <time>2018-09-26T08:14:48Z</time>
      </trkpt>
      <trkpt lat="43.35146" lon="2.39802">
        <ele>538.81</ele>
        <time>2018-09-26T08:14:52Z</time>
      </trkpt>
      <trkpt lat="43.35141" lon="2.39791">
        <ele>538.09</ele>
        <time>2018-09-26T08:14:56Z</time>
      </trkpt>
      <trkpt lat="43.35136" lon="2.39779">
        <ele>536.88</ele>
        <time>2018-09-26T08:15:04Z</time>
      </trkpt>
      <trkpt lat="43.35135" lon="2.39765">
        <ele>536.68</ele>
        <time>2018-09-26T08:15:13Z</time>
      </trkpt>
      <trkpt lat="43.35134" lon="2.3975">
        <ele>536.62</ele>
        <time>2018-09-26T08:15:21Z</time>
      </trkpt>
      <trkpt lat="43.35134" lon="2.39737">
        <ele>535.64</ele>
        <time>2018-09-26T08:15:26Z</time>
      </trkpt>
      <trkpt lat="43.35135" lon="2.39724">
        <ele>533.9</ele>
        <time>2018-09-26T08:15:30Z</time>
      </trkpt>
      <trkpt lat="43.35135" lon="2.3971">
        <ele>532.9</ele>
        <time>2018-09-26T08:15:34Z</time>
      </trkpt>
      <trkpt lat="43.35135" lon="2.39696">
        <ele>532.26</ele>
        <time>2018-09-26T08:15:39Z</time>
      </trkpt>
      <trkpt lat="43.35134" lon="2.39681">
        <ele>531.53</ele>
        <time>2018-09-26T08:15:44Z</time>
      </trkpt>
      <trkpt lat="43.35134" lon="2.39667">
        <ele>530.88</ele>
        <time>2018-09-26T08:15:49Z</time>
      </trkpt>
      <trkpt lat="43.35135" lon="2.39652">
        <ele>530.56</ele>
        <time>2018-09-26T08:15:54Z</time>
      </trkpt>
      <trkpt lat="43.35136" lon="2.39635">
        <ele>531</ele>
        <time>2018-09-26T08:15:59Z</time>
      </trkpt>
      <trkpt lat="43.35139" lon="2.39619">
        <ele>530.52</ele>
        <time>2018-09-26T08:16:04Z</time>
      </trkpt>
      <trkpt lat="43.35138" lon="2.39604">
        <ele>529.3</ele>
        <time>2018-09-26T08:16:09Z</time>
      </trkpt>
      <trkpt lat="43.35135" lon="2.3959">
        <ele>528.79</ele>
        <time>2018-09-26T08:16:14Z</time>
      </trkpt>
      <trkpt lat="43.35131" lon="2.39576">
        <ele>528.95</ele>
        <time>2018-09-26T08:16:19Z</time>
      </trkpt>
      <trkpt lat="43.35131" lon="2.39561">
        <ele>529.01</ele>
        <time>2018-09-26T08:16:24Z</time>
      </trkpt>
      <trkpt lat="43.35132" lon="2.39546">
        <ele>529.03</ele>
        <time>2018-09-26T08:16:29Z</time>
      </trkpt>
      <trkpt lat="43.35133" lon="2.39533">
        <ele>529.19</ele>
        <time>2018-09-26T08:16:34Z</time>
      </trkpt>
      <trkpt lat="43.35133" lon="2.39519">
        <ele>528.07</ele>
        <time>2018-09-26T08:16:42Z</time>
      </trkpt>
      <trkpt lat="43.35133" lon="2.39502">
        <ele>527.38</ele>
        <time>2018-09-26T08:16:50Z</time>
      </trkpt>
      <trkpt lat="43.35134" lon="2.39488">
        <ele>527.09</ele>
        <time>2018-09-26T08:16:55Z</time>
      </trkpt>
      <trkpt lat="43.35133" lon="2.39472">
        <ele>527.02</ele>
        <time>2018-09-26T08:17:00Z</time>
      </trkpt>
      <trkpt lat="43.35132" lon="2.39456">
        <ele>526.97</ele>
        <time>2018-09-26T08:17:05Z</time>
      </trkpt>
      <trkpt lat="43.35127" lon="2.39443">
        <ele>527.22</ele>
        <time>2018-09-26T08:17:10Z</time>
      </trkpt>
      <trkpt lat="43.35122" lon="2.39428">
        <ele>527.82</ele>
        <time>2018-09-26T08:17:15Z</time>
      </trkpt>
      <trkpt lat="43.3512" lon="2.39413">
        <ele>528.52</ele>
        <time>2018-09-26T08:17:20Z</time>
      </trkpt>
      <trkpt lat="43.35118" lon="2.39399">
        <ele>528.95</ele>
        <time>2018-09-26T08:17:25Z</time>
      </trkpt>
      <trkpt lat="43.35115" lon="2.39384">
        <ele>528.87</ele>
        <time>2018-09-26T08:17:30Z</time>
      </trkpt>
      <trkpt lat="43.3511" lon="2.39371">
        <ele>528.85</ele>
        <time>2018-09-26T08:17:35Z</time>
      </trkpt>
      <trkpt lat="43.35106" lon="2.3936">
        <ele>528.72</ele>
        <time>2018-09-26T08:17:39Z</time>
      </trkpt>
      <trkpt lat="43.35101" lon="2.39349">
        <ele>528.45</ele>
        <time>2018-09-26T08:17:43Z</time>
      </trkpt>
      <trkpt lat="43.35095" lon="2.39337">
        <ele>527.66</ele>
        <time>2018-09-26T08:17:48Z</time>
      </trkpt>
      <trkpt lat="43.3509" lon="2.39325">
        <ele>527.43</ele>
        <time>2018-09-26T08:18:01Z</time>
      </trkpt>
      <trkpt lat="43.35084" lon="2.39314">
        <ele>528.03</ele>
        <time>2018-09-26T08:18:07Z</time>
      </trkpt>
      <trkpt lat="43.35077" lon="2.39305">
        <ele>529.47</ele>
        <time>2018-09-26T08:18:13Z</time>
      </trkpt>
      <trkpt lat="43.35071" lon="2.39293">
        <ele>530.24</ele>
        <time>2018-09-26T08:18:18Z</time>
      </trkpt>
      <trkpt lat="43.35065" lon="2.3928">
        <ele>529.67</ele>
        <time>2018-09-26T08:18:23Z</time>
      </trkpt>
      <trkpt lat="43.35057" lon="2.39272">
        <ele>529.05</ele>
        <time>2018-09-26T08:18:28Z</time>
      </trkpt>
      <trkpt lat="43.35046" lon="2.39268">
        <ele>527.91</ele>
        <time>2018-09-26T08:18:33Z</time>
      </trkpt>
      <trkpt lat="43.35036" lon="2.39266">
        <ele>526.61</ele>
        <time>2018-09-26T08:18:38Z</time>
      </trkpt>
      <trkpt lat="43.35025" lon="2.39263">
        <ele>525.58</ele>
        <time>2018-09-26T08:18:43Z</time>
      </trkpt>
      <trkpt lat="43.35015" lon="2.39257">
        <ele>523.99</ele>
        <time>2018-09-26T08:18:48Z</time>
      </trkpt>
      <trkpt lat="43.35006" lon="2.39254">
        <ele>522.43</ele>
        <time>2018-09-26T08:18:52Z</time>
      </trkpt>
      <trkpt lat="43.34995" lon="2.39252">
        <ele>520.38</ele>
        <time>2018-09-26T08:18:57Z</time>
      </trkpt>
      <trkpt lat="43.34985" lon="2.39254">
        <ele>519.24</ele>
        <time>2018-09-26T08:19:02Z</time>
      </trkpt>
      <trkpt lat="43.34975" lon="2.39259">
        <ele>518.3</ele>
        <time>2018-09-26T08:19:07Z</time>
      </trkpt>
      <trkpt lat="43.34964" lon="2.3926">
        <ele>516.78</ele>
        <time>2018-09-26T08:19:12Z</time>
      </trkpt>
      <trkpt lat="43.34955" lon="2.39258">
        <ele>515.18</ele>
        <time>2018-09-26T08:19:17Z</time>
      </trkpt>
      <trkpt lat="43.34945" lon="2.39255">
        <ele>512.89</ele>
        <time>2018-09-26T08:19:25Z</time>
      </trkpt>
      <trkpt lat="43.3494" lon="2.39244">
        <ele>511.39</ele>
        <time>2018-09-26T08:19:47Z</time>
      </trkpt>
      <trkpt lat="43.34938" lon="2.3923">
        <ele>511.25</ele>
        <time>2018-09-26T08:19:56Z</time>
      </trkpt>
      <trkpt lat="43.34936" lon="2.39215">
        <ele>510.31</ele>
        <time>2018-09-26T08:20:01Z</time>
      </trkpt>
      <trkpt lat="43.34935" lon="2.39203">
        <ele>509.85</ele>
        <time>2018-09-26T08:20:06Z</time>
      </trkpt>
      <trkpt lat="43.34936" lon="2.39189">
        <ele>508.7</ele>
        <time>2018-09-26T08:20:12Z</time>
      </trkpt>
      <trkpt lat="43.3494" lon="2.39175">
        <ele>507.82</ele>
        <time>2018-09-26T08:20:18Z</time>
      </trkpt>
      <trkpt lat="43.34945" lon="2.39163">
        <ele>507.96</ele>
        <time>2018-09-26T08:20:23Z</time>
      </trkpt>
      <trkpt lat="43.3495" lon="2.39151">
        <ele>507.23</ele>
        <time>2018-09-26T08:20:28Z</time>
      </trkpt>
      <trkpt lat="43.34956" lon="2.39142">
        <ele>506.57</ele>
        <time>2018-09-26T08:20:33Z</time>
      </trkpt>
      <trkpt lat="43.34965" lon="2.39132">
        <ele>506.22</ele>
        <time>2018-09-26T08:20:42Z</time>
      </trkpt>
      <trkpt lat="43.34969" lon="2.39124">
        <ele>505.95</ele>
        <time>2018-09-26T08:20:59Z</time>
      </trkpt>
      <trkpt lat="43.34964" lon="2.39127">
        <ele>505.78</ele>
        <time>2018-09-26T08:21:39Z</time>
      </trkpt>
      <trkpt lat="43.34956" lon="2.39137">
        <ele>505.78</ele>
        <time>2018-09-26T08:21:47Z</time>
      </trkpt>
      <trkpt lat="43.34948" lon="2.39149">
        <ele>506.42</ele>
        <time>2018-09-26T08:21:54Z</time>
      </trkpt>
      <trkpt lat="43.34942" lon="2.39163">
        <ele>506.9</ele>
        <time>2018-09-26T08:22:00Z</time>
      </trkpt>
      <trkpt lat="43.34938" lon="2.39175">
        <ele>507.15</ele>
        <time>2018-09-26T08:22:05Z</time>
      </trkpt>
      <trkpt lat="43.34936" lon="2.39188">
        <ele>506.84</ele>
        <time>2018-09-26T08:22:10Z</time>
      </trkpt>
      <trkpt lat="43.34935" lon="2.39203">
        <ele>507.03</ele>
        <time>2018-09-26T08:22:15Z</time>
      </trkpt>
      <trkpt lat="43.34935" lon="2.39216">
        <ele>506.78</ele>
        <time>2018-09-26T08:22:23Z</time>
      </trkpt>
      <trkpt lat="43.34927" lon="2.39226">
        <ele>507.46</ele>
        <time>2018-09-26T08:22:38Z</time>
      </trkpt>
      <trkpt lat="43.34926" lon="2.39222">
        <ele>509.01</ele>
        <time>2018-09-26T08:22:52Z</time>
      </trkpt>
      <trkpt lat="43.34923" lon="2.39209">
        <ele>507.86</ele>
        <time>2018-09-26T08:23:00Z</time>
      </trkpt>
      <trkpt lat="43.34921" lon="2.39203">
        <ele>507.3</ele>
        <time>2018-09-26T08:23:04Z</time>
      </trkpt>
      <trkpt lat="43.34921" lon="2.39195">
        <ele>506.26</ele>
        <time>2018-09-26T08:23:09Z</time>
      </trkpt>
      <trkpt lat="43.34921" lon="2.39182">
        <ele>504.7</ele>
        <time>2018-09-26T08:23:18Z</time>
      </trkpt>
      <trkpt lat="43.34921" lon="2.39185">
        <ele>503.66</ele>
        <time>2018-09-26T08:23:33Z</time>
      </trkpt>
      <trkpt lat="43.3492" lon="2.39199">
        <ele>502.88</ele>
        <time>2018-09-26T08:23:41Z</time>
      </trkpt>
      <trkpt lat="43.34922" lon="2.39211">
        <ele>503.54</ele>
        <time>2018-09-26T08:23:48Z</time>
      </trkpt>
      <trkpt lat="43.34925" lon="2.39224">
        <ele>504.6</ele>
        <time>2018-09-26T08:23:55Z</time>
      </trkpt>
      <trkpt lat="43.34927" lon="2.39238">
        <ele>505.05</ele>
        <time>2018-09-26T08:24:02Z</time>
      </trkpt>
      <trkpt lat="43.34932" lon="2.39248">
        <ele>505.58</ele>
        <time>2018-09-26T08:24:10Z</time>
      </trkpt>
      <trkpt lat="43.34939" lon="2.39259">
        <ele>508.21</ele>
        <time>2018-09-26T08:24:18Z</time>
      </trkpt>
      <trkpt lat="43.34941" lon="2.39273">
        <ele>509.2</ele>
        <time>2018-09-26T08:24:25Z</time>
      </trkpt>
      <trkpt lat="43.34944" lon="2.39287">
        <ele>507.98</ele>
        <time>2018-09-26T08:24:30Z</time>
      </trkpt>
      <trkpt lat="43.34946" lon="2.39303">
        <ele>506.44</ele>
        <time>2018-09-26T08:24:35Z</time>
      </trkpt>
      <trkpt lat="43.34949" lon="2.39318">
        <ele>506.06</ele>
        <time>2018-09-26T08:24:40Z</time>
      </trkpt>
      <trkpt lat="43.34951" lon="2.3933">
        <ele>505.96</ele>
        <time>2018-09-26T08:24:44Z</time>
      </trkpt>
      <trkpt lat="43.34954" lon="2.39342">
        <ele>505.64</ele>
        <time>2018-09-26T08:24:48Z</time>
      </trkpt>
      <trkpt lat="43.34956" lon="2.39355">
        <ele>505.32</ele>
        <time>2018-09-26T08:24:52Z</time>
      </trkpt>
      <trkpt lat="43.34958" lon="2.39369">
        <ele>505.09</ele>
        <time>2018-09-26T08:24:57Z</time>
      </trkpt>
      <trkpt lat="43.3496" lon="2.39383">
        <ele>504.57</ele>
        <time>2018-09-26T08:25:02Z</time>
      </trkpt>
      <trkpt lat="43.34965" lon="2.39396">
        <ele>503.69</ele>
        <time>2018-09-26T08:25:07Z</time>
      </trkpt>
      <trkpt lat="43.34968" lon="2.3941">
        <ele>502.68</ele>
        <time>2018-09-26T08:25:12Z</time>
      </trkpt>
      <trkpt lat="43.34974" lon="2.39423">
        <ele>501.15</ele>
        <time>2018-09-26T08:25:17Z</time>
      </trkpt>
      <trkpt lat="43.34976" lon="2.39437">
        <ele>498.94</ele>
        <time>2018-09-26T08:25:22Z</time>
      </trkpt>
      <trkpt lat="43.34976" lon="2.39454">
        <ele>497.82</ele>
        <time>2018-09-26T08:25:27Z</time>
      </trkpt>
      <trkpt lat="43.34975" lon="2.39469">
        <ele>497.03</ele>
        <time>2018-09-26T08:25:32Z</time>
      </trkpt>
      <trkpt lat="43.34975" lon="2.39485">
        <ele>496.55</ele>
        <time>2018-09-26T08:25:37Z</time>
      </trkpt>
      <trkpt lat="43.34975" lon="2.395">
        <ele>496.3</ele>
        <time>2018-09-26T08:25:42Z</time>
      </trkpt>
      <trkpt lat="43.34974" lon="2.39515">
        <ele>495.84</ele>
        <time>2018-09-26T08:25:47Z</time>
      </trkpt>
      <trkpt lat="43.34973" lon="2.39529">
        <ele>495.37</ele>
        <time>2018-09-26T08:25:52Z</time>
      </trkpt>
      <trkpt lat="43.3497" lon="2.39545">
        <ele>495.3</ele>
        <time>2018-09-26T08:25:57Z</time>
      </trkpt>
      <trkpt lat="43.34966" lon="2.39561">
        <ele>495.42</ele>
        <time>2018-09-26T08:26:02Z</time>
      </trkpt>
      <trkpt lat="43.34962" lon="2.39575">
        <ele>495.68</ele>
        <time>2018-09-26T08:26:07Z</time>
      </trkpt>
      <trkpt lat="43.34957" lon="2.39588">
        <ele>496.09</ele>
        <time>2018-09-26T08:26:12Z</time>
      </trkpt>
      <trkpt lat="43.34953" lon="2.39602">
        <ele>496.44</ele>
        <time>2018-09-26T08:26:20Z</time>
      </trkpt>
      <trkpt lat="43.34948" lon="2.39614">
        <ele>496.12</ele>
        <time>2018-09-26T08:26:27Z</time>
      </trkpt>
      <trkpt lat="43.34944" lon="2.39626">
        <ele>495.84</ele>
        <time>2018-09-26T08:26:33Z</time>
      </trkpt>
      <trkpt lat="43.34931" lon="2.39633">
        <ele>494.02</ele>
        <time>2018-09-26T08:26:41Z</time>
      </trkpt>
      <trkpt lat="43.34926" lon="2.39646">
        <ele>491.98</ele>
        <time>2018-09-26T08:26:49Z</time>
      </trkpt>
      <trkpt lat="43.34922" lon="2.39662">
        <ele>491.81</ele>
        <time>2018-09-26T08:26:56Z</time>
      </trkpt>
      <trkpt lat="43.34916" lon="2.3968">
        <ele>492.21</ele>
        <time>2018-09-26T08:27:03Z</time>
      </trkpt>
      <trkpt lat="43.34912" lon="2.39699">
        <ele>492.32</ele>
        <time>2018-09-26T08:27:09Z</time>
      </trkpt>
      <trkpt lat="43.34904" lon="2.39707">
        <ele>491.88</ele>
        <time>2018-09-26T08:27:17Z</time>
      </trkpt>
      <trkpt lat="43.34893" lon="2.39706">
        <ele>490.47</ele>
        <time>2018-09-26T08:27:22Z</time>
      </trkpt>
      <trkpt lat="43.34882" lon="2.39707">
        <ele>488.28</ele>
        <time>2018-09-26T08:27:28Z</time>
      </trkpt>
      <trkpt lat="43.34872" lon="2.39706">
        <ele>485.75</ele>
        <time>2018-09-26T08:27:37Z</time>
      </trkpt>
      <trkpt lat="43.34865" lon="2.39717">
        <ele>484.99</ele>
        <time>2018-09-26T08:27:43Z</time>
      </trkpt>
      <trkpt lat="43.34856" lon="2.3972">
        <ele>484.5</ele>
        <time>2018-09-26T08:27:49Z</time>
      </trkpt>
      <trkpt lat="43.34846" lon="2.39713">
        <ele>483.53</ele>
        <time>2018-09-26T08:27:55Z</time>
      </trkpt>
      <trkpt lat="43.34834" lon="2.39706">
        <ele>480.77</ele>
        <time>2018-09-26T08:28:00Z</time>
      </trkpt>
      <trkpt lat="43.34826" lon="2.39702">
        <ele>479.06</ele>
        <time>2018-09-26T08:28:04Z</time>
      </trkpt>
      <trkpt lat="43.34816" lon="2.39696">
        <ele>477.5</ele>
        <time>2018-09-26T08:28:09Z</time>
      </trkpt>
      <trkpt lat="43.34807" lon="2.39686">
        <ele>475.91</ele>
        <time>2018-09-26T08:28:14Z</time>
      </trkpt>
      <trkpt lat="43.34798" lon="2.39676">
        <ele>473.89</ele>
        <time>2018-09-26T08:28:19Z</time>
      </trkpt>
      <trkpt lat="43.34791" lon="2.39667">
        <ele>472.42</ele>
        <time>2018-09-26T08:28:24Z</time>
      </trkpt>
      <trkpt lat="43.34782" lon="2.39658">
        <ele>469.9</ele>
        <time>2018-09-26T08:28:29Z</time>
      </trkpt>
      <trkpt lat="43.34776" lon="2.39645">
        <ele>468.52</ele>
        <time>2018-09-26T08:28:34Z</time>
      </trkpt>
      <trkpt lat="43.34771" lon="2.39632">
        <ele>467.09</ele>
        <time>2018-09-26T08:28:39Z</time>
      </trkpt>
      <trkpt lat="43.34766" lon="2.39619">
        <ele>465.34</ele>
        <time>2018-09-26T08:28:44Z</time>
      </trkpt>
      <trkpt lat="43.3476" lon="2.39606">
        <ele>462.55</ele>
        <time>2018-09-26T08:28:49Z</time>
      </trkpt>
      <trkpt lat="43.34753" lon="2.39594">
        <ele>460.44</ele>
        <time>2018-09-26T08:28:54Z</time>
      </trkpt>
      <trkpt lat="43.34746" lon="2.39583">
        <ele>459.37</ele>
        <time>2018-09-26T08:28:59Z</time>
      </trkpt>
      <trkpt lat="43.34739" lon="2.3957">
        <ele>458.52</ele>
        <time>2018-09-26T08:29:04Z</time>
      </trkpt>
      <trkpt lat="43.34736" lon="2.39557">
        <ele>457.56</ele>
        <time>2018-09-26T08:29:09Z</time>
      </trkpt>
      <trkpt lat="43.34736" lon="2.39543">
        <ele>456.38</ele>
        <time>2018-09-26T08:29:15Z</time>
      </trkpt>
      <trkpt lat="43.34733" lon="2.39528">
        <ele>456.28</ele>
        <time>2018-09-26T08:29:21Z</time>
      </trkpt>
      <trkpt lat="43.34727" lon="2.39515">
        <ele>457.22</ele>
        <time>2018-09-26T08:29:27Z</time>
      </trkpt>
      <trkpt lat="43.3472" lon="2.39505">
        <ele>458.25</ele>
        <time>2018-09-26T08:29:32Z</time>
      </trkpt>
      <trkpt lat="43.34711" lon="2.39493">
        <ele>458.79</ele>
        <time>2018-09-26T08:29:38Z</time>
      </trkpt>
      <trkpt lat="43.34705" lon="2.39479">
        <ele>458.13</ele>
        <time>2018-09-26T08:29:45Z</time>
      </trkpt>
      <trkpt lat="43.347" lon="2.39466">
        <ele>457.75</ele>
        <time>2018-09-26T08:29:51Z</time>
      </trkpt>
      <trkpt lat="43.34695" lon="2.39452">
        <ele>456.8</ele>
        <time>2018-09-26T08:29:57Z</time>
      </trkpt>
      <trkpt lat="43.34688" lon="2.39437">
        <ele>455.59</ele>
        <time>2018-09-26T08:30:03Z</time>
      </trkpt>
      <trkpt lat="43.34681" lon="2.39421">
        <ele>455.66</ele>
        <time>2018-09-26T08:30:09Z</time>
      </trkpt>
      <trkpt lat="43.3468" lon="2.39406">
        <ele>454.98</ele>
        <time>2018-09-26T08:30:15Z</time>
      </trkpt>
      <trkpt lat="43.34683" lon="2.39389">
        <ele>455.26</ele>
        <time>2018-09-26T08:30:24Z</time>
      </trkpt>
      <trkpt lat="43.34685" lon="2.39374">
        <ele>455.64</ele>
        <time>2018-09-26T08:30:31Z</time>
      </trkpt>
      <trkpt lat="43.34683" lon="2.39357">
        <ele>455.52</ele>
        <time>2018-09-26T08:30:38Z</time>
      </trkpt>
      <trkpt lat="43.3468" lon="2.39341">
        <ele>455.69</ele>
        <time>2018-09-26T08:30:45Z</time>
      </trkpt>
      <trkpt lat="43.34675" lon="2.39326">
        <ele>456.56</ele>
        <time>2018-09-26T08:30:53Z</time>
      </trkpt>
      <trkpt lat="43.34668" lon="2.39306">
        <ele>457.04</ele>
        <time>2018-09-26T08:31:00Z</time>
      </trkpt>
      <trkpt lat="43.34666" lon="2.3929">
        <ele>457.39</ele>
        <time>2018-09-26T08:31:06Z</time>
      </trkpt>
      <trkpt lat="43.3466" lon="2.39279">
        <ele>457.27</ele>
        <time>2018-09-26T08:31:27Z</time>
      </trkpt>
      <trkpt lat="43.3466" lon="2.39277">
        <ele>457.25</ele>
        <time>2018-09-26T08:31:28Z</time>
      </trkpt>
      <trkpt lat="43.34655" lon="2.3926">
        <ele>456.11</ele>
        <time>2018-09-26T08:31:37Z</time>
      </trkpt>
      <trkpt lat="43.34654" lon="2.39245">
        <ele>454.59</ele>
        <time>2018-09-26T08:31:46Z</time>
      </trkpt>
      <trkpt lat="43.34658" lon="2.39227">
        <ele>452.83</ele>
        <time>2018-09-26T08:31:55Z</time>
      </trkpt>
      <trkpt lat="43.34662" lon="2.39209">
        <ele>451.7</ele>
        <time>2018-09-26T08:32:02Z</time>
      </trkpt>
      <trkpt lat="43.34667" lon="2.39191">
        <ele>451.69</ele>
        <time>2018-09-26T08:32:09Z</time>
      </trkpt>
      <trkpt lat="43.3467" lon="2.39169">
        <ele>451.24</ele>
        <time>2018-09-26T08:32:15Z</time>
      </trkpt>
      <trkpt lat="43.34673" lon="2.39149">
        <ele>449.51</ele>
        <time>2018-09-26T08:32:21Z</time>
      </trkpt>
      <trkpt lat="43.34676" lon="2.39129">
        <ele>447.74</ele>
        <time>2018-09-26T08:32:27Z</time>
      </trkpt>
      <trkpt lat="43.34682" lon="2.39111">
        <ele>446.68</ele>
        <time>2018-09-26T08:32:35Z</time>
      </trkpt>
      <trkpt lat="43.34688" lon="2.39092">
        <ele>447.37</ele>
        <time>2018-09-26T08:32:43Z</time>
      </trkpt>
      <trkpt lat="43.34688" lon="2.39074">
        <ele>445.56</ele>
        <time>2018-09-26T08:32:52Z</time>
      </trkpt>
      <trkpt lat="43.3469" lon="2.39057">
        <ele>443.16</ele>
        <time>2018-09-26T08:33:00Z</time>
      </trkpt>
      <trkpt lat="43.3469" lon="2.39035">
        <ele>441.06</ele>
        <time>2018-09-26T08:33:10Z</time>
      </trkpt>
      <trkpt lat="43.34687" lon="2.39014">
        <ele>439.05</ele>
        <time>2018-09-26T08:33:21Z</time>
      </trkpt>
      <trkpt lat="43.34685" lon="2.38998">
        <ele>437.58</ele>
        <time>2018-09-26T08:33:28Z</time>
      </trkpt>
      <trkpt lat="43.34685" lon="2.3898">
        <ele>436.41</ele>
        <time>2018-09-26T08:33:35Z</time>
      </trkpt>
      <trkpt lat="43.34686" lon="2.38961">
        <ele>435.06</ele>
        <time>2018-09-26T08:33:42Z</time>
      </trkpt>
      <trkpt lat="43.34684" lon="2.38943">
        <ele>432.84</ele>
        <time>2018-09-26T08:33:49Z</time>
      </trkpt>
      <trkpt lat="43.34685" lon="2.38927">
        <ele>430.78</ele>
        <time>2018-09-26T08:33:55Z</time>
      </trkpt>
      <trkpt lat="43.34687" lon="2.38913">
        <ele>428.95</ele>
        <time>2018-09-26T08:34:01Z</time>
      </trkpt>
      <trkpt lat="43.34686" lon="2.38901">
        <ele>428.4</ele>
        <time>2018-09-26T08:34:07Z</time>
      </trkpt>
      <trkpt lat="43.34685" lon="2.38886">
        <ele>428.09</ele>
        <time>2018-09-26T08:34:13Z</time>
      </trkpt>
      <trkpt lat="43.34684" lon="2.38873">
        <ele>427.28</ele>
        <time>2018-09-26T08:34:19Z</time>
      </trkpt>
      <trkpt lat="43.34685" lon="2.38859">
        <ele>425.58</ele>
        <time>2018-09-26T08:34:26Z</time>
      </trkpt>
      <trkpt lat="43.34688" lon="2.38846">
        <ele>423.92</ele>
        <time>2018-09-26T08:34:33Z</time>
      </trkpt>
      <trkpt lat="43.3469" lon="2.38833">
        <ele>422.14</ele>
        <time>2018-09-26T08:34:41Z</time>
      </trkpt>
      <trkpt lat="43.34694" lon="2.38817">
        <ele>421.08</ele>
        <time>2018-09-26T08:34:48Z</time>
      </trkpt>
      <trkpt lat="43.34698" lon="2.38801">
        <ele>419.26</ele>
        <time>2018-09-26T08:34:55Z</time>
      </trkpt>
      <trkpt lat="43.34702" lon="2.38785">
        <ele>416.32</ele>
        <time>2018-09-26T08:35:04Z</time>
      </trkpt>
      <trkpt lat="43.34706" lon="2.38771">
        <ele>413.76</ele>
        <time>2018-09-26T08:35:12Z</time>
      </trkpt>
      <trkpt lat="43.34712" lon="2.38759">
        <ele>411.88</ele>
        <time>2018-09-26T08:35:19Z</time>
      </trkpt>
      <trkpt lat="43.34717" lon="2.38744">
        <ele>410.65</ele>
        <time>2018-09-26T08:35:26Z</time>
      </trkpt>
      <trkpt lat="43.34721" lon="2.3873">
        <ele>410.39</ele>
        <time>2018-09-26T08:35:34Z</time>
      </trkpt>
      <trkpt lat="43.34722" lon="2.38713">
        <ele>409.73</ele>
        <time>2018-09-26T08:35:42Z</time>
      </trkpt>
      <trkpt lat="43.34721" lon="2.38696">
        <ele>408.27</ele>
        <time>2018-09-26T08:35:49Z</time>
      </trkpt>
      <trkpt lat="43.34722" lon="2.38678">
        <ele>407.62</ele>
        <time>2018-09-26T08:35:57Z</time>
      </trkpt>
      <trkpt lat="43.34723" lon="2.38662">
        <ele>407.91</ele>
        <time>2018-09-26T08:36:04Z</time>
      </trkpt>
      <trkpt lat="43.34721" lon="2.38648">
        <ele>407.95</ele>
        <time>2018-09-26T08:36:10Z</time>
      </trkpt>
      <trkpt lat="43.3472" lon="2.38634">
        <ele>407.33</ele>
        <time>2018-09-26T08:36:16Z</time>
      </trkpt>
      <trkpt lat="43.34719" lon="2.38618">
        <ele>407.3</ele>
        <time>2018-09-26T08:36:23Z</time>
      </trkpt>
      <trkpt lat="43.34716" lon="2.38602">
        <ele>407.43</ele>
        <time>2018-09-26T08:36:30Z</time>
      </trkpt>
      <trkpt lat="43.34717" lon="2.38586">
        <ele>407.02</ele>
        <time>2018-09-26T08:36:36Z</time>
      </trkpt>
      <trkpt lat="43.34721" lon="2.38571">
        <ele>406.21</ele>
        <time>2018-09-26T08:36:43Z</time>
      </trkpt>
      <trkpt lat="43.34723" lon="2.38556">
        <ele>405.74</ele>
        <time>2018-09-26T08:36:50Z</time>
      </trkpt>
      <trkpt lat="43.34723" lon="2.38542">
        <ele>405.77</ele>
        <time>2018-09-26T08:36:57Z</time>
      </trkpt>
      <trkpt lat="43.34718" lon="2.3853">
        <ele>405.64</ele>
        <time>2018-09-26T08:37:04Z</time>
      </trkpt>
      <trkpt lat="43.34713" lon="2.38514">
        <ele>404.27</ele>
        <time>2018-09-26T08:37:10Z</time>
      </trkpt>
      <trkpt lat="43.3471" lon="2.38498">
        <ele>403.42</ele>
        <time>2018-09-26T08:37:16Z</time>
      </trkpt>
      <trkpt lat="43.3471" lon="2.38482">
        <ele>402.83</ele>
        <time>2018-09-26T08:37:22Z</time>
      </trkpt>
      <trkpt lat="43.34712" lon="2.38466">
        <ele>401.48</ele>
        <time>2018-09-26T08:37:28Z</time>
      </trkpt>
      <trkpt lat="43.34714" lon="2.38451">
        <ele>399.86</ele>
        <time>2018-09-26T08:37:35Z</time>
      </trkpt>
      <trkpt lat="43.34715" lon="2.38438">
        <ele>398.29</ele>
        <time>2018-09-26T08:37:42Z</time>
      </trkpt>
      <trkpt lat="43.34718" lon="2.38425">
        <ele>395.78</ele>
        <time>2018-09-26T08:37:50Z</time>
      </trkpt>
      <trkpt lat="43.34722" lon="2.38413">
        <ele>391.52</ele>
        <time>2018-09-26T08:38:02Z</time>
      </trkpt>
      <trkpt lat="43.34726" lon="2.38399">
        <ele>389.69</ele>
        <time>2018-09-26T08:38:11Z</time>
      </trkpt>
      <trkpt lat="43.3473" lon="2.38384">
        <ele>387.41</ele>
        <time>2018-09-26T08:38:20Z</time>
      </trkpt>
      <trkpt lat="43.34735" lon="2.3837">
        <ele>385.34</ele>
        <time>2018-09-26T08:38:29Z</time>
      </trkpt>
      <trkpt lat="43.3474" lon="2.38357">
        <ele>382.22</ele>
        <time>2018-09-26T08:38:37Z</time>
      </trkpt>
      <trkpt lat="43.34745" lon="2.38343">
        <ele>379.9</ele>
        <time>2018-09-26T08:38:45Z</time>
      </trkpt>
      <trkpt lat="43.3475" lon="2.3833">
        <ele>377.86</ele>
        <time>2018-09-26T08:38:53Z</time>
      </trkpt>
      <trkpt lat="43.34755" lon="2.38317">
        <ele>374.45</ele>
        <time>2018-09-26T08:39:01Z</time>
      </trkpt>
      <trkpt lat="43.34765" lon="2.38314">
        <ele>371.7</ele>
        <time>2018-09-26T08:39:10Z</time>
      </trkpt>
      <trkpt lat="43.34777" lon="2.38313">
        <ele>370.58</ele>
        <time>2018-09-26T08:39:17Z</time>
      </trkpt>
      <trkpt lat="43.34788" lon="2.38314">
        <ele>368.73</ele>
        <time>2018-09-26T08:39:24Z</time>
      </trkpt>
      <trkpt lat="43.34798" lon="2.38315">
        <ele>366.78</ele>
        <time>2018-09-26T08:39:31Z</time>
      </trkpt>
      <trkpt lat="43.34809" lon="2.38315">
        <ele>363.57</ele>
        <time>2018-09-26T08:39:38Z</time>
      </trkpt>
      <trkpt lat="43.34819" lon="2.38311">
        <ele>361.01</ele>
        <time>2018-09-26T08:39:46Z</time>
      </trkpt>
      <trkpt lat="43.34831" lon="2.38309">
        <ele>357.81</ele>
        <time>2018-09-26T08:39:56Z</time>
      </trkpt>
      <trkpt lat="43.34842" lon="2.38308">
        <ele>355.49</ele>
        <time>2018-09-26T08:40:03Z</time>
      </trkpt>
      <trkpt lat="43.34854" lon="2.38308">
        <ele>353.31</ele>
        <time>2018-09-26T08:40:10Z</time>
      </trkpt>
      <trkpt lat="43.34864" lon="2.38312">
        <ele>351.65</ele>
        <time>2018-09-26T08:40:16Z</time>
      </trkpt>
      <trkpt lat="43.34872" lon="2.38321">
        <ele>350.02</ele>
        <time>2018-09-26T08:40:23Z</time>
      </trkpt>
      <trkpt lat="43.34879" lon="2.38329">
        <ele>348.34</ele>
        <time>2018-09-26T08:40:30Z</time>
      </trkpt>
      <trkpt lat="43.34885" lon="2.38341">
        <ele>346.25</ele>
        <time>2018-09-26T08:40:38Z</time>
      </trkpt>
      <trkpt lat="43.34892" lon="2.38352">
        <ele>344.96</ele>
        <time>2018-09-26T08:40:44Z</time>
      </trkpt>
      <trkpt lat="43.34899" lon="2.38365">
        <ele>341.74</ele>
        <time>2018-09-26T08:40:52Z</time>
      </trkpt>
      <trkpt lat="43.34907" lon="2.38377">
        <ele>339.71</ele>
        <time>2018-09-26T08:41:00Z</time>
      </trkpt>
      <trkpt lat="43.34916" lon="2.3839">
        <ele>337.53</ele>
        <time>2018-09-26T08:41:07Z</time>
      </trkpt>
      <trkpt lat="43.34926" lon="2.384">
        <ele>336.25</ele>
        <time>2018-09-26T08:41:14Z</time>
      </trkpt>
      <trkpt lat="43.34938" lon="2.38411">
        <ele>333.88</ele>
        <time>2018-09-26T08:41:23Z</time>
      </trkpt>
      <trkpt lat="43.34954" lon="2.38417">
        <ele>333.16</ele>
        <time>2018-09-26T08:41:31Z</time>
      </trkpt>
      <trkpt lat="43.34951" lon="2.38403">
        <ele>333.12</ele>
        <time>2018-09-26T08:41:43Z</time>
      </trkpt>
      <trkpt lat="43.34949" lon="2.38387">
        <ele>332.86</ele>
        <time>2018-09-26T08:41:54Z</time>
      </trkpt>
      <trkpt lat="43.34947" lon="2.38371">
        <ele>333.24</ele>
        <time>2018-09-26T08:42:02Z</time>
      </trkpt>
      <trkpt lat="43.34947" lon="2.38356">
        <ele>333.31</ele>
        <time>2018-09-26T08:42:10Z</time>
      </trkpt>
      <trkpt lat="43.34946" lon="2.38342">
        <ele>333.77</ele>
        <time>2018-09-26T08:42:19Z</time>
      </trkpt>
      <trkpt lat="43.34944" lon="2.38325">
        <ele>333.57</ele>
        <time>2018-09-26T08:42:29Z</time>
      </trkpt>
      <trkpt lat="43.34945" lon="2.38311">
        <ele>333.24</ele>
        <time>2018-09-26T08:42:36Z</time>
      </trkpt>
      <trkpt lat="43.34945" lon="2.38297">
        <ele>332.7</ele>
        <time>2018-09-26T08:42:44Z</time>
      </trkpt>
      <trkpt lat="43.34948" lon="2.38281">
        <ele>334.84</ele>
        <time>2018-09-26T08:42:58Z</time>
      </trkpt>
      <trkpt lat="43.34955" lon="2.38267">
        <ele>337.47</ele>
        <time>2018-09-26T08:43:10Z</time>
      </trkpt>
      <trkpt lat="43.34953" lon="2.38248">
        <ele>340.71</ele>
        <time>2018-09-26T08:43:21Z</time>
      </trkpt>
      <trkpt lat="43.34953" lon="2.3823">
        <ele>343.1</ele>
        <time>2018-09-26T08:43:32Z</time>
      </trkpt>
      <trkpt lat="43.34949" lon="2.38212">
        <ele>344.42</ele>
        <time>2018-09-26T08:43:44Z</time>
      </trkpt>
      <trkpt lat="43.34944" lon="2.38197">
        <ele>344.27</ele>
        <time>2018-09-26T08:43:51Z</time>
      </trkpt>
      <trkpt lat="43.34937" lon="2.38182">
        <ele>343.66</ele>
        <time>2018-09-26T08:43:59Z</time>
      </trkpt>
      <trkpt lat="43.34932" lon="2.38168">
        <ele>343.12</ele>
        <time>2018-09-26T08:44:07Z</time>
      </trkpt>
      <trkpt lat="43.34924" lon="2.38154">
        <ele>343.97</ele>
        <time>2018-09-26T08:44:19Z</time>
      </trkpt>
      <trkpt lat="43.34924" lon="2.38138">
        <ele>341.58</ele>
        <time>2018-09-26T08:45:15Z</time>
      </trkpt>
      <trkpt lat="43.34923" lon="2.38149">
        <ele>342.73</ele>
        <time>2018-09-26T08:45:26Z</time>
      </trkpt>
      <trkpt lat="43.34929" lon="2.38158">
        <ele>343.28</ele>
        <time>2018-09-26T08:45:36Z</time>
      </trkpt>
      <trkpt lat="43.34923" lon="2.38149">
        <ele>344.3</ele>
        <time>2018-09-26T08:46:38Z</time>
      </trkpt>
      <trkpt lat="43.34925" lon="2.38139">
        <ele>343.84</ele>
        <time>2018-09-26T08:46:48Z</time>
      </trkpt>
      <trkpt lat="43.34935" lon="2.38137">
        <ele>340.86</ele>
        <time>2018-09-26T08:46:58Z</time>
      </trkpt>
      <trkpt lat="43.34945" lon="2.38133">
        <ele>338.34</ele>
        <time>2018-09-26T08:47:08Z</time>
      </trkpt>
      <trkpt lat="43.34939" lon="2.38127">
        <ele>334.81</ele>
        <time>2018-09-26T08:47:21Z</time>
      </trkpt>
      <trkpt lat="43.34947" lon="2.38121">
        <ele>332.39</ele>
        <time>2018-09-26T08:47:31Z</time>
      </trkpt>
      <trkpt lat="43.34939" lon="2.38115">
        <ele>329.19</ele>
        <time>2018-09-26T08:47:41Z</time>
      </trkpt>
      <trkpt lat="43.34945" lon="2.38109">
        <ele>324.81</ele>
        <time>2018-09-26T08:47:52Z</time>
      </trkpt>
      <trkpt lat="43.34949" lon="2.381">
        <ele>320.43</ele>
        <time>2018-09-26T08:48:43Z</time>
      </trkpt>
      <trkpt lat="43.34959" lon="2.38099">
        <ele>318.26</ele>
        <time>2018-09-26T08:48:53Z</time>
      </trkpt>
      <trkpt lat="43.34969" lon="2.38101">
        <ele>316.64</ele>
        <time>2018-09-26T08:49:02Z</time>
      </trkpt>
      <trkpt lat="43.34978" lon="2.381">
        <ele>315</ele>
        <time>2018-09-26T08:49:10Z</time>
      </trkpt>
      <trkpt lat="43.34981" lon="2.381">
        <ele>311.41</ele>
        <time>2018-09-26T08:49:20Z</time>
      </trkpt>
      <trkpt lat="43.3499" lon="2.38094">
        <ele>307.72</ele>
        <time>2018-09-26T08:49:31Z</time>
      </trkpt>
      <trkpt lat="43.35" lon="2.38089">
        <ele>304.15</ele>
        <time>2018-09-26T08:49:39Z</time>
      </trkpt>
      <trkpt lat="43.3501" lon="2.38087">
        <ele>301.07</ele>
        <time>2018-09-26T08:49:48Z</time>
      </trkpt>
      <trkpt lat="43.3502" lon="2.38085">
        <ele>298.19</ele>
        <time>2018-09-26T08:49:56Z</time>
      </trkpt>
      <trkpt lat="43.35031" lon="2.38084">
        <ele>294.94</ele>
        <time>2018-09-26T08:50:09Z</time>
      </trkpt>
      <trkpt lat="43.35043" lon="2.38081">
        <ele>292.34</ele>
        <time>2018-09-26T08:50:21Z</time>
      </trkpt>
      <trkpt lat="43.35052" lon="2.38077">
        <ele>289.46</ele>
        <time>2018-09-26T08:50:29Z</time>
      </trkpt>
      <trkpt lat="43.35062" lon="2.38078">
        <ele>287.73</ele>
        <time>2018-09-26T08:50:35Z</time>
      </trkpt>
      <trkpt lat="43.35073" lon="2.3808">
        <ele>286.77</ele>
        <time>2018-09-26T08:50:42Z</time>
      </trkpt>
      <trkpt lat="43.35085" lon="2.38074">
        <ele>284.77</ele>
        <time>2018-09-26T08:50:50Z</time>
      </trkpt>
      <trkpt lat="43.35098" lon="2.3807">
        <ele>282.27</ele>
        <time>2018-09-26T08:50:58Z</time>
      </trkpt>
      <trkpt lat="43.35108" lon="2.38065">
        <ele>280.17</ele>
        <time>2018-09-26T08:51:04Z</time>
      </trkpt>
      <trkpt lat="43.35118" lon="2.38064">
        <ele>278.25</ele>
        <time>2018-09-26T08:51:10Z</time>
      </trkpt>
      <trkpt lat="43.3513" lon="2.38053">
        <ele>274.87</ele>
        <time>2018-09-26T08:51:18Z</time>
      </trkpt>
      <trkpt lat="43.35135" lon="2.38033">
        <ele>271.29</ele>
        <time>2018-09-26T08:51:29Z</time>
      </trkpt>
      <trkpt lat="43.35138" lon="2.38016">
        <ele>268.75</ele>
        <time>2018-09-26T08:51:37Z</time>
      </trkpt>
      <trkpt lat="43.35145" lon="2.38006">
        <ele>265.43</ele>
        <time>2018-09-26T08:51:48Z</time>
      </trkpt>
      <trkpt lat="43.35152" lon="2.37992">
        <ele>262.75</ele>
        <time>2018-09-26T08:51:58Z</time>
      </trkpt>
      <trkpt lat="43.35156" lon="2.37976">
        <ele>258.48</ele>
        <time>2018-09-26T08:52:09Z</time>
      </trkpt>
      <trkpt lat="43.35162" lon="2.3796">
        <ele>253.28</ele>
        <time>2018-09-26T08:52:22Z</time>
      </trkpt>
      <trkpt lat="43.35168" lon="2.37945">
        <ele>249.21</ele>
        <time>2018-09-26T08:52:34Z</time>
      </trkpt>
      <trkpt lat="43.35162" lon="2.37934">
        <ele>245.28</ele>
        <time>2018-09-26T08:52:47Z</time>
      </trkpt>
      <trkpt lat="43.35156" lon="2.37924">
        <ele>242.42</ele>
        <time>2018-09-26T08:52:57Z</time>
      </trkpt>
      <trkpt lat="43.35158" lon="2.3791">
        <ele>240.75</ele>
        <time>2018-09-26T08:53:04Z</time>
      </trkpt>
      <trkpt lat="43.35161" lon="2.37896">
        <ele>238.75</ele>
        <time>2018-09-26T08:53:11Z</time>
      </trkpt>
      <trkpt lat="43.35154" lon="2.37883">
        <ele>234.71</ele>
        <time>2018-09-26T08:53:23Z</time>
      </trkpt>
      <trkpt lat="43.35145" lon="2.37872">
        <ele>233.01</ele>
        <time>2018-09-26T08:53:31Z</time>
      </trkpt>
      <trkpt lat="43.35139" lon="2.37862">
        <ele>231.12</ele>
        <time>2018-09-26T08:53:39Z</time>
      </trkpt>
      <trkpt lat="43.35132" lon="2.37851">
        <ele>228.74</ele>
        <time>2018-09-26T08:53:47Z</time>
      </trkpt>
      <trkpt lat="43.35126" lon="2.37839">
        <ele>226.07</ele>
        <time>2018-09-26T08:53:59Z</time>
      </trkpt>
      <trkpt lat="43.35125" lon="2.37837">
        <ele>224.32</ele>
        <time>2018-09-26T08:54:17Z</time>
      </trkpt>
      <trkpt lat="43.35134" lon="2.37833">
        <ele>223.88</ele>
        <time>2018-09-26T08:54:25Z</time>
      </trkpt>
      <trkpt lat="43.35143" lon="2.37821">
        <ele>223.53</ele>
        <time>2018-09-26T08:54:37Z</time>
      </trkpt>
      <trkpt lat="43.35156" lon="2.37812">
        <ele>223.42</ele>
        <time>2018-09-26T08:54:44Z</time>
      </trkpt>
      <trkpt lat="43.3516" lon="2.37797">
        <ele>223.36</ele>
        <time>2018-09-26T08:54:50Z</time>
      </trkpt>
      <trkpt lat="43.35155" lon="2.3778">
        <ele>223.54</ele>
        <time>2018-09-26T08:54:56Z</time>
      </trkpt>
      <trkpt lat="43.35147" lon="2.37766">
        <ele>224.18</ele>
        <time>2018-09-26T08:55:02Z</time>
      </trkpt>
      <trkpt lat="43.35141" lon="2.37753">
        <ele>224.5</ele>
        <time>2018-09-26T08:55:09Z</time>
      </trkpt>
      <trkpt lat="43.35137" lon="2.37748">
        <ele>224.66</ele>
        <time>2018-09-26T08:55:12Z</time>
      </trkpt>
      <trkpt lat="43.35133" lon="2.37741">
        <ele>224.7</ele>
        <time>2018-09-26T08:55:18Z</time>
      </trkpt>
      <trkpt lat="43.35126" lon="2.37734">
        <ele>224.77</ele>
        <time>2018-09-26T08:55:41Z</time>
      </trkpt>
      <trkpt lat="43.35119" lon="2.3773">
        <ele>224.41</ele>
        <time>2018-09-26T08:56:42Z</time>
      </trkpt>
      <trkpt lat="43.35118" lon="2.3773">
        <ele>224.16</ele>
        <time>2018-09-26T08:56:49Z</time>
      </trkpt>
    </trkseg>
  </trk>
</gpx>